<?xml version="1.0" encoding="UTF-8" standalone="no" ?>
<gpx xmlns="http://www.topografix.com/GPX/1/1" xmlns:xsi="http://www.w3.org/2001/XMLSchema-instance" xsi:schemaLocation="http://www.topografix.com/GPX/1/1 http://www.topografix.com/GPX/1/1/gpx.xsd" version="1.1" creator="VisuGPX - https://www.visugpx.com">
  <metadata>
    <name>Entre Paulhiac et Gavaudun</name>
    <desc><![CDATA[Entre Paulhiac et Gavaudun]]></desc>
  </metadata>
  <trk>
    <name><![CDATA[07-DEC-14 12:10:17]]></name>
    <trkseg>
      <trkpt lat="44.58566" lon="0.82455">
        <ele>148.66</ele>
        <time>2014-12-07T08:13:38Z</time>
      </trkpt>
      <trkpt lat="44.58571" lon="0.82467">
        <ele>148.18</ele>
        <time>2014-12-07T08:13:59Z</time>
      </trkpt>
      <trkpt lat="44.58573" lon="0.82477">
        <ele>149.14</ele>
        <time>2014-12-07T08:14:15Z</time>
      </trkpt>
      <trkpt lat="44.58572" lon="0.82478">
        <ele>148.18</ele>
        <time>2014-12-07T08:14:46Z</time>
      </trkpt>
      <trkpt lat="44.58572" lon="0.82479">
        <ele>147.7</ele>
        <time>2014-12-07T08:15:04Z</time>
      </trkpt>
      <trkpt lat="44.58573" lon="0.82479">
        <ele>148.18</ele>
        <time>2014-12-07T08:15:28Z</time>
      </trkpt>
      <trkpt lat="44.58574" lon="0.82478">
        <ele>148.66</ele>
        <time>2014-12-07T08:15:47Z</time>
      </trkpt>
      <trkpt lat="44.58573" lon="0.82477">
        <ele>148.18</ele>
        <time>2014-12-07T08:16:14Z</time>
      </trkpt>
      <trkpt lat="44.58571" lon="0.82476">
        <ele>146.26</ele>
        <time>2014-12-07T08:16:37Z</time>
      </trkpt>
      <trkpt lat="44.58571" lon="0.82476">
        <ele>145.78</ele>
        <time>2014-12-07T08:16:44Z</time>
      </trkpt>
      <trkpt lat="44.58568" lon="0.82489">
        <ele>146.26</ele>
        <time>2014-12-07T08:16:50Z</time>
      </trkpt>
      <trkpt lat="44.58567" lon="0.82492">
        <ele>145.78</ele>
        <time>2014-12-07T08:16:51Z</time>
      </trkpt>
      <trkpt lat="44.58565" lon="0.82495">
        <ele>145.78</ele>
        <time>2014-12-07T08:16:52Z</time>
      </trkpt>
      <trkpt lat="44.58564" lon="0.82497">
        <ele>145.78</ele>
        <time>2014-12-07T08:16:53Z</time>
      </trkpt>
      <trkpt lat="44.58523" lon="0.82536">
        <ele>146.26</ele>
        <time>2014-12-07T08:17:07Z</time>
      </trkpt>
      <trkpt lat="44.58459" lon="0.82599">
        <ele>147.22</ele>
        <time>2014-12-07T08:17:24Z</time>
      </trkpt>
      <trkpt lat="44.58389" lon="0.82659">
        <ele>148.18</ele>
        <time>2014-12-07T08:17:42Z</time>
      </trkpt>
      <trkpt lat="44.58329" lon="0.82696">
        <ele>148.18</ele>
        <time>2014-12-07T08:17:56Z</time>
      </trkpt>
      <trkpt lat="44.58251" lon="0.82724">
        <ele>148.18</ele>
        <time>2014-12-07T08:18:13Z</time>
      </trkpt>
      <trkpt lat="44.58172" lon="0.82772">
        <ele>150.1</ele>
        <time>2014-12-07T08:18:32Z</time>
      </trkpt>
      <trkpt lat="44.58107" lon="0.82823">
        <ele>151.54</ele>
        <time>2014-12-07T08:18:49Z</time>
      </trkpt>
      <trkpt lat="44.58039" lon="0.82883">
        <ele>152.51</ele>
        <time>2014-12-07T08:19:08Z</time>
      </trkpt>
      <trkpt lat="44.58028" lon="0.82901">
        <ele>152.03</ele>
        <time>2014-12-07T08:19:13Z</time>
      </trkpt>
      <trkpt lat="44.58028" lon="0.82907">
        <ele>152.03</ele>
        <time>2014-12-07T08:19:14Z</time>
      </trkpt>
      <trkpt lat="44.58029" lon="0.82912">
        <ele>152.03</ele>
        <time>2014-12-07T08:19:15Z</time>
      </trkpt>
      <trkpt lat="44.58064" lon="0.83026">
        <ele>152.03</ele>
        <time>2014-12-07T08:19:35Z</time>
      </trkpt>
      <trkpt lat="44.58095" lon="0.8313">
        <ele>152.99</ele>
        <time>2014-12-07T08:19:53Z</time>
      </trkpt>
      <trkpt lat="44.58116" lon="0.83206">
        <ele>156.35</ele>
        <time>2014-12-07T08:20:08Z</time>
      </trkpt>
      <trkpt lat="44.58115" lon="0.8321">
        <ele>156.35</ele>
        <time>2014-12-07T08:20:09Z</time>
      </trkpt>
      <trkpt lat="44.58114" lon="0.83213">
        <ele>156.35</ele>
        <time>2014-12-07T08:20:10Z</time>
      </trkpt>
      <trkpt lat="44.58107" lon="0.83249">
        <ele>158.75</ele>
        <time>2014-12-07T08:20:20Z</time>
      </trkpt>
      <trkpt lat="44.58101" lon="0.83284">
        <ele>159.24</ele>
        <time>2014-12-07T08:20:30Z</time>
      </trkpt>
      <trkpt lat="44.581" lon="0.83318">
        <ele>158.27</ele>
        <time>2014-12-07T08:20:39Z</time>
      </trkpt>
      <trkpt lat="44.58091" lon="0.83357">
        <ele>156.83</ele>
        <time>2014-12-07T08:20:46Z</time>
      </trkpt>
      <trkpt lat="44.58084" lon="0.83395">
        <ele>156.83</ele>
        <time>2014-12-07T08:20:53Z</time>
      </trkpt>
      <trkpt lat="44.58077" lon="0.83416">
        <ele>156.83</ele>
        <time>2014-12-07T08:20:58Z</time>
      </trkpt>
      <trkpt lat="44.58078" lon="0.83443">
        <ele>154.43</ele>
        <time>2014-12-07T08:21:05Z</time>
      </trkpt>
      <trkpt lat="44.58077" lon="0.83447">
        <ele>154.43</ele>
        <time>2014-12-07T08:21:06Z</time>
      </trkpt>
      <trkpt lat="44.58065" lon="0.83506">
        <ele>154.43</ele>
        <time>2014-12-07T08:21:18Z</time>
      </trkpt>
      <trkpt lat="44.58048" lon="0.83564">
        <ele>158.27</ele>
        <time>2014-12-07T08:21:31Z</time>
      </trkpt>
      <trkpt lat="44.58037" lon="0.83616">
        <ele>159.24</ele>
        <time>2014-12-07T08:21:43Z</time>
      </trkpt>
      <trkpt lat="44.58026" lon="0.83677">
        <ele>158.27</ele>
        <time>2014-12-07T08:21:56Z</time>
      </trkpt>
      <trkpt lat="44.58021" lon="0.83708">
        <ele>157.79</ele>
        <time>2014-12-07T08:22:03Z</time>
      </trkpt>
      <trkpt lat="44.57998" lon="0.83712">
        <ele>159.24</ele>
        <time>2014-12-07T08:22:11Z</time>
      </trkpt>
      <trkpt lat="44.57991" lon="0.83709">
        <ele>160.2</ele>
        <time>2014-12-07T08:22:13Z</time>
      </trkpt>
      <trkpt lat="44.57951" lon="0.83704">
        <ele>163.56</ele>
        <time>2014-12-07T08:22:25Z</time>
      </trkpt>
      <trkpt lat="44.57926" lon="0.83707">
        <ele>167.41</ele>
        <time>2014-12-07T08:22:35Z</time>
      </trkpt>
      <trkpt lat="44.5789" lon="0.83696">
        <ele>166.93</ele>
        <time>2014-12-07T08:22:46Z</time>
      </trkpt>
      <trkpt lat="44.57851" lon="0.83704">
        <ele>169.81</ele>
        <time>2014-12-07T08:22:57Z</time>
      </trkpt>
      <trkpt lat="44.57849" lon="0.83706">
        <ele>169.81</ele>
        <time>2014-12-07T08:22:58Z</time>
      </trkpt>
      <trkpt lat="44.57824" lon="0.8373">
        <ele>169.81</ele>
        <time>2014-12-07T08:23:08Z</time>
      </trkpt>
      <trkpt lat="44.57821" lon="0.83732">
        <ele>169.33</ele>
        <time>2014-12-07T08:23:11Z</time>
      </trkpt>
      <trkpt lat="44.57817" lon="0.8374">
        <ele>168.85</ele>
        <time>2014-12-07T08:23:16Z</time>
      </trkpt>
      <trkpt lat="44.57813" lon="0.83738">
        <ele>169.33</ele>
        <time>2014-12-07T08:23:20Z</time>
      </trkpt>
      <trkpt lat="44.57809" lon="0.83734">
        <ele>168.85</ele>
        <time>2014-12-07T08:23:24Z</time>
      </trkpt>
      <trkpt lat="44.57807" lon="0.83731">
        <ele>168.37</ele>
        <time>2014-12-07T08:23:27Z</time>
      </trkpt>
      <trkpt lat="44.57809" lon="0.83731">
        <ele>167.89</ele>
        <time>2014-12-07T08:23:31Z</time>
      </trkpt>
      <trkpt lat="44.57805" lon="0.83728">
        <ele>168.37</ele>
        <time>2014-12-07T08:23:38Z</time>
      </trkpt>
      <trkpt lat="44.57776" lon="0.83725">
        <ele>168.37</ele>
        <time>2014-12-07T08:23:48Z</time>
      </trkpt>
      <trkpt lat="44.57745" lon="0.83731">
        <ele>169.33</ele>
        <time>2014-12-07T08:23:56Z</time>
      </trkpt>
      <trkpt lat="44.57722" lon="0.83726">
        <ele>169.33</ele>
        <time>2014-12-07T08:24:02Z</time>
      </trkpt>
      <trkpt lat="44.57714" lon="0.83724">
        <ele>169.33</ele>
        <time>2014-12-07T08:24:04Z</time>
      </trkpt>
      <trkpt lat="44.57695" lon="0.83722">
        <ele>169.33</ele>
        <time>2014-12-07T08:24:08Z</time>
      </trkpt>
      <trkpt lat="44.57686" lon="0.83719">
        <ele>169.33</ele>
        <time>2014-12-07T08:24:10Z</time>
      </trkpt>
      <trkpt lat="44.57651" lon="0.83715">
        <ele>167.89</ele>
        <time>2014-12-07T08:24:17Z</time>
      </trkpt>
      <trkpt lat="44.57628" lon="0.83712">
        <ele>166.45</ele>
        <time>2014-12-07T08:24:21Z</time>
      </trkpt>
      <trkpt lat="44.57609" lon="0.8371">
        <ele>164.52</ele>
        <time>2014-12-07T08:24:24Z</time>
      </trkpt>
      <trkpt lat="44.57587" lon="0.83721">
        <ele>162.6</ele>
        <time>2014-12-07T08:24:28Z</time>
      </trkpt>
      <trkpt lat="44.5756" lon="0.83731">
        <ele>162.12</ele>
        <time>2014-12-07T08:24:32Z</time>
      </trkpt>
      <trkpt lat="44.57499" lon="0.83774">
        <ele>158.75</ele>
        <time>2014-12-07T08:24:42Z</time>
      </trkpt>
      <trkpt lat="44.5747" lon="0.83797">
        <ele>156.35</ele>
        <time>2014-12-07T08:24:48Z</time>
      </trkpt>
      <trkpt lat="44.57467" lon="0.83822">
        <ele>154.43</ele>
        <time>2014-12-07T08:24:51Z</time>
      </trkpt>
      <trkpt lat="44.57454" lon="0.83855">
        <ele>151.06</ele>
        <time>2014-12-07T08:24:55Z</time>
      </trkpt>
      <trkpt lat="44.57431" lon="0.83868">
        <ele>149.62</ele>
        <time>2014-12-07T08:25:00Z</time>
      </trkpt>
      <trkpt lat="44.57417" lon="0.83875">
        <ele>148.18</ele>
        <time>2014-12-07T08:25:08Z</time>
      </trkpt>
      <trkpt lat="44.57416" lon="0.83878">
        <ele>148.66</ele>
        <time>2014-12-07T08:25:09Z</time>
      </trkpt>
      <trkpt lat="44.57417" lon="0.83881">
        <ele>149.62</ele>
        <time>2014-12-07T08:25:22Z</time>
      </trkpt>
      <trkpt lat="44.57418" lon="0.83882">
        <ele>150.58</ele>
        <time>2014-12-07T08:25:51Z</time>
      </trkpt>
      <trkpt lat="44.57419" lon="0.83884">
        <ele>152.99</ele>
        <time>2014-12-07T08:26:12Z</time>
      </trkpt>
      <trkpt lat="44.57419" lon="0.83886">
        <ele>153.95</ele>
        <time>2014-12-07T08:26:18Z</time>
      </trkpt>
      <trkpt lat="44.57419" lon="0.83887">
        <ele>154.43</ele>
        <time>2014-12-07T08:26:29Z</time>
      </trkpt>
      <trkpt lat="44.57416" lon="0.83882">
        <ele>153.47</ele>
        <time>2014-12-07T08:26:52Z</time>
      </trkpt>
      <trkpt lat="44.57416" lon="0.8388">
        <ele>153.47</ele>
        <time>2014-12-07T08:26:53Z</time>
      </trkpt>
      <trkpt lat="44.57416" lon="0.83879">
        <ele>153.47</ele>
        <time>2014-12-07T08:26:54Z</time>
      </trkpt>
      <trkpt lat="44.57415" lon="0.83877">
        <ele>152.99</ele>
        <time>2014-12-07T08:26:55Z</time>
      </trkpt>
      <trkpt lat="44.57414" lon="0.83875">
        <ele>152.99</ele>
        <time>2014-12-07T08:26:56Z</time>
      </trkpt>
      <trkpt lat="44.57385" lon="0.83847">
        <ele>151.54</ele>
        <time>2014-12-07T08:27:07Z</time>
      </trkpt>
      <trkpt lat="44.57333" lon="0.83803">
        <ele>152.99</ele>
        <time>2014-12-07T08:27:22Z</time>
      </trkpt>
      <trkpt lat="44.57331" lon="0.83798">
        <ele>152.99</ele>
        <time>2014-12-07T08:27:23Z</time>
      </trkpt>
      <trkpt lat="44.57332" lon="0.83794">
        <ele>152.99</ele>
        <time>2014-12-07T08:27:24Z</time>
      </trkpt>
      <trkpt lat="44.57335" lon="0.83785">
        <ele>152.51</ele>
        <time>2014-12-07T08:27:26Z</time>
      </trkpt>
      <trkpt lat="44.57358" lon="0.83726">
        <ele>152.03</ele>
        <time>2014-12-07T08:27:35Z</time>
      </trkpt>
      <trkpt lat="44.5736" lon="0.83719">
        <ele>152.03</ele>
        <time>2014-12-07T08:27:36Z</time>
      </trkpt>
      <trkpt lat="44.57364" lon="0.83702">
        <ele>152.03</ele>
        <time>2014-12-07T08:27:38Z</time>
      </trkpt>
      <trkpt lat="44.57366" lon="0.83694">
        <ele>152.03</ele>
        <time>2014-12-07T08:27:39Z</time>
      </trkpt>
      <trkpt lat="44.5737" lon="0.83678">
        <ele>151.54</ele>
        <time>2014-12-07T08:27:41Z</time>
      </trkpt>
      <trkpt lat="44.57372" lon="0.8367">
        <ele>151.06</ele>
        <time>2014-12-07T08:27:42Z</time>
      </trkpt>
      <trkpt lat="44.57376" lon="0.83654">
        <ele>150.1</ele>
        <time>2014-12-07T08:27:44Z</time>
      </trkpt>
      <trkpt lat="44.57384" lon="0.83631">
        <ele>149.14</ele>
        <time>2014-12-07T08:27:47Z</time>
      </trkpt>
      <trkpt lat="44.57387" lon="0.83624">
        <ele>148.66</ele>
        <time>2014-12-07T08:27:48Z</time>
      </trkpt>
      <trkpt lat="44.57401" lon="0.83596">
        <ele>147.7</ele>
        <time>2014-12-07T08:27:52Z</time>
      </trkpt>
      <trkpt lat="44.57413" lon="0.83577">
        <ele>146.74</ele>
        <time>2014-12-07T08:27:55Z</time>
      </trkpt>
      <trkpt lat="44.57416" lon="0.8357">
        <ele>146.74</ele>
        <time>2014-12-07T08:27:56Z</time>
      </trkpt>
      <trkpt lat="44.57443" lon="0.8353">
        <ele>145.78</ele>
        <time>2014-12-07T08:28:02Z</time>
      </trkpt>
      <trkpt lat="44.57447" lon="0.83523">
        <ele>145.78</ele>
        <time>2014-12-07T08:28:03Z</time>
      </trkpt>
      <trkpt lat="44.57452" lon="0.83515">
        <ele>145.3</ele>
        <time>2014-12-07T08:28:04Z</time>
      </trkpt>
      <trkpt lat="44.57498" lon="0.83418">
        <ele>143.85</ele>
        <time>2014-12-07T08:28:15Z</time>
      </trkpt>
      <trkpt lat="44.57541" lon="0.83315">
        <ele>141.45</ele>
        <time>2014-12-07T08:28:27Z</time>
      </trkpt>
      <trkpt lat="44.5756" lon="0.83264">
        <ele>140.01</ele>
        <time>2014-12-07T08:28:38Z</time>
      </trkpt>
      <trkpt lat="44.57567" lon="0.83233">
        <ele>138.09</ele>
        <time>2014-12-07T08:28:44Z</time>
      </trkpt>
      <trkpt lat="44.57568" lon="0.83218">
        <ele>136.16</ele>
        <time>2014-12-07T08:28:46Z</time>
      </trkpt>
      <trkpt lat="44.57568" lon="0.8321">
        <ele>135.2</ele>
        <time>2014-12-07T08:28:47Z</time>
      </trkpt>
      <trkpt lat="44.57562" lon="0.83172">
        <ele>131.36</ele>
        <time>2014-12-07T08:28:52Z</time>
      </trkpt>
      <trkpt lat="44.57546" lon="0.83115">
        <ele>127.03</ele>
        <time>2014-12-07T08:29:00Z</time>
      </trkpt>
      <trkpt lat="44.57519" lon="0.83026">
        <ele>119.34</ele>
        <time>2014-12-07T08:29:14Z</time>
      </trkpt>
      <trkpt lat="44.57505" lon="0.82971">
        <ele>118.38</ele>
        <time>2014-12-07T08:29:23Z</time>
      </trkpt>
      <trkpt lat="44.57502" lon="0.82965">
        <ele>117.9</ele>
        <time>2014-12-07T08:29:24Z</time>
      </trkpt>
      <trkpt lat="44.5747" lon="0.82874">
        <ele>111.65</ele>
        <time>2014-12-07T08:29:35Z</time>
      </trkpt>
      <trkpt lat="44.57464" lon="0.82847">
        <ele>109.73</ele>
        <time>2014-12-07T08:29:38Z</time>
      </trkpt>
      <trkpt lat="44.57461" lon="0.82838">
        <ele>109.25</ele>
        <time>2014-12-07T08:29:39Z</time>
      </trkpt>
      <trkpt lat="44.57459" lon="0.8283">
        <ele>108.29</ele>
        <time>2014-12-07T08:29:40Z</time>
      </trkpt>
      <trkpt lat="44.57457" lon="0.82822">
        <ele>107.81</ele>
        <time>2014-12-07T08:29:41Z</time>
      </trkpt>
      <trkpt lat="44.57442" lon="0.82783">
        <ele>106.36</ele>
        <time>2014-12-07T08:29:47Z</time>
      </trkpt>
      <trkpt lat="44.57435" lon="0.82757">
        <ele>104.92</ele>
        <time>2014-12-07T08:29:51Z</time>
      </trkpt>
      <trkpt lat="44.57435" lon="0.82724">
        <ele>103.48</ele>
        <time>2014-12-07T08:29:55Z</time>
      </trkpt>
      <trkpt lat="44.57465" lon="0.82609">
        <ele>104.44</ele>
        <time>2014-12-07T08:30:08Z</time>
      </trkpt>
      <trkpt lat="44.57478" lon="0.82571">
        <ele>111.17</ele>
        <time>2014-12-07T08:30:17Z</time>
      </trkpt>
      <trkpt lat="44.57504" lon="0.82515">
        <ele>112.13</ele>
        <time>2014-12-07T08:30:27Z</time>
      </trkpt>
      <trkpt lat="44.57496" lon="0.82495">
        <ele>112.13</ele>
        <time>2014-12-07T08:30:32Z</time>
      </trkpt>
      <trkpt lat="44.57425" lon="0.82458">
        <ele>113.09</ele>
        <time>2014-12-07T08:30:48Z</time>
      </trkpt>
      <trkpt lat="44.57371" lon="0.82431">
        <ele>117.9</ele>
        <time>2014-12-07T08:31:01Z</time>
      </trkpt>
      <trkpt lat="44.5735" lon="0.82423">
        <ele>119.82</ele>
        <time>2014-12-07T08:31:06Z</time>
      </trkpt>
      <trkpt lat="44.57296" lon="0.82401">
        <ele>122.71</ele>
        <time>2014-12-07T08:31:20Z</time>
      </trkpt>
      <trkpt lat="44.57266" lon="0.82399">
        <ele>121.26</ele>
        <time>2014-12-07T08:31:27Z</time>
      </trkpt>
      <trkpt lat="44.57205" lon="0.82401">
        <ele>126.55</ele>
        <time>2014-12-07T08:31:43Z</time>
      </trkpt>
      <trkpt lat="44.57167" lon="0.82378">
        <ele>133.28</ele>
        <time>2014-12-07T08:31:56Z</time>
      </trkpt>
      <trkpt lat="44.57147" lon="0.82359">
        <ele>141.45</ele>
        <time>2014-12-07T08:32:08Z</time>
      </trkpt>
      <trkpt lat="44.57122" lon="0.82339">
        <ele>144.82</ele>
        <time>2014-12-07T08:32:18Z</time>
      </trkpt>
      <trkpt lat="44.57099" lon="0.82297">
        <ele>144.34</ele>
        <time>2014-12-07T08:32:29Z</time>
      </trkpt>
      <trkpt lat="44.57077" lon="0.82241">
        <ele>142.89</ele>
        <time>2014-12-07T08:32:43Z</time>
      </trkpt>
      <trkpt lat="44.57045" lon="0.82183">
        <ele>139.05</ele>
        <time>2014-12-07T08:32:57Z</time>
      </trkpt>
      <trkpt lat="44.57042" lon="0.82181">
        <ele>139.05</ele>
        <time>2014-12-07T08:32:58Z</time>
      </trkpt>
      <trkpt lat="44.57029" lon="0.82185">
        <ele>139.05</ele>
        <time>2014-12-07T08:33:02Z</time>
      </trkpt>
      <trkpt lat="44.56976" lon="0.82188">
        <ele>138.09</ele>
        <time>2014-12-07T08:33:16Z</time>
      </trkpt>
      <trkpt lat="44.56935" lon="0.82191">
        <ele>136.16</ele>
        <time>2014-12-07T08:33:26Z</time>
      </trkpt>
      <trkpt lat="44.56923" lon="0.82181">
        <ele>135.68</ele>
        <time>2014-12-07T08:33:30Z</time>
      </trkpt>
      <trkpt lat="44.56894" lon="0.82155">
        <ele>134.72</ele>
        <time>2014-12-07T08:33:40Z</time>
      </trkpt>
      <trkpt lat="44.5684" lon="0.82161">
        <ele>135.2</ele>
        <time>2014-12-07T08:33:54Z</time>
      </trkpt>
      <trkpt lat="44.56813" lon="0.82164">
        <ele>137.13</ele>
        <time>2014-12-07T08:34:04Z</time>
      </trkpt>
      <trkpt lat="44.56794" lon="0.82206">
        <ele>138.09</ele>
        <time>2014-12-07T08:34:17Z</time>
      </trkpt>
      <trkpt lat="44.56789" lon="0.82208">
        <ele>138.09</ele>
        <time>2014-12-07T08:34:19Z</time>
      </trkpt>
      <trkpt lat="44.5678" lon="0.822">
        <ele>139.05</ele>
        <time>2014-12-07T08:34:23Z</time>
      </trkpt>
      <trkpt lat="44.56741" lon="0.8216">
        <ele>142.89</ele>
        <time>2014-12-07T08:34:40Z</time>
      </trkpt>
      <trkpt lat="44.56717" lon="0.82136">
        <ele>144.34</ele>
        <time>2014-12-07T08:34:51Z</time>
      </trkpt>
      <trkpt lat="44.5671" lon="0.82131">
        <ele>144.82</ele>
        <time>2014-12-07T08:34:54Z</time>
      </trkpt>
      <trkpt lat="44.56669" lon="0.82146">
        <ele>144.82</ele>
        <time>2014-12-07T08:35:08Z</time>
      </trkpt>
      <trkpt lat="44.56624" lon="0.82173">
        <ele>146.74</ele>
        <time>2014-12-07T08:35:22Z</time>
      </trkpt>
      <trkpt lat="44.56602" lon="0.82208">
        <ele>149.14</ele>
        <time>2014-12-07T08:35:33Z</time>
      </trkpt>
      <trkpt lat="44.56597" lon="0.82256">
        <ele>150.1</ele>
        <time>2014-12-07T08:35:45Z</time>
      </trkpt>
      <trkpt lat="44.56582" lon="0.823">
        <ele>152.03</ele>
        <time>2014-12-07T08:35:57Z</time>
      </trkpt>
      <trkpt lat="44.56572" lon="0.82327">
        <ele>152.51</ele>
        <time>2014-12-07T08:36:06Z</time>
      </trkpt>
      <trkpt lat="44.56596" lon="0.82361">
        <ele>150.1</ele>
        <time>2014-12-07T08:36:20Z</time>
      </trkpt>
      <trkpt lat="44.56605" lon="0.82377">
        <ele>149.14</ele>
        <time>2014-12-07T08:36:24Z</time>
      </trkpt>
      <trkpt lat="44.56597" lon="0.82401">
        <ele>148.18</ele>
        <time>2014-12-07T08:36:29Z</time>
      </trkpt>
      <trkpt lat="44.56565" lon="0.82476">
        <ele>147.7</ele>
        <time>2014-12-07T08:36:45Z</time>
      </trkpt>
      <trkpt lat="44.56547" lon="0.82511">
        <ele>146.74</ele>
        <time>2014-12-07T08:36:53Z</time>
      </trkpt>
      <trkpt lat="44.56539" lon="0.82516">
        <ele>146.26</ele>
        <time>2014-12-07T08:36:58Z</time>
      </trkpt>
      <trkpt lat="44.56537" lon="0.82516">
        <ele>146.26</ele>
        <time>2014-12-07T08:36:59Z</time>
      </trkpt>
      <trkpt lat="44.56535" lon="0.82515">
        <ele>146.74</ele>
        <time>2014-12-07T08:37:00Z</time>
      </trkpt>
      <trkpt lat="44.56535" lon="0.82513">
        <ele>146.74</ele>
        <time>2014-12-07T08:37:01Z</time>
      </trkpt>
      <trkpt lat="44.56534" lon="0.82512">
        <ele>146.74</ele>
        <time>2014-12-07T08:37:02Z</time>
      </trkpt>
      <trkpt lat="44.56532" lon="0.8251">
        <ele>147.7</ele>
        <time>2014-12-07T08:37:17Z</time>
      </trkpt>
      <trkpt lat="44.56532" lon="0.8251">
        <ele>148.18</ele>
        <time>2014-12-07T08:37:41Z</time>
      </trkpt>
      <trkpt lat="44.56532" lon="0.82508">
        <ele>149.14</ele>
        <time>2014-12-07T08:37:51Z</time>
      </trkpt>
      <trkpt lat="44.56532" lon="0.82506">
        <ele>149.14</ele>
        <time>2014-12-07T08:37:52Z</time>
      </trkpt>
      <trkpt lat="44.56531" lon="0.82504">
        <ele>148.66</ele>
        <time>2014-12-07T08:38:06Z</time>
      </trkpt>
      <trkpt lat="44.56532" lon="0.82503">
        <ele>149.62</ele>
        <time>2014-12-07T08:38:28Z</time>
      </trkpt>
      <trkpt lat="44.56531" lon="0.82502">
        <ele>149.14</ele>
        <time>2014-12-07T08:38:29Z</time>
      </trkpt>
      <trkpt lat="44.56529" lon="0.825">
        <ele>149.14</ele>
        <time>2014-12-07T08:38:30Z</time>
      </trkpt>
      <trkpt lat="44.56488" lon="0.8246">
        <ele>150.58</ele>
        <time>2014-12-07T08:38:44Z</time>
      </trkpt>
      <trkpt lat="44.56454" lon="0.82426">
        <ele>151.06</ele>
        <time>2014-12-07T08:38:56Z</time>
      </trkpt>
      <trkpt lat="44.56396" lon="0.82353">
        <ele>146.26</ele>
        <time>2014-12-07T08:39:07Z</time>
      </trkpt>
      <trkpt lat="44.56314" lon="0.82225">
        <ele>143.85</ele>
        <time>2014-12-07T08:39:22Z</time>
      </trkpt>
      <trkpt lat="44.56244" lon="0.82138">
        <ele>147.22</ele>
        <time>2014-12-07T08:39:35Z</time>
      </trkpt>
      <trkpt lat="44.56211" lon="0.82094">
        <ele>151.06</ele>
        <time>2014-12-07T08:39:44Z</time>
      </trkpt>
      <trkpt lat="44.56178" lon="0.82025">
        <ele>152.03</ele>
        <time>2014-12-07T08:39:58Z</time>
      </trkpt>
      <trkpt lat="44.56175" lon="0.8202">
        <ele>152.03</ele>
        <time>2014-12-07T08:39:59Z</time>
      </trkpt>
      <trkpt lat="44.56154" lon="0.81983">
        <ele>152.51</ele>
        <time>2014-12-07T08:40:07Z</time>
      </trkpt>
      <trkpt lat="44.56151" lon="0.81979">
        <ele>152.99</ele>
        <time>2014-12-07T08:40:08Z</time>
      </trkpt>
      <trkpt lat="44.56148" lon="0.81976">
        <ele>152.99</ele>
        <time>2014-12-07T08:40:09Z</time>
      </trkpt>
      <trkpt lat="44.56146" lon="0.81972">
        <ele>153.47</ele>
        <time>2014-12-07T08:40:10Z</time>
      </trkpt>
      <trkpt lat="44.56143" lon="0.81967">
        <ele>153.47</ele>
        <time>2014-12-07T08:40:11Z</time>
      </trkpt>
      <trkpt lat="44.56141" lon="0.81963">
        <ele>153.47</ele>
        <time>2014-12-07T08:40:12Z</time>
      </trkpt>
      <trkpt lat="44.56139" lon="0.81958">
        <ele>153.47</ele>
        <time>2014-12-07T08:40:13Z</time>
      </trkpt>
      <trkpt lat="44.56137" lon="0.81954">
        <ele>153.47</ele>
        <time>2014-12-07T08:40:14Z</time>
      </trkpt>
      <trkpt lat="44.56129" lon="0.81939">
        <ele>153.95</ele>
        <time>2014-12-07T08:40:17Z</time>
      </trkpt>
      <trkpt lat="44.56125" lon="0.81929">
        <ele>153.95</ele>
        <time>2014-12-07T08:40:19Z</time>
      </trkpt>
      <trkpt lat="44.56092" lon="0.81828">
        <ele>153.95</ele>
        <time>2014-12-07T08:40:36Z</time>
      </trkpt>
      <trkpt lat="44.56057" lon="0.81757">
        <ele>155.39</ele>
        <time>2014-12-07T08:40:51Z</time>
      </trkpt>
      <trkpt lat="44.56032" lon="0.81717">
        <ele>154.91</ele>
        <time>2014-12-07T08:41:00Z</time>
      </trkpt>
      <trkpt lat="44.56029" lon="0.81713">
        <ele>154.91</ele>
        <time>2014-12-07T08:41:01Z</time>
      </trkpt>
      <trkpt lat="44.56027" lon="0.81708">
        <ele>154.91</ele>
        <time>2014-12-07T08:41:02Z</time>
      </trkpt>
      <trkpt lat="44.56025" lon="0.81704">
        <ele>154.91</ele>
        <time>2014-12-07T08:41:03Z</time>
      </trkpt>
      <trkpt lat="44.56022" lon="0.81699">
        <ele>154.43</ele>
        <time>2014-12-07T08:41:04Z</time>
      </trkpt>
      <trkpt lat="44.56019" lon="0.81694">
        <ele>153.95</ele>
        <time>2014-12-07T08:41:05Z</time>
      </trkpt>
      <trkpt lat="44.56016" lon="0.81688">
        <ele>153.95</ele>
        <time>2014-12-07T08:41:06Z</time>
      </trkpt>
      <trkpt lat="44.55962" lon="0.81616">
        <ele>148.18</ele>
        <time>2014-12-07T08:41:18Z</time>
      </trkpt>
      <trkpt lat="44.5591" lon="0.81567">
        <ele>142.41</ele>
        <time>2014-12-07T08:41:28Z</time>
      </trkpt>
      <trkpt lat="44.55905" lon="0.81576">
        <ele>142.41</ele>
        <time>2014-12-07T08:41:31Z</time>
      </trkpt>
      <trkpt lat="44.55885" lon="0.81613">
        <ele>144.34</ele>
        <time>2014-12-07T08:41:44Z</time>
      </trkpt>
      <trkpt lat="44.55862" lon="0.81649">
        <ele>147.7</ele>
        <time>2014-12-07T08:41:59Z</time>
      </trkpt>
      <trkpt lat="44.55847" lon="0.81666">
        <ele>148.66</ele>
        <time>2014-12-07T08:42:10Z</time>
      </trkpt>
      <trkpt lat="44.55843" lon="0.81695">
        <ele>149.14</ele>
        <time>2014-12-07T08:42:23Z</time>
      </trkpt>
      <trkpt lat="44.55844" lon="0.81712">
        <ele>149.62</ele>
        <time>2014-12-07T08:42:32Z</time>
      </trkpt>
      <trkpt lat="44.55846" lon="0.81716">
        <ele>150.1</ele>
        <time>2014-12-07T08:42:34Z</time>
      </trkpt>
      <trkpt lat="44.55852" lon="0.81721">
        <ele>152.03</ele>
        <time>2014-12-07T08:42:39Z</time>
      </trkpt>
      <trkpt lat="44.55855" lon="0.81724">
        <ele>154.43</ele>
        <time>2014-12-07T08:42:43Z</time>
      </trkpt>
      <trkpt lat="44.5586" lon="0.81724">
        <ele>157.31</ele>
        <time>2014-12-07T08:42:47Z</time>
      </trkpt>
      <trkpt lat="44.55875" lon="0.8173">
        <ele>164.52</ele>
        <time>2014-12-07T08:43:00Z</time>
      </trkpt>
      <trkpt lat="44.55884" lon="0.81736">
        <ele>166.93</ele>
        <time>2014-12-07T08:43:08Z</time>
      </trkpt>
      <trkpt lat="44.55896" lon="0.8174">
        <ele>168.85</ele>
        <time>2014-12-07T08:43:17Z</time>
      </trkpt>
      <trkpt lat="44.55915" lon="0.81764">
        <ele>173.17</ele>
        <time>2014-12-07T08:43:34Z</time>
      </trkpt>
      <trkpt lat="44.55919" lon="0.81772">
        <ele>174.14</ele>
        <time>2014-12-07T08:43:39Z</time>
      </trkpt>
      <trkpt lat="44.55907" lon="0.818">
        <ele>177.5</ele>
        <time>2014-12-07T08:43:57Z</time>
      </trkpt>
      <trkpt lat="44.55899" lon="0.81836">
        <ele>180.87</ele>
        <time>2014-12-07T08:44:14Z</time>
      </trkpt>
      <trkpt lat="44.55899" lon="0.81842">
        <ele>181.35</ele>
        <time>2014-12-07T08:44:17Z</time>
      </trkpt>
      <trkpt lat="44.55901" lon="0.8187">
        <ele>182.31</ele>
        <time>2014-12-07T08:44:33Z</time>
      </trkpt>
      <trkpt lat="44.55899" lon="0.81871">
        <ele>183.75</ele>
        <time>2014-12-07T08:45:02Z</time>
      </trkpt>
      <trkpt lat="44.55899" lon="0.81872">
        <ele>185.19</ele>
        <time>2014-12-07T08:45:23Z</time>
      </trkpt>
      <trkpt lat="44.55899" lon="0.81872">
        <ele>185.67</ele>
        <time>2014-12-07T08:45:44Z</time>
      </trkpt>
      <trkpt lat="44.55896" lon="0.81879">
        <ele>185.19</ele>
        <time>2014-12-07T08:45:49Z</time>
      </trkpt>
      <trkpt lat="44.55895" lon="0.81882">
        <ele>184.23</ele>
        <time>2014-12-07T08:45:50Z</time>
      </trkpt>
      <trkpt lat="44.55894" lon="0.81886">
        <ele>183.75</ele>
        <time>2014-12-07T08:45:51Z</time>
      </trkpt>
      <trkpt lat="44.5589" lon="0.81914">
        <ele>176.54</ele>
        <time>2014-12-07T08:46:01Z</time>
      </trkpt>
      <trkpt lat="44.55902" lon="0.81926">
        <ele>176.06</ele>
        <time>2014-12-07T08:46:08Z</time>
      </trkpt>
      <trkpt lat="44.55945" lon="0.81921">
        <ele>171.73</ele>
        <time>2014-12-07T08:46:18Z</time>
      </trkpt>
      <trkpt lat="44.55981" lon="0.81905">
        <ele>165</ele>
        <time>2014-12-07T08:46:24Z</time>
      </trkpt>
      <trkpt lat="44.56038" lon="0.81913">
        <ele>154.91</ele>
        <time>2014-12-07T08:46:32Z</time>
      </trkpt>
      <trkpt lat="44.56065" lon="0.81901">
        <ele>151.54</ele>
        <time>2014-12-07T08:46:38Z</time>
      </trkpt>
      <trkpt lat="44.56102" lon="0.81872">
        <ele>149.62</ele>
        <time>2014-12-07T08:46:51Z</time>
      </trkpt>
      <trkpt lat="44.56105" lon="0.81875">
        <ele>149.62</ele>
        <time>2014-12-07T08:46:53Z</time>
      </trkpt>
      <trkpt lat="44.56107" lon="0.81877">
        <ele>149.62</ele>
        <time>2014-12-07T08:46:54Z</time>
      </trkpt>
      <trkpt lat="44.56108" lon="0.8188">
        <ele>149.62</ele>
        <time>2014-12-07T08:46:55Z</time>
      </trkpt>
      <trkpt lat="44.5611" lon="0.81884">
        <ele>149.62</ele>
        <time>2014-12-07T08:46:56Z</time>
      </trkpt>
      <trkpt lat="44.56131" lon="0.81943">
        <ele>149.14</ele>
        <time>2014-12-07T08:47:11Z</time>
      </trkpt>
      <trkpt lat="44.56145" lon="0.81983">
        <ele>149.14</ele>
        <time>2014-12-07T08:47:23Z</time>
      </trkpt>
      <trkpt lat="44.56158" lon="0.82017">
        <ele>149.62</ele>
        <time>2014-12-07T08:47:34Z</time>
      </trkpt>
      <trkpt lat="44.56164" lon="0.8203">
        <ele>149.14</ele>
        <time>2014-12-07T08:47:38Z</time>
      </trkpt>
      <trkpt lat="44.56165" lon="0.82034">
        <ele>149.14</ele>
        <time>2014-12-07T08:47:39Z</time>
      </trkpt>
      <trkpt lat="44.56164" lon="0.82037">
        <ele>149.14</ele>
        <time>2014-12-07T08:47:40Z</time>
      </trkpt>
      <trkpt lat="44.56163" lon="0.8204">
        <ele>149.14</ele>
        <time>2014-12-07T08:47:41Z</time>
      </trkpt>
      <trkpt lat="44.5616" lon="0.82043">
        <ele>149.14</ele>
        <time>2014-12-07T08:47:42Z</time>
      </trkpt>
      <trkpt lat="44.56158" lon="0.82045">
        <ele>149.14</ele>
        <time>2014-12-07T08:47:43Z</time>
      </trkpt>
      <trkpt lat="44.56155" lon="0.82047">
        <ele>149.14</ele>
        <time>2014-12-07T08:47:44Z</time>
      </trkpt>
      <trkpt lat="44.56152" lon="0.82048">
        <ele>149.14</ele>
        <time>2014-12-07T08:47:45Z</time>
      </trkpt>
      <trkpt lat="44.56149" lon="0.82048">
        <ele>149.14</ele>
        <time>2014-12-07T08:47:46Z</time>
      </trkpt>
      <trkpt lat="44.56146" lon="0.82048">
        <ele>149.62</ele>
        <time>2014-12-07T08:47:47Z</time>
      </trkpt>
      <trkpt lat="44.56135" lon="0.8205">
        <ele>150.1</ele>
        <time>2014-12-07T08:47:52Z</time>
      </trkpt>
      <trkpt lat="44.56134" lon="0.82053">
        <ele>150.1</ele>
        <time>2014-12-07T08:47:53Z</time>
      </trkpt>
      <trkpt lat="44.56134" lon="0.82056">
        <ele>149.62</ele>
        <time>2014-12-07T08:47:54Z</time>
      </trkpt>
      <trkpt lat="44.56134" lon="0.8206">
        <ele>149.62</ele>
        <time>2014-12-07T08:47:55Z</time>
      </trkpt>
      <trkpt lat="44.56135" lon="0.82065">
        <ele>149.62</ele>
        <time>2014-12-07T08:47:56Z</time>
      </trkpt>
      <trkpt lat="44.56136" lon="0.8207">
        <ele>149.14</ele>
        <time>2014-12-07T08:47:57Z</time>
      </trkpt>
      <trkpt lat="44.56137" lon="0.82075">
        <ele>148.66</ele>
        <time>2014-12-07T08:47:58Z</time>
      </trkpt>
      <trkpt lat="44.56164" lon="0.82176">
        <ele>143.37</ele>
        <time>2014-12-07T08:48:14Z</time>
      </trkpt>
      <trkpt lat="44.56206" lon="0.82301">
        <ele>137.61</ele>
        <time>2014-12-07T08:48:30Z</time>
      </trkpt>
      <trkpt lat="44.56249" lon="0.82414">
        <ele>133.76</ele>
        <time>2014-12-07T08:48:44Z</time>
      </trkpt>
      <trkpt lat="44.56247" lon="0.82442">
        <ele>132.8</ele>
        <time>2014-12-07T08:48:48Z</time>
      </trkpt>
      <trkpt lat="44.56196" lon="0.82539">
        <ele>130.4</ele>
        <time>2014-12-07T08:49:01Z</time>
      </trkpt>
      <trkpt lat="44.56141" lon="0.8261">
        <ele>127.99</ele>
        <time>2014-12-07T08:49:12Z</time>
      </trkpt>
      <trkpt lat="44.56137" lon="0.82615">
        <ele>127.99</ele>
        <time>2014-12-07T08:49:13Z</time>
      </trkpt>
      <trkpt lat="44.56127" lon="0.82648">
        <ele>125.59</ele>
        <time>2014-12-07T08:49:19Z</time>
      </trkpt>
      <trkpt lat="44.56121" lon="0.82667">
        <ele>121.74</ele>
        <time>2014-12-07T08:49:30Z</time>
      </trkpt>
      <trkpt lat="44.56111" lon="0.82689">
        <ele>121.26</ele>
        <time>2014-12-07T08:49:41Z</time>
      </trkpt>
      <trkpt lat="44.56097" lon="0.8271">
        <ele>119.34</ele>
        <time>2014-12-07T08:49:45Z</time>
      </trkpt>
      <trkpt lat="44.56087" lon="0.82726">
        <ele>117.9</ele>
        <time>2014-12-07T08:49:48Z</time>
      </trkpt>
      <trkpt lat="44.5607" lon="0.8273">
        <ele>117.9</ele>
        <time>2014-12-07T08:49:54Z</time>
      </trkpt>
      <trkpt lat="44.5603" lon="0.8275">
        <ele>115.98</ele>
        <time>2014-12-07T08:50:02Z</time>
      </trkpt>
      <trkpt lat="44.56022" lon="0.82774">
        <ele>115.01</ele>
        <time>2014-12-07T08:50:07Z</time>
      </trkpt>
      <trkpt lat="44.56016" lon="0.82835">
        <ele>116.46</ele>
        <time>2014-12-07T08:50:21Z</time>
      </trkpt>
      <trkpt lat="44.56014" lon="0.82848">
        <ele>118.86</ele>
        <time>2014-12-07T08:50:26Z</time>
      </trkpt>
      <trkpt lat="44.56007" lon="0.82892">
        <ele>127.99</ele>
        <time>2014-12-07T08:50:44Z</time>
      </trkpt>
      <trkpt lat="44.56001" lon="0.82932">
        <ele>130.88</ele>
        <time>2014-12-07T08:51:00Z</time>
      </trkpt>
      <trkpt lat="44.55992" lon="0.82983">
        <ele>132.32</ele>
        <time>2014-12-07T08:51:15Z</time>
      </trkpt>
      <trkpt lat="44.55975" lon="0.83061">
        <ele>133.76</ele>
        <time>2014-12-07T08:51:35Z</time>
      </trkpt>
      <trkpt lat="44.55957" lon="0.83132">
        <ele>133.76</ele>
        <time>2014-12-07T08:51:50Z</time>
      </trkpt>
      <trkpt lat="44.55944" lon="0.83202">
        <ele>132.8</ele>
        <time>2014-12-07T08:52:01Z</time>
      </trkpt>
      <trkpt lat="44.55936" lon="0.83306">
        <ele>132.32</ele>
        <time>2014-12-07T08:52:17Z</time>
      </trkpt>
      <trkpt lat="44.55929" lon="0.83387">
        <ele>127.51</ele>
        <time>2014-12-07T08:52:30Z</time>
      </trkpt>
      <trkpt lat="44.55927" lon="0.83403">
        <ele>126.55</ele>
        <time>2014-12-07T08:52:32Z</time>
      </trkpt>
      <trkpt lat="44.55918" lon="0.8344">
        <ele>124.15</ele>
        <time>2014-12-07T08:52:42Z</time>
      </trkpt>
      <trkpt lat="44.55915" lon="0.83442">
        <ele>127.99</ele>
        <time>2014-12-07T08:53:09Z</time>
      </trkpt>
      <trkpt lat="44.55891" lon="0.83458">
        <ele>128.47</ele>
        <time>2014-12-07T08:53:23Z</time>
      </trkpt>
      <trkpt lat="44.55859" lon="0.83466">
        <ele>129.43</ele>
        <time>2014-12-07T08:53:36Z</time>
      </trkpt>
      <trkpt lat="44.55838" lon="0.83469">
        <ele>129.92</ele>
        <time>2014-12-07T08:53:43Z</time>
      </trkpt>
      <trkpt lat="44.55836" lon="0.83472">
        <ele>130.4</ele>
        <time>2014-12-07T08:53:44Z</time>
      </trkpt>
      <trkpt lat="44.55839" lon="0.83485">
        <ele>129.43</ele>
        <time>2014-12-07T08:53:49Z</time>
      </trkpt>
      <trkpt lat="44.55841" lon="0.83487">
        <ele>129.43</ele>
        <time>2014-12-07T08:53:50Z</time>
      </trkpt>
      <trkpt lat="44.55843" lon="0.83488">
        <ele>128.95</ele>
        <time>2014-12-07T08:53:51Z</time>
      </trkpt>
      <trkpt lat="44.55846" lon="0.83489">
        <ele>128.47</ele>
        <time>2014-12-07T08:53:52Z</time>
      </trkpt>
      <trkpt lat="44.5585" lon="0.8349">
        <ele>127.99</ele>
        <time>2014-12-07T08:53:53Z</time>
      </trkpt>
      <trkpt lat="44.55868" lon="0.83496">
        <ele>126.07</ele>
        <time>2014-12-07T08:53:58Z</time>
      </trkpt>
      <trkpt lat="44.55872" lon="0.83499">
        <ele>126.07</ele>
        <time>2014-12-07T08:53:59Z</time>
      </trkpt>
      <trkpt lat="44.55879" lon="0.83509">
        <ele>124.63</ele>
        <time>2014-12-07T08:54:01Z</time>
      </trkpt>
      <trkpt lat="44.55894" lon="0.83545">
        <ele>118.38</ele>
        <time>2014-12-07T08:54:09Z</time>
      </trkpt>
      <trkpt lat="44.55912" lon="0.83576">
        <ele>123.19</ele>
        <time>2014-12-07T08:54:22Z</time>
      </trkpt>
      <trkpt lat="44.55919" lon="0.83598">
        <ele>128.95</ele>
        <time>2014-12-07T08:54:31Z</time>
      </trkpt>
      <trkpt lat="44.55919" lon="0.8361">
        <ele>129.92</ele>
        <time>2014-12-07T08:54:36Z</time>
      </trkpt>
      <trkpt lat="44.55927" lon="0.83621">
        <ele>131.84</ele>
        <time>2014-12-07T08:54:42Z</time>
      </trkpt>
      <trkpt lat="44.55952" lon="0.83625">
        <ele>134.72</ele>
        <time>2014-12-07T08:54:56Z</time>
      </trkpt>
      <trkpt lat="44.55965" lon="0.83637">
        <ele>140.01</ele>
        <time>2014-12-07T08:55:07Z</time>
      </trkpt>
      <trkpt lat="44.55971" lon="0.83655">
        <ele>143.37</ele>
        <time>2014-12-07T08:55:17Z</time>
      </trkpt>
      <trkpt lat="44.55968" lon="0.83695">
        <ele>144.82</ele>
        <time>2014-12-07T08:55:33Z</time>
      </trkpt>
      <trkpt lat="44.55953" lon="0.83737">
        <ele>143.85</ele>
        <time>2014-12-07T08:55:47Z</time>
      </trkpt>
      <trkpt lat="44.55948" lon="0.83754">
        <ele>143.37</ele>
        <time>2014-12-07T08:55:52Z</time>
      </trkpt>
      <trkpt lat="44.55955" lon="0.83781">
        <ele>143.37</ele>
        <time>2014-12-07T08:56:03Z</time>
      </trkpt>
      <trkpt lat="44.55953" lon="0.83783">
        <ele>143.37</ele>
        <time>2014-12-07T08:56:04Z</time>
      </trkpt>
      <trkpt lat="44.55933" lon="0.83811">
        <ele>142.41</ele>
        <time>2014-12-07T08:56:20Z</time>
      </trkpt>
      <trkpt lat="44.55915" lon="0.83841">
        <ele>140.97</ele>
        <time>2014-12-07T08:56:32Z</time>
      </trkpt>
      <trkpt lat="44.55896" lon="0.83885">
        <ele>135.68</ele>
        <time>2014-12-07T08:56:42Z</time>
      </trkpt>
      <trkpt lat="44.5589" lon="0.83893">
        <ele>134.24</ele>
        <time>2014-12-07T08:56:44Z</time>
      </trkpt>
      <trkpt lat="44.55882" lon="0.83906">
        <ele>131.36</ele>
        <time>2014-12-07T08:56:47Z</time>
      </trkpt>
      <trkpt lat="44.55878" lon="0.83911">
        <ele>130.4</ele>
        <time>2014-12-07T08:56:48Z</time>
      </trkpt>
      <trkpt lat="44.55875" lon="0.83917">
        <ele>128.95</ele>
        <time>2014-12-07T08:56:49Z</time>
      </trkpt>
      <trkpt lat="44.55871" lon="0.83925">
        <ele>127.99</ele>
        <time>2014-12-07T08:56:50Z</time>
      </trkpt>
      <trkpt lat="44.55867" lon="0.83934">
        <ele>127.03</ele>
        <time>2014-12-07T08:56:51Z</time>
      </trkpt>
      <trkpt lat="44.55863" lon="0.83942">
        <ele>125.59</ele>
        <time>2014-12-07T08:56:52Z</time>
      </trkpt>
      <trkpt lat="44.55856" lon="0.83955">
        <ele>123.19</ele>
        <time>2014-12-07T08:56:54Z</time>
      </trkpt>
      <trkpt lat="44.55826" lon="0.83997">
        <ele>113.09</ele>
        <time>2014-12-07T08:57:07Z</time>
      </trkpt>
      <trkpt lat="44.55824" lon="0.84">
        <ele>112.61</ele>
        <time>2014-12-07T08:57:08Z</time>
      </trkpt>
      <trkpt lat="44.55809" lon="0.84011">
        <ele>110.21</ele>
        <time>2014-12-07T08:57:12Z</time>
      </trkpt>
      <trkpt lat="44.55809" lon="0.84012">
        <ele>110.21</ele>
        <time>2014-12-07T08:57:27Z</time>
      </trkpt>
      <trkpt lat="44.55807" lon="0.84019">
        <ele>113.57</ele>
        <time>2014-12-07T08:57:41Z</time>
      </trkpt>
      <trkpt lat="44.55803" lon="0.84029">
        <ele>118.86</ele>
        <time>2014-12-07T08:57:54Z</time>
      </trkpt>
      <trkpt lat="44.55797" lon="0.84043">
        <ele>124.15</ele>
        <time>2014-12-07T08:58:10Z</time>
      </trkpt>
      <trkpt lat="44.55795" lon="0.84043">
        <ele>124.63</ele>
        <time>2014-12-07T08:58:25Z</time>
      </trkpt>
      <trkpt lat="44.55794" lon="0.84044">
        <ele>126.55</ele>
        <time>2014-12-07T08:58:39Z</time>
      </trkpt>
      <trkpt lat="44.55794" lon="0.84047">
        <ele>127.03</ele>
        <time>2014-12-07T08:59:13Z</time>
      </trkpt>
      <trkpt lat="44.55798" lon="0.84051">
        <ele>127.99</ele>
        <time>2014-12-07T08:59:47Z</time>
      </trkpt>
      <trkpt lat="44.55795" lon="0.84047">
        <ele>128.47</ele>
        <time>2014-12-07T09:00:04Z</time>
      </trkpt>
      <trkpt lat="44.55795" lon="0.84059">
        <ele>129.43</ele>
        <time>2014-12-07T09:00:18Z</time>
      </trkpt>
      <trkpt lat="44.55794" lon="0.84064">
        <ele>129.92</ele>
        <time>2014-12-07T09:00:22Z</time>
      </trkpt>
      <trkpt lat="44.55786" lon="0.84083">
        <ele>130.88</ele>
        <time>2014-12-07T09:00:32Z</time>
      </trkpt>
      <trkpt lat="44.55773" lon="0.84114">
        <ele>133.28</ele>
        <time>2014-12-07T09:00:46Z</time>
      </trkpt>
      <trkpt lat="44.55751" lon="0.84145">
        <ele>131.36</ele>
        <time>2014-12-07T09:01:00Z</time>
      </trkpt>
      <trkpt lat="44.55728" lon="0.84186">
        <ele>128.95</ele>
        <time>2014-12-07T09:01:08Z</time>
      </trkpt>
      <trkpt lat="44.5571" lon="0.84219">
        <ele>129.43</ele>
        <time>2014-12-07T09:01:18Z</time>
      </trkpt>
      <trkpt lat="44.55695" lon="0.84246">
        <ele>131.84</ele>
        <time>2014-12-07T09:01:31Z</time>
      </trkpt>
      <trkpt lat="44.55693" lon="0.8425">
        <ele>131.84</ele>
        <time>2014-12-07T09:01:33Z</time>
      </trkpt>
      <trkpt lat="44.55683" lon="0.84279">
        <ele>134.72</ele>
        <time>2014-12-07T09:01:46Z</time>
      </trkpt>
      <trkpt lat="44.55672" lon="0.84293">
        <ele>138.57</ele>
        <time>2014-12-07T09:01:57Z</time>
      </trkpt>
      <trkpt lat="44.55659" lon="0.84317">
        <ele>141.93</ele>
        <time>2014-12-07T09:02:13Z</time>
      </trkpt>
      <trkpt lat="44.55655" lon="0.84325">
        <ele>142.41</ele>
        <time>2014-12-07T09:02:18Z</time>
      </trkpt>
      <trkpt lat="44.55648" lon="0.84339">
        <ele>143.37</ele>
        <time>2014-12-07T09:02:27Z</time>
      </trkpt>
      <trkpt lat="44.55629" lon="0.84371">
        <ele>146.26</ele>
        <time>2014-12-07T09:02:44Z</time>
      </trkpt>
      <trkpt lat="44.55618" lon="0.84392">
        <ele>147.22</ele>
        <time>2014-12-07T09:02:53Z</time>
      </trkpt>
      <trkpt lat="44.5562" lon="0.844">
        <ele>147.7</ele>
        <time>2014-12-07T09:02:57Z</time>
      </trkpt>
      <trkpt lat="44.5565" lon="0.84415">
        <ele>148.18</ele>
        <time>2014-12-07T09:03:09Z</time>
      </trkpt>
      <trkpt lat="44.55688" lon="0.84423">
        <ele>148.66</ele>
        <time>2014-12-07T09:03:21Z</time>
      </trkpt>
      <trkpt lat="44.5571" lon="0.84431">
        <ele>147.7</ele>
        <time>2014-12-07T09:03:27Z</time>
      </trkpt>
      <trkpt lat="44.55731" lon="0.84436">
        <ele>144.34</ele>
        <time>2014-12-07T09:03:32Z</time>
      </trkpt>
      <trkpt lat="44.55748" lon="0.8444">
        <ele>140.97</ele>
        <time>2014-12-07T09:03:36Z</time>
      </trkpt>
      <trkpt lat="44.55783" lon="0.84453">
        <ele>140.01</ele>
        <time>2014-12-07T09:03:48Z</time>
      </trkpt>
      <trkpt lat="44.55792" lon="0.84453">
        <ele>140.01</ele>
        <time>2014-12-07T09:03:51Z</time>
      </trkpt>
      <trkpt lat="44.55798" lon="0.84467">
        <ele>140.97</ele>
        <time>2014-12-07T09:03:55Z</time>
      </trkpt>
      <trkpt lat="44.55792" lon="0.84517">
        <ele>141.45</ele>
        <time>2014-12-07T09:04:05Z</time>
      </trkpt>
      <trkpt lat="44.55801" lon="0.84573">
        <ele>141.45</ele>
        <time>2014-12-07T09:04:17Z</time>
      </trkpt>
      <trkpt lat="44.55811" lon="0.84611">
        <ele>143.85</ele>
        <time>2014-12-07T09:04:27Z</time>
      </trkpt>
      <trkpt lat="44.55814" lon="0.84666">
        <ele>146.74</ele>
        <time>2014-12-07T09:04:42Z</time>
      </trkpt>
      <trkpt lat="44.55806" lon="0.84713">
        <ele>148.66</ele>
        <time>2014-12-07T09:04:56Z</time>
      </trkpt>
      <trkpt lat="44.55803" lon="0.84726">
        <ele>149.14</ele>
        <time>2014-12-07T09:05:01Z</time>
      </trkpt>
      <trkpt lat="44.55808" lon="0.84728">
        <ele>149.62</ele>
        <time>2014-12-07T09:05:05Z</time>
      </trkpt>
      <trkpt lat="44.55812" lon="0.84725">
        <ele>150.1</ele>
        <time>2014-12-07T09:05:19Z</time>
      </trkpt>
      <trkpt lat="44.55816" lon="0.84724">
        <ele>150.58</ele>
        <time>2014-12-07T09:05:34Z</time>
      </trkpt>
      <trkpt lat="44.55848" lon="0.84715">
        <ele>151.06</ele>
        <time>2014-12-07T09:05:44Z</time>
      </trkpt>
      <trkpt lat="44.55881" lon="0.84697">
        <ele>151.54</ele>
        <time>2014-12-07T09:05:54Z</time>
      </trkpt>
      <trkpt lat="44.55913" lon="0.84675">
        <ele>151.06</ele>
        <time>2014-12-07T09:06:03Z</time>
      </trkpt>
      <trkpt lat="44.5596" lon="0.84635">
        <ele>152.51</ele>
        <time>2014-12-07T09:06:17Z</time>
      </trkpt>
      <trkpt lat="44.55998" lon="0.84605">
        <ele>153.47</ele>
        <time>2014-12-07T09:06:30Z</time>
      </trkpt>
      <trkpt lat="44.56013" lon="0.84599">
        <ele>152.51</ele>
        <time>2014-12-07T09:06:33Z</time>
      </trkpt>
      <trkpt lat="44.56018" lon="0.84597">
        <ele>152.03</ele>
        <time>2014-12-07T09:06:34Z</time>
      </trkpt>
      <trkpt lat="44.56024" lon="0.84596">
        <ele>151.54</ele>
        <time>2014-12-07T09:06:35Z</time>
      </trkpt>
      <trkpt lat="44.56031" lon="0.84596">
        <ele>150.58</ele>
        <time>2014-12-07T09:06:36Z</time>
      </trkpt>
      <trkpt lat="44.56037" lon="0.84596">
        <ele>150.1</ele>
        <time>2014-12-07T09:06:37Z</time>
      </trkpt>
      <trkpt lat="44.56044" lon="0.84598">
        <ele>149.62</ele>
        <time>2014-12-07T09:06:38Z</time>
      </trkpt>
      <trkpt lat="44.56066" lon="0.84602">
        <ele>147.7</ele>
        <time>2014-12-07T09:06:41Z</time>
      </trkpt>
      <trkpt lat="44.56074" lon="0.84601">
        <ele>146.74</ele>
        <time>2014-12-07T09:06:42Z</time>
      </trkpt>
      <trkpt lat="44.56081" lon="0.84599">
        <ele>146.74</ele>
        <time>2014-12-07T09:06:43Z</time>
      </trkpt>
      <trkpt lat="44.56087" lon="0.84597">
        <ele>146.26</ele>
        <time>2014-12-07T09:06:44Z</time>
      </trkpt>
      <trkpt lat="44.56091" lon="0.84594">
        <ele>146.26</ele>
        <time>2014-12-07T09:06:45Z</time>
      </trkpt>
      <trkpt lat="44.56098" lon="0.84593">
        <ele>146.26</ele>
        <time>2014-12-07T09:06:47Z</time>
      </trkpt>
      <trkpt lat="44.56102" lon="0.84595">
        <ele>146.26</ele>
        <time>2014-12-07T09:06:48Z</time>
      </trkpt>
      <trkpt lat="44.56105" lon="0.84596">
        <ele>146.74</ele>
        <time>2014-12-07T09:06:49Z</time>
      </trkpt>
      <trkpt lat="44.56109" lon="0.84597">
        <ele>147.22</ele>
        <time>2014-12-07T09:06:50Z</time>
      </trkpt>
      <trkpt lat="44.56112" lon="0.84598">
        <ele>148.18</ele>
        <time>2014-12-07T09:06:51Z</time>
      </trkpt>
      <trkpt lat="44.56154" lon="0.84615">
        <ele>154.91</ele>
        <time>2014-12-07T09:07:03Z</time>
      </trkpt>
      <trkpt lat="44.56187" lon="0.8465">
        <ele>158.27</ele>
        <time>2014-12-07T09:07:16Z</time>
      </trkpt>
      <trkpt lat="44.56204" lon="0.84701">
        <ele>160.68</ele>
        <time>2014-12-07T09:07:29Z</time>
      </trkpt>
      <trkpt lat="44.5624" lon="0.84748">
        <ele>163.56</ele>
        <time>2014-12-07T09:07:44Z</time>
      </trkpt>
      <trkpt lat="44.5627" lon="0.84817">
        <ele>166.45</ele>
        <time>2014-12-07T09:08:01Z</time>
      </trkpt>
      <trkpt lat="44.56306" lon="0.84853">
        <ele>167.41</ele>
        <time>2014-12-07T09:08:14Z</time>
      </trkpt>
      <trkpt lat="44.5634" lon="0.84871">
        <ele>170.29</ele>
        <time>2014-12-07T09:08:26Z</time>
      </trkpt>
      <trkpt lat="44.56362" lon="0.84867">
        <ele>169.81</ele>
        <time>2014-12-07T09:08:38Z</time>
      </trkpt>
      <trkpt lat="44.56371" lon="0.84865">
        <ele>169.81</ele>
        <time>2014-12-07T09:08:51Z</time>
      </trkpt>
      <trkpt lat="44.56371" lon="0.84867">
        <ele>168.37</ele>
        <time>2014-12-07T09:09:15Z</time>
      </trkpt>
      <trkpt lat="44.56374" lon="0.84865">
        <ele>167.41</ele>
        <time>2014-12-07T09:09:36Z</time>
      </trkpt>
      <trkpt lat="44.56414" lon="0.84858">
        <ele>166.45</ele>
        <time>2014-12-07T09:09:48Z</time>
      </trkpt>
      <trkpt lat="44.56483" lon="0.84858">
        <ele>161.64</ele>
        <time>2014-12-07T09:10:00Z</time>
      </trkpt>
      <trkpt lat="44.56489" lon="0.84856">
        <ele>161.16</ele>
        <time>2014-12-07T09:10:01Z</time>
      </trkpt>
      <trkpt lat="44.56576" lon="0.84826">
        <ele>154.91</ele>
        <time>2014-12-07T09:10:12Z</time>
      </trkpt>
      <trkpt lat="44.56624" lon="0.84801">
        <ele>151.54</ele>
        <time>2014-12-07T09:10:18Z</time>
      </trkpt>
      <trkpt lat="44.56631" lon="0.84795">
        <ele>151.06</ele>
        <time>2014-12-07T09:10:19Z</time>
      </trkpt>
      <trkpt lat="44.56689" lon="0.84738">
        <ele>148.18</ele>
        <time>2014-12-07T09:10:28Z</time>
      </trkpt>
      <trkpt lat="44.56731" lon="0.84698">
        <ele>145.3</ele>
        <time>2014-12-07T09:10:35Z</time>
      </trkpt>
      <trkpt lat="44.56737" lon="0.84691">
        <ele>144.82</ele>
        <time>2014-12-07T09:10:36Z</time>
      </trkpt>
      <trkpt lat="44.56741" lon="0.84684">
        <ele>144.82</ele>
        <time>2014-12-07T09:10:37Z</time>
      </trkpt>
      <trkpt lat="44.56745" lon="0.84675">
        <ele>144.34</ele>
        <time>2014-12-07T09:10:38Z</time>
      </trkpt>
      <trkpt lat="44.56749" lon="0.84667">
        <ele>143.85</ele>
        <time>2014-12-07T09:10:39Z</time>
      </trkpt>
      <trkpt lat="44.56751" lon="0.84659">
        <ele>143.85</ele>
        <time>2014-12-07T09:10:40Z</time>
      </trkpt>
      <trkpt lat="44.56761" lon="0.84586">
        <ele>140.49</ele>
        <time>2014-12-07T09:10:51Z</time>
      </trkpt>
      <trkpt lat="44.56763" lon="0.84579">
        <ele>140.01</ele>
        <time>2014-12-07T09:10:53Z</time>
      </trkpt>
      <trkpt lat="44.56768" lon="0.8458">
        <ele>139.53</ele>
        <time>2014-12-07T09:10:55Z</time>
      </trkpt>
      <trkpt lat="44.5677" lon="0.84583">
        <ele>139.53</ele>
        <time>2014-12-07T09:10:56Z</time>
      </trkpt>
      <trkpt lat="44.56772" lon="0.84587">
        <ele>139.53</ele>
        <time>2014-12-07T09:10:57Z</time>
      </trkpt>
      <trkpt lat="44.56774" lon="0.8459">
        <ele>139.53</ele>
        <time>2014-12-07T09:10:58Z</time>
      </trkpt>
      <trkpt lat="44.56809" lon="0.84626">
        <ele>142.89</ele>
        <time>2014-12-07T09:11:12Z</time>
      </trkpt>
      <trkpt lat="44.5684" lon="0.84643">
        <ele>146.74</ele>
        <time>2014-12-07T09:11:23Z</time>
      </trkpt>
      <trkpt lat="44.56864" lon="0.84674">
        <ele>152.03</ele>
        <time>2014-12-07T09:11:34Z</time>
      </trkpt>
      <trkpt lat="44.56886" lon="0.84715">
        <ele>151.54</ele>
        <time>2014-12-07T09:11:45Z</time>
      </trkpt>
      <trkpt lat="44.56912" lon="0.84767">
        <ele>152.03</ele>
        <time>2014-12-07T09:11:58Z</time>
      </trkpt>
      <trkpt lat="44.56923" lon="0.8481">
        <ele>152.03</ele>
        <time>2014-12-07T09:12:09Z</time>
      </trkpt>
      <trkpt lat="44.56936" lon="0.84854">
        <ele>152.99</ele>
        <time>2014-12-07T09:12:22Z</time>
      </trkpt>
      <trkpt lat="44.56941" lon="0.84859">
        <ele>154.91</ele>
        <time>2014-12-07T09:12:25Z</time>
      </trkpt>
      <trkpt lat="44.56946" lon="0.84858">
        <ele>157.31</ele>
        <time>2014-12-07T09:12:28Z</time>
      </trkpt>
      <trkpt lat="44.56955" lon="0.84854">
        <ele>162.12</ele>
        <time>2014-12-07T09:12:38Z</time>
      </trkpt>
      <trkpt lat="44.56961" lon="0.84854">
        <ele>162.6</ele>
        <time>2014-12-07T09:12:50Z</time>
      </trkpt>
      <trkpt lat="44.56969" lon="0.84852">
        <ele>164.52</ele>
        <time>2014-12-07T09:12:57Z</time>
      </trkpt>
      <trkpt lat="44.56983" lon="0.84871">
        <ele>170.77</ele>
        <time>2014-12-07T09:13:10Z</time>
      </trkpt>
      <trkpt lat="44.56987" lon="0.84881">
        <ele>169.81</ele>
        <time>2014-12-07T09:13:16Z</time>
      </trkpt>
      <trkpt lat="44.56992" lon="0.84883">
        <ele>171.25</ele>
        <time>2014-12-07T09:13:20Z</time>
      </trkpt>
      <trkpt lat="44.57012" lon="0.8488">
        <ele>174.62</ele>
        <time>2014-12-07T09:13:33Z</time>
      </trkpt>
      <trkpt lat="44.57028" lon="0.8489">
        <ele>177.98</ele>
        <time>2014-12-07T09:13:44Z</time>
      </trkpt>
      <trkpt lat="44.5705" lon="0.84902">
        <ele>179.42</ele>
        <time>2014-12-07T09:13:56Z</time>
      </trkpt>
      <trkpt lat="44.57059" lon="0.84909">
        <ele>180.38</ele>
        <time>2014-12-07T09:14:01Z</time>
      </trkpt>
      <trkpt lat="44.57089" lon="0.84911">
        <ele>180.38</ele>
        <time>2014-12-07T09:14:13Z</time>
      </trkpt>
      <trkpt lat="44.57103" lon="0.84908">
        <ele>180.87</ele>
        <time>2014-12-07T09:14:18Z</time>
      </trkpt>
      <trkpt lat="44.57143" lon="0.84907">
        <ele>179.9</ele>
        <time>2014-12-07T09:14:31Z</time>
      </trkpt>
      <trkpt lat="44.57166" lon="0.84905">
        <ele>178.94</ele>
        <time>2014-12-07T09:14:38Z</time>
      </trkpt>
      <trkpt lat="44.57181" lon="0.84918">
        <ele>177.98</ele>
        <time>2014-12-07T09:14:42Z</time>
      </trkpt>
      <trkpt lat="44.57212" lon="0.84918">
        <ele>177.98</ele>
        <time>2014-12-07T09:14:49Z</time>
      </trkpt>
      <trkpt lat="44.57225" lon="0.84911">
        <ele>177.02</ele>
        <time>2014-12-07T09:14:58Z</time>
      </trkpt>
      <trkpt lat="44.57226" lon="0.8491">
        <ele>177.5</ele>
        <time>2014-12-07T09:15:24Z</time>
      </trkpt>
      <trkpt lat="44.57226" lon="0.84911">
        <ele>177.5</ele>
        <time>2014-12-07T09:15:49Z</time>
      </trkpt>
      <trkpt lat="44.57227" lon="0.8491">
        <ele>177.5</ele>
        <time>2014-12-07T09:15:59Z</time>
      </trkpt>
      <trkpt lat="44.57226" lon="0.84922">
        <ele>177.5</ele>
        <time>2014-12-07T09:16:05Z</time>
      </trkpt>
      <trkpt lat="44.57209" lon="0.84967">
        <ele>176.06</ele>
        <time>2014-12-07T09:16:16Z</time>
      </trkpt>
      <trkpt lat="44.57207" lon="0.84972">
        <ele>176.06</ele>
        <time>2014-12-07T09:16:17Z</time>
      </trkpt>
      <trkpt lat="44.57196" lon="0.85001">
        <ele>174.62</ele>
        <time>2014-12-07T09:16:21Z</time>
      </trkpt>
      <trkpt lat="44.57176" lon="0.85056">
        <ele>172.69</ele>
        <time>2014-12-07T09:16:28Z</time>
      </trkpt>
      <trkpt lat="44.57163" lon="0.8509">
        <ele>172.21</ele>
        <time>2014-12-07T09:16:32Z</time>
      </trkpt>
      <trkpt lat="44.57161" lon="0.85141">
        <ele>169.33</ele>
        <time>2014-12-07T09:16:37Z</time>
      </trkpt>
      <trkpt lat="44.57163" lon="0.85191">
        <ele>165.96</ele>
        <time>2014-12-07T09:16:42Z</time>
      </trkpt>
      <trkpt lat="44.57158" lon="0.85225">
        <ele>165.48</ele>
        <time>2014-12-07T09:16:48Z</time>
      </trkpt>
      <trkpt lat="44.57143" lon="0.8526">
        <ele>169.33</ele>
        <time>2014-12-07T09:16:58Z</time>
      </trkpt>
      <trkpt lat="44.57124" lon="0.85274">
        <ele>170.29</ele>
        <time>2014-12-07T09:17:04Z</time>
      </trkpt>
      <trkpt lat="44.57115" lon="0.85299">
        <ele>172.21</ele>
        <time>2014-12-07T09:17:10Z</time>
      </trkpt>
      <trkpt lat="44.57091" lon="0.85301">
        <ele>175.1</ele>
        <time>2014-12-07T09:17:19Z</time>
      </trkpt>
      <trkpt lat="44.57058" lon="0.85314">
        <ele>177.5</ele>
        <time>2014-12-07T09:17:32Z</time>
      </trkpt>
      <trkpt lat="44.57052" lon="0.85322">
        <ele>177.98</ele>
        <time>2014-12-07T09:17:35Z</time>
      </trkpt>
      <trkpt lat="44.57051" lon="0.8535">
        <ele>179.42</ele>
        <time>2014-12-07T09:17:43Z</time>
      </trkpt>
      <trkpt lat="44.57057" lon="0.85419">
        <ele>181.83</ele>
        <time>2014-12-07T09:18:00Z</time>
      </trkpt>
      <trkpt lat="44.57049" lon="0.85431">
        <ele>181.83</ele>
        <time>2014-12-07T09:18:05Z</time>
      </trkpt>
      <trkpt lat="44.57058" lon="0.85438">
        <ele>183.75</ele>
        <time>2014-12-07T09:18:15Z</time>
      </trkpt>
      <trkpt lat="44.57077" lon="0.85439">
        <ele>182.31</ele>
        <time>2014-12-07T09:18:27Z</time>
      </trkpt>
      <trkpt lat="44.571" lon="0.85448">
        <ele>181.35</ele>
        <time>2014-12-07T09:18:36Z</time>
      </trkpt>
      <trkpt lat="44.57104" lon="0.85447">
        <ele>181.83</ele>
        <time>2014-12-07T09:18:37Z</time>
      </trkpt>
      <trkpt lat="44.5712" lon="0.85477">
        <ele>177.98</ele>
        <time>2014-12-07T09:18:44Z</time>
      </trkpt>
      <trkpt lat="44.5714" lon="0.85475">
        <ele>173.66</ele>
        <time>2014-12-07T09:18:49Z</time>
      </trkpt>
      <trkpt lat="44.57148" lon="0.85459">
        <ele>171.73</ele>
        <time>2014-12-07T09:18:52Z</time>
      </trkpt>
      <trkpt lat="44.57169" lon="0.85448">
        <ele>168.85</ele>
        <time>2014-12-07T09:18:57Z</time>
      </trkpt>
      <trkpt lat="44.57209" lon="0.85446">
        <ele>169.33</ele>
        <time>2014-12-07T09:19:05Z</time>
      </trkpt>
      <trkpt lat="44.57235" lon="0.85444">
        <ele>172.21</ele>
        <time>2014-12-07T09:19:12Z</time>
      </trkpt>
      <trkpt lat="44.57285" lon="0.8544">
        <ele>179.42</ele>
        <time>2014-12-07T09:19:26Z</time>
      </trkpt>
      <trkpt lat="44.57324" lon="0.85447">
        <ele>181.35</ele>
        <time>2014-12-07T09:19:38Z</time>
      </trkpt>
      <trkpt lat="44.57331" lon="0.8545">
        <ele>181.35</ele>
        <time>2014-12-07T09:19:40Z</time>
      </trkpt>
      <trkpt lat="44.57353" lon="0.85437">
        <ele>181.83</ele>
        <time>2014-12-07T09:19:48Z</time>
      </trkpt>
      <trkpt lat="44.57354" lon="0.85437">
        <ele>181.83</ele>
        <time>2014-12-07T09:19:49Z</time>
      </trkpt>
      <trkpt lat="44.57378" lon="0.85442">
        <ele>184.23</ele>
        <time>2014-12-07T09:20:01Z</time>
      </trkpt>
      <trkpt lat="44.5738" lon="0.85442">
        <ele>184.23</ele>
        <time>2014-12-07T09:20:02Z</time>
      </trkpt>
      <trkpt lat="44.57392" lon="0.8546">
        <ele>183.75</ele>
        <time>2014-12-07T09:20:12Z</time>
      </trkpt>
      <trkpt lat="44.57395" lon="0.85459">
        <ele>184.71</ele>
        <time>2014-12-07T09:20:36Z</time>
      </trkpt>
      <trkpt lat="44.57404" lon="0.85465">
        <ele>185.19</ele>
        <time>2014-12-07T09:20:54Z</time>
      </trkpt>
      <trkpt lat="44.5741" lon="0.85506">
        <ele>184.23</ele>
        <time>2014-12-07T09:21:03Z</time>
      </trkpt>
      <trkpt lat="44.57409" lon="0.85564">
        <ele>185.67</ele>
        <time>2014-12-07T09:21:15Z</time>
      </trkpt>
      <trkpt lat="44.5741" lon="0.85633">
        <ele>189.04</ele>
        <time>2014-12-07T09:21:29Z</time>
      </trkpt>
      <trkpt lat="44.5741" lon="0.85652">
        <ele>192.88</ele>
        <time>2014-12-07T09:21:39Z</time>
      </trkpt>
      <trkpt lat="44.57408" lon="0.85653">
        <ele>191.92</ele>
        <time>2014-12-07T09:22:01Z</time>
      </trkpt>
      <trkpt lat="44.57408" lon="0.85656">
        <ele>192.4</ele>
        <time>2014-12-07T09:22:29Z</time>
      </trkpt>
      <trkpt lat="44.5741" lon="0.85655">
        <ele>195.28</ele>
        <time>2014-12-07T09:22:56Z</time>
      </trkpt>
      <trkpt lat="44.5741" lon="0.85662">
        <ele>195.28</ele>
        <time>2014-12-07T09:23:03Z</time>
      </trkpt>
      <trkpt lat="44.5741" lon="0.85709">
        <ele>193.84</ele>
        <time>2014-12-07T09:23:14Z</time>
      </trkpt>
      <trkpt lat="44.57409" lon="0.85744">
        <ele>190</ele>
        <time>2014-12-07T09:23:21Z</time>
      </trkpt>
      <trkpt lat="44.5741" lon="0.8578">
        <ele>189.04</ele>
        <time>2014-12-07T09:23:26Z</time>
      </trkpt>
      <trkpt lat="44.57408" lon="0.85794">
        <ele>188.56</ele>
        <time>2014-12-07T09:23:28Z</time>
      </trkpt>
      <trkpt lat="44.57393" lon="0.8587">
        <ele>188.08</ele>
        <time>2014-12-07T09:23:40Z</time>
      </trkpt>
      <trkpt lat="44.57392" lon="0.85873">
        <ele>188.08</ele>
        <time>2014-12-07T09:23:41Z</time>
      </trkpt>
      <trkpt lat="44.57391" lon="0.85878">
        <ele>187.59</ele>
        <time>2014-12-07T09:23:42Z</time>
      </trkpt>
      <trkpt lat="44.57389" lon="0.85881">
        <ele>187.59</ele>
        <time>2014-12-07T09:23:43Z</time>
      </trkpt>
      <trkpt lat="44.57388" lon="0.85885">
        <ele>187.11</ele>
        <time>2014-12-07T09:23:44Z</time>
      </trkpt>
      <trkpt lat="44.57386" lon="0.85888">
        <ele>187.59</ele>
        <time>2014-12-07T09:23:45Z</time>
      </trkpt>
      <trkpt lat="44.57385" lon="0.8589">
        <ele>187.59</ele>
        <time>2014-12-07T09:23:46Z</time>
      </trkpt>
      <trkpt lat="44.57385" lon="0.85896">
        <ele>190</ele>
        <time>2014-12-07T09:24:00Z</time>
      </trkpt>
      <trkpt lat="44.57384" lon="0.85898">
        <ele>190.96</ele>
        <time>2014-12-07T09:24:29Z</time>
      </trkpt>
      <trkpt lat="44.57385" lon="0.85897">
        <ele>192.88</ele>
        <time>2014-12-07T09:24:58Z</time>
      </trkpt>
      <trkpt lat="44.57383" lon="0.85902">
        <ele>193.84</ele>
        <time>2014-12-07T09:25:16Z</time>
      </trkpt>
      <trkpt lat="44.57371" lon="0.85935">
        <ele>194.8</ele>
        <time>2014-12-07T09:25:28Z</time>
      </trkpt>
      <trkpt lat="44.57346" lon="0.85993">
        <ele>196.73</ele>
        <time>2014-12-07T09:25:42Z</time>
      </trkpt>
      <trkpt lat="44.57323" lon="0.86057">
        <ele>196.73</ele>
        <time>2014-12-07T09:25:56Z</time>
      </trkpt>
      <trkpt lat="44.57315" lon="0.86113">
        <ele>195.28</ele>
        <time>2014-12-07T09:26:08Z</time>
      </trkpt>
      <trkpt lat="44.57317" lon="0.86179">
        <ele>196.73</ele>
        <time>2014-12-07T09:26:21Z</time>
      </trkpt>
      <trkpt lat="44.57322" lon="0.8625">
        <ele>199.13</ele>
        <time>2014-12-07T09:26:35Z</time>
      </trkpt>
      <trkpt lat="44.57332" lon="0.86331">
        <ele>200.09</ele>
        <time>2014-12-07T09:26:51Z</time>
      </trkpt>
      <trkpt lat="44.57338" lon="0.86395">
        <ele>200.09</ele>
        <time>2014-12-07T09:27:04Z</time>
      </trkpt>
      <trkpt lat="44.57337" lon="0.86425">
        <ele>200.09</ele>
        <time>2014-12-07T09:27:10Z</time>
      </trkpt>
      <trkpt lat="44.57337" lon="0.86431">
        <ele>200.09</ele>
        <time>2014-12-07T09:27:11Z</time>
      </trkpt>
      <trkpt lat="44.57338" lon="0.86437">
        <ele>200.09</ele>
        <time>2014-12-07T09:27:12Z</time>
      </trkpt>
      <trkpt lat="44.57337" lon="0.86442">
        <ele>200.09</ele>
        <time>2014-12-07T09:27:13Z</time>
      </trkpt>
      <trkpt lat="44.57337" lon="0.86445">
        <ele>200.09</ele>
        <time>2014-12-07T09:27:14Z</time>
      </trkpt>
      <trkpt lat="44.57337" lon="0.86447">
        <ele>200.09</ele>
        <time>2014-12-07T09:27:15Z</time>
      </trkpt>
      <trkpt lat="44.57337" lon="0.86449">
        <ele>200.09</ele>
        <time>2014-12-07T09:27:16Z</time>
      </trkpt>
      <trkpt lat="44.57336" lon="0.86451">
        <ele>200.09</ele>
        <time>2014-12-07T09:27:17Z</time>
      </trkpt>
      <trkpt lat="44.57336" lon="0.86453">
        <ele>200.09</ele>
        <time>2014-12-07T09:27:18Z</time>
      </trkpt>
      <trkpt lat="44.57336" lon="0.86456">
        <ele>200.09</ele>
        <time>2014-12-07T09:27:19Z</time>
      </trkpt>
      <trkpt lat="44.57337" lon="0.8646">
        <ele>200.09</ele>
        <time>2014-12-07T09:27:20Z</time>
      </trkpt>
      <trkpt lat="44.57337" lon="0.86486">
        <ele>200.57</ele>
        <time>2014-12-07T09:27:26Z</time>
      </trkpt>
      <trkpt lat="44.57338" lon="0.86489">
        <ele>200.57</ele>
        <time>2014-12-07T09:27:27Z</time>
      </trkpt>
      <trkpt lat="44.57337" lon="0.86492">
        <ele>200.09</ele>
        <time>2014-12-07T09:27:28Z</time>
      </trkpt>
      <trkpt lat="44.57336" lon="0.86495">
        <ele>200.09</ele>
        <time>2014-12-07T09:27:29Z</time>
      </trkpt>
      <trkpt lat="44.57335" lon="0.86498">
        <ele>199.61</ele>
        <time>2014-12-07T09:27:30Z</time>
      </trkpt>
      <trkpt lat="44.57319" lon="0.86548">
        <ele>201.05</ele>
        <time>2014-12-07T09:27:43Z</time>
      </trkpt>
      <trkpt lat="44.57299" lon="0.86588">
        <ele>202.98</ele>
        <time>2014-12-07T09:27:54Z</time>
      </trkpt>
      <trkpt lat="44.57289" lon="0.86613">
        <ele>202.98</ele>
        <time>2014-12-07T09:28:04Z</time>
      </trkpt>
      <trkpt lat="44.57287" lon="0.86617">
        <ele>204.42</ele>
        <time>2014-12-07T09:28:17Z</time>
      </trkpt>
      <trkpt lat="44.57285" lon="0.86622">
        <ele>206.82</ele>
        <time>2014-12-07T09:28:33Z</time>
      </trkpt>
      <trkpt lat="44.57276" lon="0.86644">
        <ele>206.82</ele>
        <time>2014-12-07T09:28:46Z</time>
      </trkpt>
      <trkpt lat="44.57266" lon="0.86677">
        <ele>207.3</ele>
        <time>2014-12-07T09:28:57Z</time>
      </trkpt>
      <trkpt lat="44.57258" lon="0.86722">
        <ele>206.34</ele>
        <time>2014-12-07T09:29:09Z</time>
      </trkpt>
      <trkpt lat="44.57257" lon="0.86726">
        <ele>205.86</ele>
        <time>2014-12-07T09:29:11Z</time>
      </trkpt>
      <trkpt lat="44.57256" lon="0.86728">
        <ele>205.38</ele>
        <time>2014-12-07T09:29:12Z</time>
      </trkpt>
      <trkpt lat="44.57256" lon="0.8673">
        <ele>205.38</ele>
        <time>2014-12-07T09:29:13Z</time>
      </trkpt>
      <trkpt lat="44.57256" lon="0.86733">
        <ele>205.38</ele>
        <time>2014-12-07T09:29:14Z</time>
      </trkpt>
      <trkpt lat="44.57255" lon="0.86736">
        <ele>205.38</ele>
        <time>2014-12-07T09:29:15Z</time>
      </trkpt>
      <trkpt lat="44.57254" lon="0.86739">
        <ele>205.38</ele>
        <time>2014-12-07T09:29:16Z</time>
      </trkpt>
      <trkpt lat="44.57253" lon="0.86743">
        <ele>205.38</ele>
        <time>2014-12-07T09:29:17Z</time>
      </trkpt>
      <trkpt lat="44.57252" lon="0.86747">
        <ele>204.9</ele>
        <time>2014-12-07T09:29:18Z</time>
      </trkpt>
      <trkpt lat="44.57251" lon="0.86752">
        <ele>204.9</ele>
        <time>2014-12-07T09:29:19Z</time>
      </trkpt>
      <trkpt lat="44.57241" lon="0.86789">
        <ele>204.9</ele>
        <time>2014-12-07T09:29:29Z</time>
      </trkpt>
      <trkpt lat="44.57224" lon="0.86839">
        <ele>205.38</ele>
        <time>2014-12-07T09:29:41Z</time>
      </trkpt>
      <trkpt lat="44.57207" lon="0.86886">
        <ele>202.98</ele>
        <time>2014-12-07T09:29:53Z</time>
      </trkpt>
      <trkpt lat="44.57204" lon="0.86893">
        <ele>202.98</ele>
        <time>2014-12-07T09:29:56Z</time>
      </trkpt>
      <trkpt lat="44.57204" lon="0.86896">
        <ele>202.98</ele>
        <time>2014-12-07T09:29:57Z</time>
      </trkpt>
      <trkpt lat="44.57203" lon="0.86911">
        <ele>201.53</ele>
        <time>2014-12-07T09:30:04Z</time>
      </trkpt>
      <trkpt lat="44.57202" lon="0.86913">
        <ele>201.53</ele>
        <time>2014-12-07T09:30:05Z</time>
      </trkpt>
      <trkpt lat="44.57201" lon="0.86915">
        <ele>201.53</ele>
        <time>2014-12-07T09:30:06Z</time>
      </trkpt>
      <trkpt lat="44.572" lon="0.86917">
        <ele>201.53</ele>
        <time>2014-12-07T09:30:07Z</time>
      </trkpt>
      <trkpt lat="44.57199" lon="0.8692">
        <ele>201.05</ele>
        <time>2014-12-07T09:30:08Z</time>
      </trkpt>
      <trkpt lat="44.57197" lon="0.86923">
        <ele>201.05</ele>
        <time>2014-12-07T09:30:09Z</time>
      </trkpt>
      <trkpt lat="44.57196" lon="0.86927">
        <ele>201.05</ele>
        <time>2014-12-07T09:30:10Z</time>
      </trkpt>
      <trkpt lat="44.57195" lon="0.86931">
        <ele>201.05</ele>
        <time>2014-12-07T09:30:11Z</time>
      </trkpt>
      <trkpt lat="44.57178" lon="0.86974">
        <ele>201.05</ele>
        <time>2014-12-07T09:30:23Z</time>
      </trkpt>
      <trkpt lat="44.57146" lon="0.87003">
        <ele>201.05</ele>
        <time>2014-12-07T09:30:35Z</time>
      </trkpt>
      <trkpt lat="44.57112" lon="0.87047">
        <ele>203.94</ele>
        <time>2014-12-07T09:30:48Z</time>
      </trkpt>
      <trkpt lat="44.5707" lon="0.87092">
        <ele>204.42</ele>
        <time>2014-12-07T09:31:01Z</time>
      </trkpt>
      <trkpt lat="44.57063" lon="0.87097">
        <ele>204.42</ele>
        <time>2014-12-07T09:31:03Z</time>
      </trkpt>
      <trkpt lat="44.57044" lon="0.87107">
        <ele>204.42</ele>
        <time>2014-12-07T09:31:08Z</time>
      </trkpt>
      <trkpt lat="44.5704" lon="0.87109">
        <ele>204.42</ele>
        <time>2014-12-07T09:31:09Z</time>
      </trkpt>
      <trkpt lat="44.57035" lon="0.87111">
        <ele>203.94</ele>
        <time>2014-12-07T09:31:10Z</time>
      </trkpt>
      <trkpt lat="44.56996" lon="0.87131">
        <ele>204.42</ele>
        <time>2014-12-07T09:31:20Z</time>
      </trkpt>
      <trkpt lat="44.5697" lon="0.87138">
        <ele>203.94</ele>
        <time>2014-12-07T09:31:26Z</time>
      </trkpt>
      <trkpt lat="44.56894" lon="0.87151">
        <ele>202.49</ele>
        <time>2014-12-07T09:31:44Z</time>
      </trkpt>
      <trkpt lat="44.56826" lon="0.87157">
        <ele>202.01</ele>
        <time>2014-12-07T09:31:59Z</time>
      </trkpt>
      <trkpt lat="44.56812" lon="0.87162">
        <ele>202.01</ele>
        <time>2014-12-07T09:32:02Z</time>
      </trkpt>
      <trkpt lat="44.56736" lon="0.87181">
        <ele>202.98</ele>
        <time>2014-12-07T09:32:19Z</time>
      </trkpt>
      <trkpt lat="44.56655" lon="0.87199">
        <ele>203.46</ele>
        <time>2014-12-07T09:32:37Z</time>
      </trkpt>
      <trkpt lat="44.56564" lon="0.87205">
        <ele>198.65</ele>
        <time>2014-12-07T09:32:50Z</time>
      </trkpt>
      <trkpt lat="44.56474" lon="0.87206">
        <ele>197.21</ele>
        <time>2014-12-07T09:33:03Z</time>
      </trkpt>
      <trkpt lat="44.56399" lon="0.87212">
        <ele>200.09</ele>
        <time>2014-12-07T09:33:17Z</time>
      </trkpt>
      <trkpt lat="44.56364" lon="0.87222">
        <ele>198.65</ele>
        <time>2014-12-07T09:33:23Z</time>
      </trkpt>
      <trkpt lat="44.56358" lon="0.87225">
        <ele>198.17</ele>
        <time>2014-12-07T09:33:24Z</time>
      </trkpt>
      <trkpt lat="44.56296" lon="0.87261">
        <ele>196.25</ele>
        <time>2014-12-07T09:33:34Z</time>
      </trkpt>
      <trkpt lat="44.56203" lon="0.87275">
        <ele>194.32</ele>
        <time>2014-12-07T09:33:50Z</time>
      </trkpt>
      <trkpt lat="44.56197" lon="0.87274">
        <ele>194.32</ele>
        <time>2014-12-07T09:33:51Z</time>
      </trkpt>
      <trkpt lat="44.56102" lon="0.8726">
        <ele>191.92</ele>
        <time>2014-12-07T09:34:08Z</time>
      </trkpt>
      <trkpt lat="44.56017" lon="0.8726">
        <ele>189.52</ele>
        <time>2014-12-07T09:34:22Z</time>
      </trkpt>
      <trkpt lat="44.55901" lon="0.87264">
        <ele>179.9</ele>
        <time>2014-12-07T09:34:37Z</time>
      </trkpt>
      <trkpt lat="44.55801" lon="0.87284">
        <ele>170.77</ele>
        <time>2014-12-07T09:34:48Z</time>
      </trkpt>
      <trkpt lat="44.55792" lon="0.8729">
        <ele>170.29</ele>
        <time>2014-12-07T09:34:49Z</time>
      </trkpt>
      <trkpt lat="44.55784" lon="0.87297">
        <ele>169.81</ele>
        <time>2014-12-07T09:34:50Z</time>
      </trkpt>
      <trkpt lat="44.55705" lon="0.87379">
        <ele>168.85</ele>
        <time>2014-12-07T09:35:02Z</time>
      </trkpt>
      <trkpt lat="44.55651" lon="0.87435">
        <ele>167.89</ele>
        <time>2014-12-07T09:35:15Z</time>
      </trkpt>
      <trkpt lat="44.55645" lon="0.87444">
        <ele>166.93</ele>
        <time>2014-12-07T09:35:19Z</time>
      </trkpt>
      <trkpt lat="44.55649" lon="0.8745">
        <ele>166.93</ele>
        <time>2014-12-07T09:35:22Z</time>
      </trkpt>
      <trkpt lat="44.55674" lon="0.87476">
        <ele>166.93</ele>
        <time>2014-12-07T09:35:31Z</time>
      </trkpt>
      <trkpt lat="44.55696" lon="0.87502">
        <ele>169.33</ele>
        <time>2014-12-07T09:35:40Z</time>
      </trkpt>
      <trkpt lat="44.55695" lon="0.87551">
        <ele>167.89</ele>
        <time>2014-12-07T09:35:49Z</time>
      </trkpt>
      <trkpt lat="44.55687" lon="0.87606">
        <ele>167.41</ele>
        <time>2014-12-07T09:35:56Z</time>
      </trkpt>
      <trkpt lat="44.55685" lon="0.87619">
        <ele>167.41</ele>
        <time>2014-12-07T09:35:58Z</time>
      </trkpt>
      <trkpt lat="44.55683" lon="0.87638">
        <ele>167.89</ele>
        <time>2014-12-07T09:36:01Z</time>
      </trkpt>
      <trkpt lat="44.5568" lon="0.8766">
        <ele>168.37</ele>
        <time>2014-12-07T09:36:05Z</time>
      </trkpt>
      <trkpt lat="44.55679" lon="0.8767">
        <ele>167.89</ele>
        <time>2014-12-07T09:36:07Z</time>
      </trkpt>
      <trkpt lat="44.55686" lon="0.87684">
        <ele>169.33</ele>
        <time>2014-12-07T09:36:11Z</time>
      </trkpt>
      <trkpt lat="44.55699" lon="0.87692">
        <ele>170.77</ele>
        <time>2014-12-07T09:36:15Z</time>
      </trkpt>
      <trkpt lat="44.55727" lon="0.87724">
        <ele>174.14</ele>
        <time>2014-12-07T09:36:28Z</time>
      </trkpt>
      <trkpt lat="44.55766" lon="0.87767">
        <ele>173.17</ele>
        <time>2014-12-07T09:36:42Z</time>
      </trkpt>
      <trkpt lat="44.55796" lon="0.87793">
        <ele>175.1</ele>
        <time>2014-12-07T09:36:55Z</time>
      </trkpt>
      <trkpt lat="44.55813" lon="0.87811">
        <ele>177.98</ele>
        <time>2014-12-07T09:37:05Z</time>
      </trkpt>
      <trkpt lat="44.55828" lon="0.87841">
        <ele>177.98</ele>
        <time>2014-12-07T09:37:18Z</time>
      </trkpt>
      <trkpt lat="44.55848" lon="0.87878">
        <ele>173.66</ele>
        <time>2014-12-07T09:37:29Z</time>
      </trkpt>
      <trkpt lat="44.55854" lon="0.87886">
        <ele>171.73</ele>
        <time>2014-12-07T09:37:32Z</time>
      </trkpt>
      <trkpt lat="44.55862" lon="0.87918">
        <ele>166.45</ele>
        <time>2014-12-07T09:37:38Z</time>
      </trkpt>
      <trkpt lat="44.55864" lon="0.87931">
        <ele>164.04</ele>
        <time>2014-12-07T09:37:40Z</time>
      </trkpt>
      <trkpt lat="44.55865" lon="0.87958">
        <ele>160.2</ele>
        <time>2014-12-07T09:37:44Z</time>
      </trkpt>
      <trkpt lat="44.5586" lon="0.87983">
        <ele>156.35</ele>
        <time>2014-12-07T09:37:48Z</time>
      </trkpt>
      <trkpt lat="44.55855" lon="0.87994">
        <ele>154.91</ele>
        <time>2014-12-07T09:37:50Z</time>
      </trkpt>
      <trkpt lat="44.55833" lon="0.88049">
        <ele>148.66</ele>
        <time>2014-12-07T09:37:59Z</time>
      </trkpt>
      <trkpt lat="44.55822" lon="0.88073">
        <ele>147.22</ele>
        <time>2014-12-07T09:38:03Z</time>
      </trkpt>
      <trkpt lat="44.55814" lon="0.88082">
        <ele>146.26</ele>
        <time>2014-12-07T09:38:05Z</time>
      </trkpt>
      <trkpt lat="44.55802" lon="0.88103">
        <ele>146.74</ele>
        <time>2014-12-07T09:38:09Z</time>
      </trkpt>
      <trkpt lat="44.55778" lon="0.88155">
        <ele>147.22</ele>
        <time>2014-12-07T09:38:19Z</time>
      </trkpt>
      <trkpt lat="44.55753" lon="0.88235">
        <ele>149.14</ele>
        <time>2014-12-07T09:38:36Z</time>
      </trkpt>
      <trkpt lat="44.5575" lon="0.88242">
        <ele>152.99</ele>
        <time>2014-12-07T09:38:56Z</time>
      </trkpt>
      <trkpt lat="44.5575" lon="0.88245">
        <ele>155.87</ele>
        <time>2014-12-07T09:39:23Z</time>
      </trkpt>
      <trkpt lat="44.55742" lon="0.88266">
        <ele>155.39</ele>
        <time>2014-12-07T09:39:34Z</time>
      </trkpt>
      <trkpt lat="44.55732" lon="0.88292">
        <ele>152.99</ele>
        <time>2014-12-07T09:39:39Z</time>
      </trkpt>
      <trkpt lat="44.55722" lon="0.8831">
        <ele>151.06</ele>
        <time>2014-12-07T09:39:42Z</time>
      </trkpt>
      <trkpt lat="44.55711" lon="0.88335">
        <ele>147.22</ele>
        <time>2014-12-07T09:39:46Z</time>
      </trkpt>
      <trkpt lat="44.55698" lon="0.8835">
        <ele>144.34</ele>
        <time>2014-12-07T09:39:49Z</time>
      </trkpt>
      <trkpt lat="44.55675" lon="0.88372">
        <ele>139.05</ele>
        <time>2014-12-07T09:39:56Z</time>
      </trkpt>
      <trkpt lat="44.55662" lon="0.88387">
        <ele>137.13</ele>
        <time>2014-12-07T09:40:00Z</time>
      </trkpt>
      <trkpt lat="44.55655" lon="0.88398">
        <ele>135.68</ele>
        <time>2014-12-07T09:40:03Z</time>
      </trkpt>
      <trkpt lat="44.55678" lon="0.88431">
        <ele>130.4</ele>
        <time>2014-12-07T09:40:13Z</time>
      </trkpt>
      <trkpt lat="44.55707" lon="0.88428">
        <ele>127.51</ele>
        <time>2014-12-07T09:40:24Z</time>
      </trkpt>
      <trkpt lat="44.5573" lon="0.88406">
        <ele>124.63</ele>
        <time>2014-12-07T09:40:33Z</time>
      </trkpt>
      <trkpt lat="44.55746" lon="0.88387">
        <ele>123.67</ele>
        <time>2014-12-07T09:40:39Z</time>
      </trkpt>
      <trkpt lat="44.55779" lon="0.88347">
        <ele>119.82</ele>
        <time>2014-12-07T09:40:52Z</time>
      </trkpt>
      <trkpt lat="44.55781" lon="0.88345">
        <ele>119.82</ele>
        <time>2014-12-07T09:40:53Z</time>
      </trkpt>
      <trkpt lat="44.55783" lon="0.88339">
        <ele>115.98</ele>
        <time>2014-12-07T09:41:06Z</time>
      </trkpt>
      <trkpt lat="44.55785" lon="0.88338">
        <ele>118.38</ele>
        <time>2014-12-07T09:41:29Z</time>
      </trkpt>
      <trkpt lat="44.55786" lon="0.88339">
        <ele>118.86</ele>
        <time>2014-12-07T09:41:33Z</time>
      </trkpt>
      <trkpt lat="44.55796" lon="0.88353">
        <ele>117.9</ele>
        <time>2014-12-07T09:41:37Z</time>
      </trkpt>
      <trkpt lat="44.55815" lon="0.8837">
        <ele>116.94</ele>
        <time>2014-12-07T09:41:41Z</time>
      </trkpt>
      <trkpt lat="44.55821" lon="0.88371">
        <ele>116.94</ele>
        <time>2014-12-07T09:41:42Z</time>
      </trkpt>
      <trkpt lat="44.55827" lon="0.88371">
        <ele>119.82</ele>
        <time>2014-12-07T09:41:48Z</time>
      </trkpt>
      <trkpt lat="44.55829" lon="0.88369">
        <ele>120.3</ele>
        <time>2014-12-07T09:42:02Z</time>
      </trkpt>
      <trkpt lat="44.5583" lon="0.88369">
        <ele>120.3</ele>
        <time>2014-12-07T09:42:20Z</time>
      </trkpt>
      <trkpt lat="44.55829" lon="0.88365">
        <ele>118.86</ele>
        <time>2014-12-07T09:42:48Z</time>
      </trkpt>
      <trkpt lat="44.5583" lon="0.88366">
        <ele>123.67</ele>
        <time>2014-12-07T09:43:16Z</time>
      </trkpt>
      <trkpt lat="44.5583" lon="0.88367">
        <ele>120.3</ele>
        <time>2014-12-07T09:43:35Z</time>
      </trkpt>
      <trkpt lat="44.55831" lon="0.88368">
        <ele>118.38</ele>
        <time>2014-12-07T09:43:49Z</time>
      </trkpt>
      <trkpt lat="44.55832" lon="0.88369">
        <ele>117.9</ele>
        <time>2014-12-07T09:43:55Z</time>
      </trkpt>
      <trkpt lat="44.55835" lon="0.88371">
        <ele>117.9</ele>
        <time>2014-12-07T09:43:57Z</time>
      </trkpt>
      <trkpt lat="44.55837" lon="0.88371">
        <ele>117.42</ele>
        <time>2014-12-07T09:43:58Z</time>
      </trkpt>
      <trkpt lat="44.55838" lon="0.88371">
        <ele>117.42</ele>
        <time>2014-12-07T09:43:59Z</time>
      </trkpt>
      <trkpt lat="44.5584" lon="0.88371">
        <ele>117.42</ele>
        <time>2014-12-07T09:44:00Z</time>
      </trkpt>
      <trkpt lat="44.55864" lon="0.88366">
        <ele>117.42</ele>
        <time>2014-12-07T09:44:12Z</time>
      </trkpt>
      <trkpt lat="44.55896" lon="0.88385">
        <ele>119.82</ele>
        <time>2014-12-07T09:44:28Z</time>
      </trkpt>
      <trkpt lat="44.55928" lon="0.88426">
        <ele>121.26</ele>
        <time>2014-12-07T09:44:42Z</time>
      </trkpt>
      <trkpt lat="44.55955" lon="0.88467">
        <ele>120.3</ele>
        <time>2014-12-07T09:44:55Z</time>
      </trkpt>
      <trkpt lat="44.55984" lon="0.88519">
        <ele>120.78</ele>
        <time>2014-12-07T09:45:08Z</time>
      </trkpt>
      <trkpt lat="44.56006" lon="0.88565">
        <ele>121.26</ele>
        <time>2014-12-07T09:45:20Z</time>
      </trkpt>
      <trkpt lat="44.56034" lon="0.88626">
        <ele>119.82</ele>
        <time>2014-12-07T09:45:37Z</time>
      </trkpt>
      <trkpt lat="44.5605" lon="0.88648">
        <ele>119.34</ele>
        <time>2014-12-07T09:45:50Z</time>
      </trkpt>
      <trkpt lat="44.56052" lon="0.88645">
        <ele>120.3</ele>
        <time>2014-12-07T09:46:03Z</time>
      </trkpt>
      <trkpt lat="44.56051" lon="0.88642">
        <ele>119.82</ele>
        <time>2014-12-07T09:46:39Z</time>
      </trkpt>
      <trkpt lat="44.56054" lon="0.88644">
        <ele>121.74</ele>
        <time>2014-12-07T09:47:24Z</time>
      </trkpt>
      <trkpt lat="44.56048" lon="0.88643">
        <ele>118.86</ele>
        <time>2014-12-07T09:48:02Z</time>
      </trkpt>
      <trkpt lat="44.56053" lon="0.88641">
        <ele>126.55</ele>
        <time>2014-12-07T09:48:40Z</time>
      </trkpt>
      <trkpt lat="44.56051" lon="0.8864">
        <ele>130.4</ele>
        <time>2014-12-07T09:49:21Z</time>
      </trkpt>
      <trkpt lat="44.56051" lon="0.88643">
        <ele>127.51</ele>
        <time>2014-12-07T09:49:56Z</time>
      </trkpt>
      <trkpt lat="44.56052" lon="0.88637">
        <ele>127.03</ele>
        <time>2014-12-07T09:50:43Z</time>
      </trkpt>
      <trkpt lat="44.56052" lon="0.88643">
        <ele>123.19</ele>
        <time>2014-12-07T09:51:26Z</time>
      </trkpt>
      <trkpt lat="44.56052" lon="0.88643">
        <ele>127.03</ele>
        <time>2014-12-07T09:52:10Z</time>
      </trkpt>
      <trkpt lat="44.56053" lon="0.88645">
        <ele>126.55</ele>
        <time>2014-12-07T09:52:55Z</time>
      </trkpt>
      <trkpt lat="44.56051" lon="0.88647">
        <ele>123.67</ele>
        <time>2014-12-07T09:53:13Z</time>
      </trkpt>
      <trkpt lat="44.56051" lon="0.88649">
        <ele>123.67</ele>
        <time>2014-12-07T09:53:14Z</time>
      </trkpt>
      <trkpt lat="44.5605" lon="0.88656">
        <ele>124.15</ele>
        <time>2014-12-07T09:53:27Z</time>
      </trkpt>
      <trkpt lat="44.56053" lon="0.88657">
        <ele>122.22</ele>
        <time>2014-12-07T09:53:44Z</time>
      </trkpt>
      <trkpt lat="44.56051" lon="0.88658">
        <ele>123.19</ele>
        <time>2014-12-07T09:54:04Z</time>
      </trkpt>
      <trkpt lat="44.56052" lon="0.88655">
        <ele>120.78</ele>
        <time>2014-12-07T09:54:29Z</time>
      </trkpt>
      <trkpt lat="44.56051" lon="0.88659">
        <ele>119.82</ele>
        <time>2014-12-07T09:54:53Z</time>
      </trkpt>
      <trkpt lat="44.56042" lon="0.88701">
        <ele>120.3</ele>
        <time>2014-12-07T09:55:07Z</time>
      </trkpt>
      <trkpt lat="44.56023" lon="0.88735">
        <ele>120.3</ele>
        <time>2014-12-07T09:55:18Z</time>
      </trkpt>
      <trkpt lat="44.56006" lon="0.88769">
        <ele>125.11</ele>
        <time>2014-12-07T09:55:31Z</time>
      </trkpt>
      <trkpt lat="44.5599" lon="0.88807">
        <ele>128.47</ele>
        <time>2014-12-07T09:55:46Z</time>
      </trkpt>
      <trkpt lat="44.5599" lon="0.88835">
        <ele>129.43</ele>
        <time>2014-12-07T09:55:59Z</time>
      </trkpt>
      <trkpt lat="44.56012" lon="0.88874">
        <ele>134.24</ele>
        <time>2014-12-07T09:56:15Z</time>
      </trkpt>
      <trkpt lat="44.56036" lon="0.88901">
        <ele>139.05</ele>
        <time>2014-12-07T09:56:29Z</time>
      </trkpt>
      <trkpt lat="44.56067" lon="0.88927">
        <ele>144.34</ele>
        <time>2014-12-07T09:56:45Z</time>
      </trkpt>
      <trkpt lat="44.56102" lon="0.88954">
        <ele>147.22</ele>
        <time>2014-12-07T09:57:01Z</time>
      </trkpt>
      <trkpt lat="44.56132" lon="0.88979">
        <ele>149.62</ele>
        <time>2014-12-07T09:57:17Z</time>
      </trkpt>
      <trkpt lat="44.56149" lon="0.89015">
        <ele>151.06</ele>
        <time>2014-12-07T09:57:34Z</time>
      </trkpt>
      <trkpt lat="44.56166" lon="0.89031">
        <ele>149.62</ele>
        <time>2014-12-07T09:57:47Z</time>
      </trkpt>
      <trkpt lat="44.56169" lon="0.89031">
        <ele>149.62</ele>
        <time>2014-12-07T09:57:48Z</time>
      </trkpt>
      <trkpt lat="44.56172" lon="0.89029">
        <ele>149.14</ele>
        <time>2014-12-07T09:57:49Z</time>
      </trkpt>
      <trkpt lat="44.56174" lon="0.89028">
        <ele>149.14</ele>
        <time>2014-12-07T09:57:50Z</time>
      </trkpt>
      <trkpt lat="44.56177" lon="0.89026">
        <ele>149.62</ele>
        <time>2014-12-07T09:57:51Z</time>
      </trkpt>
      <trkpt lat="44.5618" lon="0.89024">
        <ele>149.62</ele>
        <time>2014-12-07T09:57:52Z</time>
      </trkpt>
      <trkpt lat="44.56182" lon="0.89022">
        <ele>149.62</ele>
        <time>2014-12-07T09:57:53Z</time>
      </trkpt>
      <trkpt lat="44.56184" lon="0.89019">
        <ele>150.1</ele>
        <time>2014-12-07T09:57:54Z</time>
      </trkpt>
      <trkpt lat="44.56185" lon="0.89016">
        <ele>150.58</ele>
        <time>2014-12-07T09:57:55Z</time>
      </trkpt>
      <trkpt lat="44.56179" lon="0.88973">
        <ele>154.43</ele>
        <time>2014-12-07T09:58:08Z</time>
      </trkpt>
      <trkpt lat="44.56162" lon="0.88929">
        <ele>155.39</ele>
        <time>2014-12-07T09:58:18Z</time>
      </trkpt>
      <trkpt lat="44.56161" lon="0.88899">
        <ele>156.35</ele>
        <time>2014-12-07T09:58:26Z</time>
      </trkpt>
      <trkpt lat="44.56177" lon="0.88883">
        <ele>156.35</ele>
        <time>2014-12-07T09:58:35Z</time>
      </trkpt>
      <trkpt lat="44.56183" lon="0.88882">
        <ele>157.31</ele>
        <time>2014-12-07T09:58:39Z</time>
      </trkpt>
      <trkpt lat="44.56193" lon="0.88878">
        <ele>159.24</ele>
        <time>2014-12-07T09:58:46Z</time>
      </trkpt>
      <trkpt lat="44.56204" lon="0.88877">
        <ele>161.16</ele>
        <time>2014-12-07T09:58:55Z</time>
      </trkpt>
      <trkpt lat="44.56209" lon="0.88878">
        <ele>162.12</ele>
        <time>2014-12-07T09:58:59Z</time>
      </trkpt>
      <trkpt lat="44.56218" lon="0.88876">
        <ele>163.08</ele>
        <time>2014-12-07T09:59:10Z</time>
      </trkpt>
      <trkpt lat="44.56214" lon="0.88874">
        <ele>166.45</ele>
        <time>2014-12-07T09:59:25Z</time>
      </trkpt>
      <trkpt lat="44.56223" lon="0.88874">
        <ele>167.89</ele>
        <time>2014-12-07T09:59:38Z</time>
      </trkpt>
      <trkpt lat="44.5623" lon="0.88873">
        <ele>169.81</ele>
        <time>2014-12-07T09:59:54Z</time>
      </trkpt>
      <trkpt lat="44.56235" lon="0.88875">
        <ele>171.73</ele>
        <time>2014-12-07T10:00:09Z</time>
      </trkpt>
      <trkpt lat="44.56234" lon="0.8888">
        <ele>172.69</ele>
        <time>2014-12-07T10:00:22Z</time>
      </trkpt>
      <trkpt lat="44.5623" lon="0.88913">
        <ele>176.54</ele>
        <time>2014-12-07T10:00:38Z</time>
      </trkpt>
      <trkpt lat="44.56228" lon="0.88919">
        <ele>176.54</ele>
        <time>2014-12-07T10:00:41Z</time>
      </trkpt>
      <trkpt lat="44.56232" lon="0.88944">
        <ele>179.42</ele>
        <time>2014-12-07T10:00:53Z</time>
      </trkpt>
      <trkpt lat="44.56236" lon="0.88957">
        <ele>179.9</ele>
        <time>2014-12-07T10:01:00Z</time>
      </trkpt>
      <trkpt lat="44.56242" lon="0.88966">
        <ele>181.35</ele>
        <time>2014-12-07T10:01:07Z</time>
      </trkpt>
      <trkpt lat="44.56245" lon="0.88966">
        <ele>182.79</ele>
        <time>2014-12-07T10:01:09Z</time>
      </trkpt>
      <trkpt lat="44.56256" lon="0.88958">
        <ele>185.67</ele>
        <time>2014-12-07T10:01:17Z</time>
      </trkpt>
      <trkpt lat="44.56261" lon="0.88957">
        <ele>186.63</ele>
        <time>2014-12-07T10:01:20Z</time>
      </trkpt>
      <trkpt lat="44.56266" lon="0.88957">
        <ele>187.59</ele>
        <time>2014-12-07T10:01:24Z</time>
      </trkpt>
      <trkpt lat="44.56281" lon="0.88951">
        <ele>190.48</ele>
        <time>2014-12-07T10:01:35Z</time>
      </trkpt>
      <trkpt lat="44.56287" lon="0.88948">
        <ele>190</ele>
        <time>2014-12-07T10:01:51Z</time>
      </trkpt>
      <trkpt lat="44.56292" lon="0.88943">
        <ele>189.52</ele>
        <time>2014-12-07T10:02:05Z</time>
      </trkpt>
      <trkpt lat="44.56292" lon="0.88941">
        <ele>189.52</ele>
        <time>2014-12-07T10:02:07Z</time>
      </trkpt>
      <trkpt lat="44.56311" lon="0.88937">
        <ele>190.48</ele>
        <time>2014-12-07T10:02:24Z</time>
      </trkpt>
      <trkpt lat="44.56313" lon="0.88935">
        <ele>190.48</ele>
        <time>2014-12-07T10:02:26Z</time>
      </trkpt>
      <trkpt lat="44.56323" lon="0.8893">
        <ele>190.48</ele>
        <time>2014-12-07T10:02:34Z</time>
      </trkpt>
      <trkpt lat="44.56353" lon="0.88925">
        <ele>193.36</ele>
        <time>2014-12-07T10:02:51Z</time>
      </trkpt>
      <trkpt lat="44.56381" lon="0.88929">
        <ele>193.36</ele>
        <time>2014-12-07T10:03:03Z</time>
      </trkpt>
      <trkpt lat="44.56416" lon="0.88947">
        <ele>194.32</ele>
        <time>2014-12-07T10:03:19Z</time>
      </trkpt>
      <trkpt lat="44.56422" lon="0.88953">
        <ele>194.8</ele>
        <time>2014-12-07T10:03:22Z</time>
      </trkpt>
      <trkpt lat="44.56425" lon="0.88979">
        <ele>195.77</ele>
        <time>2014-12-07T10:03:31Z</time>
      </trkpt>
      <trkpt lat="44.56427" lon="0.88981">
        <ele>195.77</ele>
        <time>2014-12-07T10:03:32Z</time>
      </trkpt>
      <trkpt lat="44.56449" lon="0.89018">
        <ele>195.77</ele>
        <time>2014-12-07T10:03:46Z</time>
      </trkpt>
      <trkpt lat="44.56481" lon="0.89056">
        <ele>195.77</ele>
        <time>2014-12-07T10:04:02Z</time>
      </trkpt>
      <trkpt lat="44.56495" lon="0.89078">
        <ele>193.84</ele>
        <time>2014-12-07T10:04:11Z</time>
      </trkpt>
      <trkpt lat="44.56495" lon="0.89082">
        <ele>193.84</ele>
        <time>2014-12-07T10:04:12Z</time>
      </trkpt>
      <trkpt lat="44.5648" lon="0.89108">
        <ele>190.96</ele>
        <time>2014-12-07T10:04:19Z</time>
      </trkpt>
      <trkpt lat="44.56475" lon="0.89111">
        <ele>190.48</ele>
        <time>2014-12-07T10:04:20Z</time>
      </trkpt>
      <trkpt lat="44.56459" lon="0.89119">
        <ele>189.04</ele>
        <time>2014-12-07T10:04:23Z</time>
      </trkpt>
      <trkpt lat="44.56453" lon="0.8912">
        <ele>188.56</ele>
        <time>2014-12-07T10:04:24Z</time>
      </trkpt>
      <trkpt lat="44.56446" lon="0.89119">
        <ele>187.59</ele>
        <time>2014-12-07T10:04:25Z</time>
      </trkpt>
      <trkpt lat="44.56441" lon="0.89115">
        <ele>186.63</ele>
        <time>2014-12-07T10:04:26Z</time>
      </trkpt>
      <trkpt lat="44.56435" lon="0.89111">
        <ele>185.67</ele>
        <time>2014-12-07T10:04:27Z</time>
      </trkpt>
      <trkpt lat="44.56431" lon="0.89106">
        <ele>185.19</ele>
        <time>2014-12-07T10:04:28Z</time>
      </trkpt>
      <trkpt lat="44.56414" lon="0.89091">
        <ele>181.83</ele>
        <time>2014-12-07T10:04:34Z</time>
      </trkpt>
      <trkpt lat="44.56412" lon="0.89096">
        <ele>180.87</ele>
        <time>2014-12-07T10:04:36Z</time>
      </trkpt>
      <trkpt lat="44.56412" lon="0.89099">
        <ele>180.38</ele>
        <time>2014-12-07T10:04:37Z</time>
      </trkpt>
      <trkpt lat="44.56412" lon="0.89102">
        <ele>179.9</ele>
        <time>2014-12-07T10:04:38Z</time>
      </trkpt>
      <trkpt lat="44.56412" lon="0.89105">
        <ele>179.42</ele>
        <time>2014-12-07T10:04:39Z</time>
      </trkpt>
      <trkpt lat="44.56415" lon="0.89112">
        <ele>177.02</ele>
        <time>2014-12-07T10:04:49Z</time>
      </trkpt>
      <trkpt lat="44.56427" lon="0.8913">
        <ele>176.06</ele>
        <time>2014-12-07T10:05:03Z</time>
      </trkpt>
      <trkpt lat="44.56434" lon="0.89139">
        <ele>173.66</ele>
        <time>2014-12-07T10:05:07Z</time>
      </trkpt>
      <trkpt lat="44.56435" lon="0.89142">
        <ele>172.69</ele>
        <time>2014-12-07T10:05:08Z</time>
      </trkpt>
      <trkpt lat="44.56437" lon="0.89145">
        <ele>172.21</ele>
        <time>2014-12-07T10:05:09Z</time>
      </trkpt>
      <trkpt lat="44.56438" lon="0.89147">
        <ele>171.25</ele>
        <time>2014-12-07T10:05:10Z</time>
      </trkpt>
      <trkpt lat="44.5644" lon="0.8915">
        <ele>170.29</ele>
        <time>2014-12-07T10:05:11Z</time>
      </trkpt>
      <trkpt lat="44.56446" lon="0.89161">
        <ele>168.85</ele>
        <time>2014-12-07T10:05:14Z</time>
      </trkpt>
      <trkpt lat="44.56436" lon="0.89201">
        <ele>162.12</ele>
        <time>2014-12-07T10:05:23Z</time>
      </trkpt>
      <trkpt lat="44.56438" lon="0.89222">
        <ele>158.75</ele>
        <time>2014-12-07T10:05:27Z</time>
      </trkpt>
      <trkpt lat="44.56435" lon="0.89239">
        <ele>156.35</ele>
        <time>2014-12-07T10:05:31Z</time>
      </trkpt>
      <trkpt lat="44.56428" lon="0.89275">
        <ele>151.54</ele>
        <time>2014-12-07T10:05:38Z</time>
      </trkpt>
      <trkpt lat="44.56431" lon="0.8934">
        <ele>155.39</ele>
        <time>2014-12-07T10:05:51Z</time>
      </trkpt>
      <trkpt lat="44.56431" lon="0.89371">
        <ele>163.56</ele>
        <time>2014-12-07T10:06:02Z</time>
      </trkpt>
      <trkpt lat="44.56431" lon="0.89375">
        <ele>164.52</ele>
        <time>2014-12-07T10:06:04Z</time>
      </trkpt>
      <trkpt lat="44.56431" lon="0.89395">
        <ele>166.93</ele>
        <time>2014-12-07T10:06:11Z</time>
      </trkpt>
      <trkpt lat="44.5643" lon="0.89405">
        <ele>168.85</ele>
        <time>2014-12-07T10:06:15Z</time>
      </trkpt>
      <trkpt lat="44.56443" lon="0.89415">
        <ele>172.21</ele>
        <time>2014-12-07T10:06:26Z</time>
      </trkpt>
      <trkpt lat="44.56457" lon="0.89411">
        <ele>177.5</ele>
        <time>2014-12-07T10:06:36Z</time>
      </trkpt>
      <trkpt lat="44.56475" lon="0.89402">
        <ele>181.83</ele>
        <time>2014-12-07T10:06:47Z</time>
      </trkpt>
      <trkpt lat="44.56485" lon="0.89395">
        <ele>184.71</ele>
        <time>2014-12-07T10:07:02Z</time>
      </trkpt>
      <trkpt lat="44.56489" lon="0.89393">
        <ele>181.83</ele>
        <time>2014-12-07T10:07:29Z</time>
      </trkpt>
      <trkpt lat="44.56486" lon="0.8939">
        <ele>183.27</ele>
        <time>2014-12-07T10:07:54Z</time>
      </trkpt>
      <trkpt lat="44.56495" lon="0.89384">
        <ele>182.31</ele>
        <time>2014-12-07T10:08:19Z</time>
      </trkpt>
      <trkpt lat="44.56523" lon="0.89379">
        <ele>184.23</ele>
        <time>2014-12-07T10:08:30Z</time>
      </trkpt>
      <trkpt lat="44.56561" lon="0.89389">
        <ele>183.75</ele>
        <time>2014-12-07T10:08:41Z</time>
      </trkpt>
      <trkpt lat="44.56604" lon="0.8938">
        <ele>184.23</ele>
        <time>2014-12-07T10:08:52Z</time>
      </trkpt>
      <trkpt lat="44.5665" lon="0.89364">
        <ele>185.67</ele>
        <time>2014-12-07T10:09:05Z</time>
      </trkpt>
      <trkpt lat="44.56694" lon="0.89359">
        <ele>184.71</ele>
        <time>2014-12-07T10:09:16Z</time>
      </trkpt>
      <trkpt lat="44.56698" lon="0.89357">
        <ele>184.71</ele>
        <time>2014-12-07T10:09:17Z</time>
      </trkpt>
      <trkpt lat="44.56714" lon="0.89349">
        <ele>184.71</ele>
        <time>2014-12-07T10:09:21Z</time>
      </trkpt>
      <trkpt lat="44.56745" lon="0.89312">
        <ele>185.19</ele>
        <time>2014-12-07T10:09:31Z</time>
      </trkpt>
      <trkpt lat="44.56761" lon="0.89299">
        <ele>185.19</ele>
        <time>2014-12-07T10:09:35Z</time>
      </trkpt>
      <trkpt lat="44.56779" lon="0.89293">
        <ele>184.71</ele>
        <time>2014-12-07T10:09:39Z</time>
      </trkpt>
      <trkpt lat="44.56814" lon="0.89291">
        <ele>185.19</ele>
        <time>2014-12-07T10:09:47Z</time>
      </trkpt>
      <trkpt lat="44.56864" lon="0.89289">
        <ele>182.31</ele>
        <time>2014-12-07T10:09:58Z</time>
      </trkpt>
      <trkpt lat="44.56903" lon="0.89262">
        <ele>184.23</ele>
        <time>2014-12-07T10:10:10Z</time>
      </trkpt>
      <trkpt lat="44.56964" lon="0.8922">
        <ele>181.83</ele>
        <time>2014-12-07T10:10:21Z</time>
      </trkpt>
      <trkpt lat="44.56994" lon="0.89193">
        <ele>178.46</ele>
        <time>2014-12-07T10:10:27Z</time>
      </trkpt>
      <trkpt lat="44.56999" lon="0.89187">
        <ele>178.46</ele>
        <time>2014-12-07T10:10:28Z</time>
      </trkpt>
      <trkpt lat="44.57002" lon="0.89181">
        <ele>177.98</ele>
        <time>2014-12-07T10:10:29Z</time>
      </trkpt>
      <trkpt lat="44.57004" lon="0.89173">
        <ele>177.98</ele>
        <time>2014-12-07T10:10:30Z</time>
      </trkpt>
      <trkpt lat="44.57004" lon="0.89165">
        <ele>177.5</ele>
        <time>2014-12-07T10:10:31Z</time>
      </trkpt>
      <trkpt lat="44.57001" lon="0.89158">
        <ele>177.02</ele>
        <time>2014-12-07T10:10:32Z</time>
      </trkpt>
      <trkpt lat="44.56998" lon="0.89152">
        <ele>177.02</ele>
        <time>2014-12-07T10:10:33Z</time>
      </trkpt>
      <trkpt lat="44.56994" lon="0.89147">
        <ele>176.54</ele>
        <time>2014-12-07T10:10:34Z</time>
      </trkpt>
      <trkpt lat="44.56976" lon="0.89118">
        <ele>175.58</ele>
        <time>2014-12-07T10:10:39Z</time>
      </trkpt>
      <trkpt lat="44.56967" lon="0.89093">
        <ele>174.14</ele>
        <time>2014-12-07T10:10:43Z</time>
      </trkpt>
      <trkpt lat="44.56968" lon="0.89087">
        <ele>174.14</ele>
        <time>2014-12-07T10:10:44Z</time>
      </trkpt>
      <trkpt lat="44.56973" lon="0.8908">
        <ele>174.14</ele>
        <time>2014-12-07T10:10:46Z</time>
      </trkpt>
      <trkpt lat="44.57019" lon="0.89038">
        <ele>175.1</ele>
        <time>2014-12-07T10:11:01Z</time>
      </trkpt>
      <trkpt lat="44.57056" lon="0.8899">
        <ele>180.38</ele>
        <time>2014-12-07T10:11:15Z</time>
      </trkpt>
      <trkpt lat="44.5708" lon="0.88942">
        <ele>182.31</ele>
        <time>2014-12-07T10:11:27Z</time>
      </trkpt>
      <trkpt lat="44.57108" lon="0.88892">
        <ele>181.35</ele>
        <time>2014-12-07T10:11:41Z</time>
      </trkpt>
      <trkpt lat="44.57115" lon="0.88881">
        <ele>183.27</ele>
        <time>2014-12-07T10:11:45Z</time>
      </trkpt>
      <trkpt lat="44.57128" lon="0.88863">
        <ele>184.23</ele>
        <time>2014-12-07T10:11:52Z</time>
      </trkpt>
      <trkpt lat="44.57152" lon="0.88828">
        <ele>184.71</ele>
        <time>2014-12-07T10:12:07Z</time>
      </trkpt>
      <trkpt lat="44.57172" lon="0.88801">
        <ele>188.56</ele>
        <time>2014-12-07T10:12:20Z</time>
      </trkpt>
      <trkpt lat="44.57195" lon="0.88771">
        <ele>189.52</ele>
        <time>2014-12-07T10:12:37Z</time>
      </trkpt>
      <trkpt lat="44.57213" lon="0.88743">
        <ele>189.04</ele>
        <time>2014-12-07T10:12:52Z</time>
      </trkpt>
      <trkpt lat="44.5723" lon="0.88701">
        <ele>190.48</ele>
        <time>2014-12-07T10:13:09Z</time>
      </trkpt>
      <trkpt lat="44.57231" lon="0.88694">
        <ele>190</ele>
        <time>2014-12-07T10:13:24Z</time>
      </trkpt>
      <trkpt lat="44.57232" lon="0.88696">
        <ele>191.92</ele>
        <time>2014-12-07T10:13:33Z</time>
      </trkpt>
      <trkpt lat="44.57234" lon="0.88697">
        <ele>191.92</ele>
        <time>2014-12-07T10:13:34Z</time>
      </trkpt>
      <trkpt lat="44.57235" lon="0.88698">
        <ele>191.44</ele>
        <time>2014-12-07T10:13:35Z</time>
      </trkpt>
      <trkpt lat="44.57258" lon="0.88689">
        <ele>190.48</ele>
        <time>2014-12-07T10:13:44Z</time>
      </trkpt>
      <trkpt lat="44.57282" lon="0.88708">
        <ele>189.52</ele>
        <time>2014-12-07T10:13:51Z</time>
      </trkpt>
      <trkpt lat="44.5729" lon="0.88717">
        <ele>189.04</ele>
        <time>2014-12-07T10:13:53Z</time>
      </trkpt>
      <trkpt lat="44.57328" lon="0.88719">
        <ele>185.19</ele>
        <time>2014-12-07T10:14:01Z</time>
      </trkpt>
      <trkpt lat="44.57373" lon="0.88728">
        <ele>180.87</ele>
        <time>2014-12-07T10:14:09Z</time>
      </trkpt>
      <trkpt lat="44.57398" lon="0.88733">
        <ele>177.5</ele>
        <time>2014-12-07T10:14:13Z</time>
      </trkpt>
      <trkpt lat="44.57427" lon="0.88775">
        <ele>170.29</ele>
        <time>2014-12-07T10:14:21Z</time>
      </trkpt>
      <trkpt lat="44.57437" lon="0.88803">
        <ele>167.89</ele>
        <time>2014-12-07T10:14:25Z</time>
      </trkpt>
      <trkpt lat="44.57442" lon="0.88828">
        <ele>166.93</ele>
        <time>2014-12-07T10:14:30Z</time>
      </trkpt>
      <trkpt lat="44.57453" lon="0.88867">
        <ele>166.93</ele>
        <time>2014-12-07T10:14:37Z</time>
      </trkpt>
      <trkpt lat="44.57485" lon="0.88876">
        <ele>165</ele>
        <time>2014-12-07T10:14:45Z</time>
      </trkpt>
      <trkpt lat="44.57493" lon="0.88879">
        <ele>164.52</ele>
        <time>2014-12-07T10:14:47Z</time>
      </trkpt>
      <trkpt lat="44.57505" lon="0.88892">
        <ele>165</ele>
        <time>2014-12-07T10:14:51Z</time>
      </trkpt>
      <trkpt lat="44.57526" lon="0.88924">
        <ele>165.96</ele>
        <time>2014-12-07T10:15:03Z</time>
      </trkpt>
      <trkpt lat="44.57554" lon="0.88933">
        <ele>168.37</ele>
        <time>2014-12-07T10:15:15Z</time>
      </trkpt>
      <trkpt lat="44.57593" lon="0.88933">
        <ele>173.66</ele>
        <time>2014-12-07T10:15:29Z</time>
      </trkpt>
      <trkpt lat="44.57633" lon="0.88949">
        <ele>177.5</ele>
        <time>2014-12-07T10:15:43Z</time>
      </trkpt>
      <trkpt lat="44.57667" lon="0.88968">
        <ele>179.9</ele>
        <time>2014-12-07T10:15:55Z</time>
      </trkpt>
      <trkpt lat="44.57691" lon="0.89009">
        <ele>181.83</ele>
        <time>2014-12-07T10:16:08Z</time>
      </trkpt>
      <trkpt lat="44.57723" lon="0.89064">
        <ele>182.79</ele>
        <time>2014-12-07T10:16:24Z</time>
      </trkpt>
      <trkpt lat="44.57744" lon="0.89093">
        <ele>187.11</ele>
        <time>2014-12-07T10:16:35Z</time>
      </trkpt>
      <trkpt lat="44.57767" lon="0.89134">
        <ele>189.04</ele>
        <time>2014-12-07T10:16:49Z</time>
      </trkpt>
      <trkpt lat="44.57776" lon="0.89181">
        <ele>189.52</ele>
        <time>2014-12-07T10:17:03Z</time>
      </trkpt>
      <trkpt lat="44.57787" lon="0.89227">
        <ele>192.4</ele>
        <time>2014-12-07T10:17:16Z</time>
      </trkpt>
      <trkpt lat="44.57799" lon="0.89255">
        <ele>195.28</ele>
        <time>2014-12-07T10:17:26Z</time>
      </trkpt>
      <trkpt lat="44.57806" lon="0.89287">
        <ele>197.21</ele>
        <time>2014-12-07T10:17:38Z</time>
      </trkpt>
      <trkpt lat="44.57816" lon="0.89314">
        <ele>197.21</ele>
        <time>2014-12-07T10:17:50Z</time>
      </trkpt>
      <trkpt lat="44.57821" lon="0.89327">
        <ele>196.25</ele>
        <time>2014-12-07T10:17:55Z</time>
      </trkpt>
      <trkpt lat="44.57834" lon="0.89359">
        <ele>195.77</ele>
        <time>2014-12-07T10:18:07Z</time>
      </trkpt>
      <trkpt lat="44.57838" lon="0.89379">
        <ele>198.17</ele>
        <time>2014-12-07T10:18:14Z</time>
      </trkpt>
      <trkpt lat="44.57841" lon="0.89419">
        <ele>200.57</ele>
        <time>2014-12-07T10:18:27Z</time>
      </trkpt>
      <trkpt lat="44.5784" lon="0.89454">
        <ele>199.13</ele>
        <time>2014-12-07T10:18:35Z</time>
      </trkpt>
      <trkpt lat="44.57829" lon="0.89497">
        <ele>196.73</ele>
        <time>2014-12-07T10:18:44Z</time>
      </trkpt>
      <trkpt lat="44.57827" lon="0.8951">
        <ele>195.28</ele>
        <time>2014-12-07T10:18:55Z</time>
      </trkpt>
      <trkpt lat="44.57826" lon="0.8951">
        <ele>195.28</ele>
        <time>2014-12-07T10:19:24Z</time>
      </trkpt>
      <trkpt lat="44.57828" lon="0.89514">
        <ele>198.65</ele>
        <time>2014-12-07T10:19:51Z</time>
      </trkpt>
      <trkpt lat="44.57833" lon="0.89515">
        <ele>199.13</ele>
        <time>2014-12-07T10:20:04Z</time>
      </trkpt>
      <trkpt lat="44.5785" lon="0.89499">
        <ele>195.28</ele>
        <time>2014-12-07T10:20:12Z</time>
      </trkpt>
      <trkpt lat="44.57878" lon="0.89468">
        <ele>189.04</ele>
        <time>2014-12-07T10:20:23Z</time>
      </trkpt>
      <trkpt lat="44.57903" lon="0.89437">
        <ele>185.19</ele>
        <time>2014-12-07T10:20:34Z</time>
      </trkpt>
      <trkpt lat="44.57918" lon="0.89411">
        <ele>180.87</ele>
        <time>2014-12-07T10:20:43Z</time>
      </trkpt>
      <trkpt lat="44.57932" lon="0.8939">
        <ele>178.94</ele>
        <time>2014-12-07T10:20:47Z</time>
      </trkpt>
      <trkpt lat="44.57947" lon="0.89352">
        <ele>175.1</ele>
        <time>2014-12-07T10:20:53Z</time>
      </trkpt>
      <trkpt lat="44.57961" lon="0.89302">
        <ele>172.21</ele>
        <time>2014-12-07T10:21:04Z</time>
      </trkpt>
      <trkpt lat="44.57971" lon="0.89295">
        <ele>171.73</ele>
        <time>2014-12-07T10:21:07Z</time>
      </trkpt>
      <trkpt lat="44.57976" lon="0.89287">
        <ele>171.73</ele>
        <time>2014-12-07T10:21:09Z</time>
      </trkpt>
      <trkpt lat="44.57981" lon="0.89276">
        <ele>171.73</ele>
        <time>2014-12-07T10:21:11Z</time>
      </trkpt>
      <trkpt lat="44.58009" lon="0.89228">
        <ele>171.73</ele>
        <time>2014-12-07T10:21:24Z</time>
      </trkpt>
      <trkpt lat="44.58035" lon="0.89213">
        <ele>173.66</ele>
        <time>2014-12-07T10:21:38Z</time>
      </trkpt>
      <trkpt lat="44.58056" lon="0.89213">
        <ele>175.1</ele>
        <time>2014-12-07T10:21:51Z</time>
      </trkpt>
      <trkpt lat="44.58082" lon="0.89209">
        <ele>179.42</ele>
        <time>2014-12-07T10:22:06Z</time>
      </trkpt>
      <trkpt lat="44.58095" lon="0.89177">
        <ele>181.35</ele>
        <time>2014-12-07T10:22:19Z</time>
      </trkpt>
      <trkpt lat="44.58112" lon="0.89144">
        <ele>182.79</ele>
        <time>2014-12-07T10:22:32Z</time>
      </trkpt>
      <trkpt lat="44.58113" lon="0.89142">
        <ele>183.27</ele>
        <time>2014-12-07T10:22:33Z</time>
      </trkpt>
      <trkpt lat="44.58102" lon="0.89126">
        <ele>189.04</ele>
        <time>2014-12-07T10:22:44Z</time>
      </trkpt>
      <trkpt lat="44.58102" lon="0.89125">
        <ele>189.52</ele>
        <time>2014-12-07T10:22:45Z</time>
      </trkpt>
      <trkpt lat="44.58103" lon="0.89121">
        <ele>190.48</ele>
        <time>2014-12-07T10:22:48Z</time>
      </trkpt>
      <trkpt lat="44.58109" lon="0.89114">
        <ele>192.4</ele>
        <time>2014-12-07T10:22:56Z</time>
      </trkpt>
      <trkpt lat="44.58114" lon="0.89109">
        <ele>193.84</ele>
        <time>2014-12-07T10:23:00Z</time>
      </trkpt>
      <trkpt lat="44.58132" lon="0.89097">
        <ele>202.49</ele>
        <time>2014-12-07T10:23:15Z</time>
      </trkpt>
      <trkpt lat="44.58138" lon="0.89097">
        <ele>203.94</ele>
        <time>2014-12-07T10:23:19Z</time>
      </trkpt>
      <trkpt lat="44.5814" lon="0.89096">
        <ele>204.42</ele>
        <time>2014-12-07T10:23:21Z</time>
      </trkpt>
      <trkpt lat="44.58164" lon="0.89094">
        <ele>206.34</ele>
        <time>2014-12-07T10:23:36Z</time>
      </trkpt>
      <trkpt lat="44.58185" lon="0.89081">
        <ele>209.7</ele>
        <time>2014-12-07T10:23:51Z</time>
      </trkpt>
      <trkpt lat="44.58193" lon="0.89063">
        <ele>211.15</ele>
        <time>2014-12-07T10:24:01Z</time>
      </trkpt>
      <trkpt lat="44.58204" lon="0.89036">
        <ele>211.15</ele>
        <time>2014-12-07T10:24:15Z</time>
      </trkpt>
      <trkpt lat="44.58215" lon="0.89025">
        <ele>211.63</ele>
        <time>2014-12-07T10:24:23Z</time>
      </trkpt>
      <trkpt lat="44.58239" lon="0.88995">
        <ele>212.59</ele>
        <time>2014-12-07T10:24:39Z</time>
      </trkpt>
      <trkpt lat="44.58268" lon="0.88973">
        <ele>213.55</ele>
        <time>2014-12-07T10:24:53Z</time>
      </trkpt>
      <trkpt lat="44.58298" lon="0.88948">
        <ele>213.55</ele>
        <time>2014-12-07T10:25:10Z</time>
      </trkpt>
      <trkpt lat="44.5831" lon="0.88938">
        <ele>213.07</ele>
        <time>2014-12-07T10:25:21Z</time>
      </trkpt>
      <trkpt lat="44.5831" lon="0.88937">
        <ele>213.07</ele>
        <time>2014-12-07T10:25:38Z</time>
      </trkpt>
      <trkpt lat="44.58312" lon="0.88939">
        <ele>212.59</ele>
        <time>2014-12-07T10:25:57Z</time>
      </trkpt>
      <trkpt lat="44.58314" lon="0.88949">
        <ele>213.07</ele>
        <time>2014-12-07T10:26:12Z</time>
      </trkpt>
      <trkpt lat="44.58316" lon="0.88952">
        <ele>212.11</ele>
        <time>2014-12-07T10:26:24Z</time>
      </trkpt>
      <trkpt lat="44.58315" lon="0.88954">
        <ele>215.47</ele>
        <time>2014-12-07T10:26:46Z</time>
      </trkpt>
      <trkpt lat="44.58314" lon="0.88955">
        <ele>215.95</ele>
        <time>2014-12-07T10:26:56Z</time>
      </trkpt>
      <trkpt lat="44.58314" lon="0.88967">
        <ele>216.91</ele>
        <time>2014-12-07T10:27:02Z</time>
      </trkpt>
      <trkpt lat="44.58319" lon="0.88994">
        <ele>218.84</ele>
        <time>2014-12-07T10:27:15Z</time>
      </trkpt>
      <trkpt lat="44.58328" lon="0.89026">
        <ele>219.32</ele>
        <time>2014-12-07T10:27:29Z</time>
      </trkpt>
      <trkpt lat="44.58335" lon="0.89058">
        <ele>217.88</ele>
        <time>2014-12-07T10:27:41Z</time>
      </trkpt>
      <trkpt lat="44.58337" lon="0.89061">
        <ele>217.88</ele>
        <time>2014-12-07T10:27:43Z</time>
      </trkpt>
      <trkpt lat="44.58343" lon="0.89074">
        <ele>218.36</ele>
        <time>2014-12-07T10:27:51Z</time>
      </trkpt>
      <trkpt lat="44.58351" lon="0.89092">
        <ele>217.4</ele>
        <time>2014-12-07T10:28:06Z</time>
      </trkpt>
      <trkpt lat="44.58351" lon="0.89094">
        <ele>214.51</ele>
        <time>2014-12-07T10:28:28Z</time>
      </trkpt>
      <trkpt lat="44.58367" lon="0.89128">
        <ele>215.95</ele>
        <time>2014-12-07T10:28:42Z</time>
      </trkpt>
      <trkpt lat="44.58388" lon="0.89161">
        <ele>216.91</ele>
        <time>2014-12-07T10:28:56Z</time>
      </trkpt>
      <trkpt lat="44.58388" lon="0.89162">
        <ele>217.4</ele>
        <time>2014-12-07T10:29:07Z</time>
      </trkpt>
      <trkpt lat="44.5839" lon="0.89164">
        <ele>215.47</ele>
        <time>2014-12-07T10:29:38Z</time>
      </trkpt>
      <trkpt lat="44.58398" lon="0.8918">
        <ele>216.43</ele>
        <time>2014-12-07T10:29:52Z</time>
      </trkpt>
      <trkpt lat="44.5842" lon="0.89222">
        <ele>213.07</ele>
        <time>2014-12-07T10:30:03Z</time>
      </trkpt>
      <trkpt lat="44.58426" lon="0.8923">
        <ele>212.59</ele>
        <time>2014-12-07T10:30:05Z</time>
      </trkpt>
      <trkpt lat="44.58433" lon="0.89237">
        <ele>211.15</ele>
        <time>2014-12-07T10:30:07Z</time>
      </trkpt>
      <trkpt lat="44.58444" lon="0.89271">
        <ele>208.26</ele>
        <time>2014-12-07T10:30:13Z</time>
      </trkpt>
      <trkpt lat="44.58449" lon="0.89296">
        <ele>207.78</ele>
        <time>2014-12-07T10:30:17Z</time>
      </trkpt>
      <trkpt lat="44.58453" lon="0.89308">
        <ele>207.78</ele>
        <time>2014-12-07T10:30:19Z</time>
      </trkpt>
      <trkpt lat="44.58458" lon="0.89327">
        <ele>207.78</ele>
        <time>2014-12-07T10:30:23Z</time>
      </trkpt>
      <trkpt lat="44.5846" lon="0.89327">
        <ele>208.26</ele>
        <time>2014-12-07T10:30:24Z</time>
      </trkpt>
      <trkpt lat="44.58462" lon="0.89325">
        <ele>208.26</ele>
        <time>2014-12-07T10:30:25Z</time>
      </trkpt>
      <trkpt lat="44.58465" lon="0.89322">
        <ele>208.74</ele>
        <time>2014-12-07T10:30:26Z</time>
      </trkpt>
      <trkpt lat="44.58467" lon="0.89318">
        <ele>208.74</ele>
        <time>2014-12-07T10:30:27Z</time>
      </trkpt>
      <trkpt lat="44.5847" lon="0.89314">
        <ele>208.26</ele>
        <time>2014-12-07T10:30:28Z</time>
      </trkpt>
      <trkpt lat="44.58472" lon="0.8931">
        <ele>208.26</ele>
        <time>2014-12-07T10:30:29Z</time>
      </trkpt>
      <trkpt lat="44.58475" lon="0.89305">
        <ele>207.78</ele>
        <time>2014-12-07T10:30:30Z</time>
      </trkpt>
      <trkpt lat="44.58478" lon="0.893">
        <ele>207.3</ele>
        <time>2014-12-07T10:30:31Z</time>
      </trkpt>
      <trkpt lat="44.58484" lon="0.89289">
        <ele>206.34</ele>
        <time>2014-12-07T10:30:33Z</time>
      </trkpt>
      <trkpt lat="44.58487" lon="0.89282">
        <ele>205.38</ele>
        <time>2014-12-07T10:30:34Z</time>
      </trkpt>
      <trkpt lat="44.58488" lon="0.89276">
        <ele>204.9</ele>
        <time>2014-12-07T10:30:35Z</time>
      </trkpt>
      <trkpt lat="44.58489" lon="0.89271">
        <ele>203.94</ele>
        <time>2014-12-07T10:30:36Z</time>
      </trkpt>
      <trkpt lat="44.5849" lon="0.89268">
        <ele>203.46</ele>
        <time>2014-12-07T10:30:37Z</time>
      </trkpt>
      <trkpt lat="44.58492" lon="0.89267">
        <ele>202.49</ele>
        <time>2014-12-07T10:30:38Z</time>
      </trkpt>
      <trkpt lat="44.58496" lon="0.89269">
        <ele>201.53</ele>
        <time>2014-12-07T10:30:40Z</time>
      </trkpt>
      <trkpt lat="44.58498" lon="0.89271">
        <ele>200.57</ele>
        <time>2014-12-07T10:30:41Z</time>
      </trkpt>
      <trkpt lat="44.585" lon="0.89274">
        <ele>200.57</ele>
        <time>2014-12-07T10:30:42Z</time>
      </trkpt>
      <trkpt lat="44.58503" lon="0.89278">
        <ele>200.09</ele>
        <time>2014-12-07T10:30:43Z</time>
      </trkpt>
      <trkpt lat="44.58505" lon="0.89283">
        <ele>200.09</ele>
        <time>2014-12-07T10:30:44Z</time>
      </trkpt>
      <trkpt lat="44.58522" lon="0.8929">
        <ele>200.57</ele>
        <time>2014-12-07T10:30:53Z</time>
      </trkpt>
      <trkpt lat="44.58562" lon="0.89272">
        <ele>202.49</ele>
        <time>2014-12-07T10:31:06Z</time>
      </trkpt>
      <trkpt lat="44.5858" lon="0.89263">
        <ele>203.94</ele>
        <time>2014-12-07T10:31:11Z</time>
      </trkpt>
      <trkpt lat="44.58617" lon="0.89252">
        <ele>206.34</ele>
        <time>2014-12-07T10:31:21Z</time>
      </trkpt>
      <trkpt lat="44.58624" lon="0.89251">
        <ele>206.34</ele>
        <time>2014-12-07T10:31:23Z</time>
      </trkpt>
      <trkpt lat="44.58638" lon="0.89257">
        <ele>204.9</ele>
        <time>2014-12-07T10:31:26Z</time>
      </trkpt>
      <trkpt lat="44.58665" lon="0.89273">
        <ele>200.09</ele>
        <time>2014-12-07T10:31:33Z</time>
      </trkpt>
      <trkpt lat="44.58674" lon="0.89249">
        <ele>198.17</ele>
        <time>2014-12-07T10:31:38Z</time>
      </trkpt>
      <trkpt lat="44.58688" lon="0.89217">
        <ele>196.73</ele>
        <time>2014-12-07T10:31:44Z</time>
      </trkpt>
      <trkpt lat="44.58693" lon="0.89206">
        <ele>196.73</ele>
        <time>2014-12-07T10:31:46Z</time>
      </trkpt>
      <trkpt lat="44.58704" lon="0.89178">
        <ele>194.8</ele>
        <time>2014-12-07T10:31:56Z</time>
      </trkpt>
      <trkpt lat="44.58705" lon="0.89176">
        <ele>194.8</ele>
        <time>2014-12-07T10:31:58Z</time>
      </trkpt>
      <trkpt lat="44.58707" lon="0.89168">
        <ele>196.25</ele>
        <time>2014-12-07T10:32:12Z</time>
      </trkpt>
      <trkpt lat="44.58709" lon="0.89166">
        <ele>197.21</ele>
        <time>2014-12-07T10:32:26Z</time>
      </trkpt>
      <trkpt lat="44.5871" lon="0.89162">
        <ele>196.73</ele>
        <time>2014-12-07T10:32:32Z</time>
      </trkpt>
      <trkpt lat="44.5872" lon="0.89141">
        <ele>194.8</ele>
        <time>2014-12-07T10:32:38Z</time>
      </trkpt>
      <trkpt lat="44.5876" lon="0.89054">
        <ele>187.11</ele>
        <time>2014-12-07T10:32:50Z</time>
      </trkpt>
      <trkpt lat="44.58762" lon="0.89046">
        <ele>187.59</ele>
        <time>2014-12-07T10:32:51Z</time>
      </trkpt>
      <trkpt lat="44.58762" lon="0.89039">
        <ele>187.59</ele>
        <time>2014-12-07T10:32:52Z</time>
      </trkpt>
      <trkpt lat="44.58762" lon="0.89033">
        <ele>188.08</ele>
        <time>2014-12-07T10:32:53Z</time>
      </trkpt>
      <trkpt lat="44.58762" lon="0.89028">
        <ele>188.08</ele>
        <time>2014-12-07T10:32:54Z</time>
      </trkpt>
      <trkpt lat="44.58762" lon="0.89023">
        <ele>188.56</ele>
        <time>2014-12-07T10:32:55Z</time>
      </trkpt>
      <trkpt lat="44.58761" lon="0.89006">
        <ele>188.08</ele>
        <time>2014-12-07T10:32:58Z</time>
      </trkpt>
      <trkpt lat="44.58761" lon="0.88999">
        <ele>187.59</ele>
        <time>2014-12-07T10:32:59Z</time>
      </trkpt>
      <trkpt lat="44.58759" lon="0.88921">
        <ele>181.83</ele>
        <time>2014-12-07T10:33:07Z</time>
      </trkpt>
      <trkpt lat="44.58757" lon="0.88911">
        <ele>181.35</ele>
        <time>2014-12-07T10:33:08Z</time>
      </trkpt>
      <trkpt lat="44.5874" lon="0.88842">
        <ele>179.9</ele>
        <time>2014-12-07T10:33:15Z</time>
      </trkpt>
      <trkpt lat="44.58737" lon="0.88834">
        <ele>179.9</ele>
        <time>2014-12-07T10:33:16Z</time>
      </trkpt>
      <trkpt lat="44.58733" lon="0.88828">
        <ele>179.9</ele>
        <time>2014-12-07T10:33:17Z</time>
      </trkpt>
      <trkpt lat="44.58698" lon="0.88773">
        <ele>179.42</ele>
        <time>2014-12-07T10:33:25Z</time>
      </trkpt>
      <trkpt lat="44.58695" lon="0.88765">
        <ele>178.94</ele>
        <time>2014-12-07T10:33:26Z</time>
      </trkpt>
      <trkpt lat="44.58692" lon="0.88756">
        <ele>177.98</ele>
        <time>2014-12-07T10:33:27Z</time>
      </trkpt>
      <trkpt lat="44.58689" lon="0.88747">
        <ele>177.5</ele>
        <time>2014-12-07T10:33:28Z</time>
      </trkpt>
      <trkpt lat="44.58687" lon="0.88738">
        <ele>177.02</ele>
        <time>2014-12-07T10:33:29Z</time>
      </trkpt>
      <trkpt lat="44.58686" lon="0.88729">
        <ele>177.02</ele>
        <time>2014-12-07T10:33:30Z</time>
      </trkpt>
      <trkpt lat="44.58685" lon="0.8869">
        <ele>176.54</ele>
        <time>2014-12-07T10:33:36Z</time>
      </trkpt>
      <trkpt lat="44.58687" lon="0.88684">
        <ele>176.54</ele>
        <time>2014-12-07T10:33:37Z</time>
      </trkpt>
      <trkpt lat="44.58689" lon="0.88679">
        <ele>176.06</ele>
        <time>2014-12-07T10:33:38Z</time>
      </trkpt>
      <trkpt lat="44.58691" lon="0.88674">
        <ele>175.58</ele>
        <time>2014-12-07T10:33:39Z</time>
      </trkpt>
      <trkpt lat="44.58693" lon="0.8867">
        <ele>175.58</ele>
        <time>2014-12-07T10:33:40Z</time>
      </trkpt>
      <trkpt lat="44.58695" lon="0.88666">
        <ele>175.58</ele>
        <time>2014-12-07T10:33:41Z</time>
      </trkpt>
      <trkpt lat="44.587" lon="0.88661">
        <ele>174.62</ele>
        <time>2014-12-07T10:33:44Z</time>
      </trkpt>
      <trkpt lat="44.58712" lon="0.88657">
        <ele>171.73</ele>
        <time>2014-12-07T10:33:57Z</time>
      </trkpt>
      <trkpt lat="44.58714" lon="0.88657">
        <ele>171.73</ele>
        <time>2014-12-07T10:33:58Z</time>
      </trkpt>
      <trkpt lat="44.58739" lon="0.88665">
        <ele>167.41</ele>
        <time>2014-12-07T10:34:03Z</time>
      </trkpt>
      <trkpt lat="44.58749" lon="0.8867">
        <ele>166.93</ele>
        <time>2014-12-07T10:34:05Z</time>
      </trkpt>
      <trkpt lat="44.58759" lon="0.8868">
        <ele>166.93</ele>
        <time>2014-12-07T10:34:08Z</time>
      </trkpt>
      <trkpt lat="44.58763" lon="0.88676">
        <ele>166.45</ele>
        <time>2014-12-07T10:34:13Z</time>
      </trkpt>
      <trkpt lat="44.58755" lon="0.88658">
        <ele>166.45</ele>
        <time>2014-12-07T10:34:26Z</time>
      </trkpt>
      <trkpt lat="44.58754" lon="0.88652">
        <ele>166.93</ele>
        <time>2014-12-07T10:34:38Z</time>
      </trkpt>
      <trkpt lat="44.58747" lon="0.88618">
        <ele>167.41</ele>
        <time>2014-12-07T10:34:49Z</time>
      </trkpt>
      <trkpt lat="44.58748" lon="0.88615">
        <ele>167.41</ele>
        <time>2014-12-07T10:34:50Z</time>
      </trkpt>
      <trkpt lat="44.58749" lon="0.88612">
        <ele>166.93</ele>
        <time>2014-12-07T10:34:51Z</time>
      </trkpt>
      <trkpt lat="44.58751" lon="0.8861">
        <ele>166.93</ele>
        <time>2014-12-07T10:34:52Z</time>
      </trkpt>
      <trkpt lat="44.58752" lon="0.88608">
        <ele>166.45</ele>
        <time>2014-12-07T10:34:53Z</time>
      </trkpt>
      <trkpt lat="44.58753" lon="0.88606">
        <ele>166.45</ele>
        <time>2014-12-07T10:34:54Z</time>
      </trkpt>
      <trkpt lat="44.58754" lon="0.88603">
        <ele>166.45</ele>
        <time>2014-12-07T10:34:55Z</time>
      </trkpt>
      <trkpt lat="44.5877" lon="0.88567">
        <ele>163.56</ele>
        <time>2014-12-07T10:35:09Z</time>
      </trkpt>
      <trkpt lat="44.58799" lon="0.88526">
        <ele>161.64</ele>
        <time>2014-12-07T10:35:20Z</time>
      </trkpt>
      <trkpt lat="44.5881" lon="0.88505">
        <ele>158.75</ele>
        <time>2014-12-07T10:35:26Z</time>
      </trkpt>
      <trkpt lat="44.58811" lon="0.885">
        <ele>158.27</ele>
        <time>2014-12-07T10:35:27Z</time>
      </trkpt>
      <trkpt lat="44.5881" lon="0.88496">
        <ele>158.27</ele>
        <time>2014-12-07T10:35:28Z</time>
      </trkpt>
      <trkpt lat="44.5881" lon="0.88491">
        <ele>158.27</ele>
        <time>2014-12-07T10:35:29Z</time>
      </trkpt>
      <trkpt lat="44.5881" lon="0.88486">
        <ele>157.79</ele>
        <time>2014-12-07T10:35:30Z</time>
      </trkpt>
      <trkpt lat="44.58812" lon="0.88481">
        <ele>157.79</ele>
        <time>2014-12-07T10:35:31Z</time>
      </trkpt>
      <trkpt lat="44.58813" lon="0.88476">
        <ele>157.31</ele>
        <time>2014-12-07T10:35:32Z</time>
      </trkpt>
      <trkpt lat="44.58815" lon="0.8847">
        <ele>157.31</ele>
        <time>2014-12-07T10:35:33Z</time>
      </trkpt>
      <trkpt lat="44.58816" lon="0.88464">
        <ele>157.31</ele>
        <time>2014-12-07T10:35:34Z</time>
      </trkpt>
      <trkpt lat="44.58844" lon="0.88389">
        <ele>154.43</ele>
        <time>2014-12-07T10:35:45Z</time>
      </trkpt>
      <trkpt lat="44.58849" lon="0.8838">
        <ele>153.47</ele>
        <time>2014-12-07T10:35:46Z</time>
      </trkpt>
      <trkpt lat="44.58855" lon="0.88373">
        <ele>152.51</ele>
        <time>2014-12-07T10:35:47Z</time>
      </trkpt>
      <trkpt lat="44.5886" lon="0.88367">
        <ele>151.54</ele>
        <time>2014-12-07T10:35:48Z</time>
      </trkpt>
      <trkpt lat="44.58895" lon="0.88326">
        <ele>146.74</ele>
        <time>2014-12-07T10:35:57Z</time>
      </trkpt>
      <trkpt lat="44.5892" lon="0.88285">
        <ele>145.78</ele>
        <time>2014-12-07T10:36:03Z</time>
      </trkpt>
      <trkpt lat="44.58926" lon="0.88279">
        <ele>145.78</ele>
        <time>2014-12-07T10:36:04Z</time>
      </trkpt>
      <trkpt lat="44.58932" lon="0.88275">
        <ele>145.78</ele>
        <time>2014-12-07T10:36:05Z</time>
      </trkpt>
      <trkpt lat="44.58939" lon="0.88272">
        <ele>145.78</ele>
        <time>2014-12-07T10:36:06Z</time>
      </trkpt>
      <trkpt lat="44.58945" lon="0.8827">
        <ele>145.78</ele>
        <time>2014-12-07T10:36:07Z</time>
      </trkpt>
      <trkpt lat="44.58987" lon="0.8826">
        <ele>151.06</ele>
        <time>2014-12-07T10:36:16Z</time>
      </trkpt>
      <trkpt lat="44.58991" lon="0.88259">
        <ele>151.54</ele>
        <time>2014-12-07T10:36:17Z</time>
      </trkpt>
      <trkpt lat="44.58996" lon="0.88259">
        <ele>152.51</ele>
        <time>2014-12-07T10:36:18Z</time>
      </trkpt>
      <trkpt lat="44.59" lon="0.88258">
        <ele>153.47</ele>
        <time>2014-12-07T10:36:19Z</time>
      </trkpt>
      <trkpt lat="44.59004" lon="0.88257">
        <ele>153.95</ele>
        <time>2014-12-07T10:36:20Z</time>
      </trkpt>
      <trkpt lat="44.59008" lon="0.88255">
        <ele>154.91</ele>
        <time>2014-12-07T10:36:21Z</time>
      </trkpt>
      <trkpt lat="44.59012" lon="0.88254">
        <ele>155.39</ele>
        <time>2014-12-07T10:36:22Z</time>
      </trkpt>
      <trkpt lat="44.59016" lon="0.88252">
        <ele>155.87</ele>
        <time>2014-12-07T10:36:23Z</time>
      </trkpt>
      <trkpt lat="44.59019" lon="0.8825">
        <ele>156.35</ele>
        <time>2014-12-07T10:36:24Z</time>
      </trkpt>
      <trkpt lat="44.59026" lon="0.88238">
        <ele>158.27</ele>
        <time>2014-12-07T10:36:27Z</time>
      </trkpt>
      <trkpt lat="44.59027" lon="0.88233">
        <ele>158.75</ele>
        <time>2014-12-07T10:36:28Z</time>
      </trkpt>
      <trkpt lat="44.59027" lon="0.88229">
        <ele>159.24</ele>
        <time>2014-12-07T10:36:29Z</time>
      </trkpt>
      <trkpt lat="44.59026" lon="0.88224">
        <ele>159.24</ele>
        <time>2014-12-07T10:36:30Z</time>
      </trkpt>
      <trkpt lat="44.59024" lon="0.88221">
        <ele>159.72</ele>
        <time>2014-12-07T10:36:31Z</time>
      </trkpt>
      <trkpt lat="44.59023" lon="0.88217">
        <ele>160.2</ele>
        <time>2014-12-07T10:36:32Z</time>
      </trkpt>
      <trkpt lat="44.59022" lon="0.88214">
        <ele>160.68</ele>
        <time>2014-12-07T10:36:33Z</time>
      </trkpt>
      <trkpt lat="44.58992" lon="0.88178">
        <ele>165</ele>
        <time>2014-12-07T10:36:50Z</time>
      </trkpt>
      <trkpt lat="44.58987" lon="0.88172">
        <ele>164.52</ele>
        <time>2014-12-07T10:36:53Z</time>
      </trkpt>
      <trkpt lat="44.58986" lon="0.88169">
        <ele>164.52</ele>
        <time>2014-12-07T10:36:54Z</time>
      </trkpt>
      <trkpt lat="44.58984" lon="0.88168">
        <ele>164.04</ele>
        <time>2014-12-07T10:36:55Z</time>
      </trkpt>
      <trkpt lat="44.58983" lon="0.88167">
        <ele>164.04</ele>
        <time>2014-12-07T10:36:56Z</time>
      </trkpt>
      <trkpt lat="44.58981" lon="0.88166">
        <ele>163.56</ele>
        <time>2014-12-07T10:36:57Z</time>
      </trkpt>
      <trkpt lat="44.5898" lon="0.88165">
        <ele>163.56</ele>
        <time>2014-12-07T10:36:58Z</time>
      </trkpt>
      <trkpt lat="44.58978" lon="0.88164">
        <ele>163.08</ele>
        <time>2014-12-07T10:36:59Z</time>
      </trkpt>
      <trkpt lat="44.5896" lon="0.88147">
        <ele>159.24</ele>
        <time>2014-12-07T10:37:07Z</time>
      </trkpt>
      <trkpt lat="44.58957" lon="0.88142">
        <ele>158.75</ele>
        <time>2014-12-07T10:37:08Z</time>
      </trkpt>
      <trkpt lat="44.58911" lon="0.88078">
        <ele>150.1</ele>
        <time>2014-12-07T10:37:17Z</time>
      </trkpt>
      <trkpt lat="44.58906" lon="0.88072">
        <ele>149.14</ele>
        <time>2014-12-07T10:37:18Z</time>
      </trkpt>
      <trkpt lat="44.58901" lon="0.88068">
        <ele>148.66</ele>
        <time>2014-12-07T10:37:19Z</time>
      </trkpt>
      <trkpt lat="44.58895" lon="0.88066">
        <ele>148.18</ele>
        <time>2014-12-07T10:37:20Z</time>
      </trkpt>
      <trkpt lat="44.58889" lon="0.88062">
        <ele>147.7</ele>
        <time>2014-12-07T10:37:21Z</time>
      </trkpt>
      <trkpt lat="44.58885" lon="0.88056">
        <ele>147.22</ele>
        <time>2014-12-07T10:37:22Z</time>
      </trkpt>
      <trkpt lat="44.58882" lon="0.88049">
        <ele>147.22</ele>
        <time>2014-12-07T10:37:23Z</time>
      </trkpt>
      <trkpt lat="44.5884" lon="0.87968">
        <ele>147.22</ele>
        <time>2014-12-07T10:37:36Z</time>
      </trkpt>
      <trkpt lat="44.58818" lon="0.87944">
        <ele>148.18</ele>
        <time>2014-12-07T10:37:42Z</time>
      </trkpt>
      <trkpt lat="44.58814" lon="0.87941">
        <ele>148.18</ele>
        <time>2014-12-07T10:37:43Z</time>
      </trkpt>
      <trkpt lat="44.58805" lon="0.87935">
        <ele>148.18</ele>
        <time>2014-12-07T10:37:45Z</time>
      </trkpt>
      <trkpt lat="44.58801" lon="0.87933">
        <ele>148.18</ele>
        <time>2014-12-07T10:37:46Z</time>
      </trkpt>
      <trkpt lat="44.58797" lon="0.87931">
        <ele>148.18</ele>
        <time>2014-12-07T10:37:47Z</time>
      </trkpt>
      <trkpt lat="44.58747" lon="0.87917">
        <ele>149.62</ele>
        <time>2014-12-07T10:37:58Z</time>
      </trkpt>
      <trkpt lat="44.58742" lon="0.87914">
        <ele>149.62</ele>
        <time>2014-12-07T10:37:59Z</time>
      </trkpt>
      <trkpt lat="44.58729" lon="0.87907">
        <ele>149.14</ele>
        <time>2014-12-07T10:38:02Z</time>
      </trkpt>
      <trkpt lat="44.58711" lon="0.87901">
        <ele>148.66</ele>
        <time>2014-12-07T10:38:06Z</time>
      </trkpt>
      <trkpt lat="44.58646" lon="0.87905">
        <ele>147.7</ele>
        <time>2014-12-07T10:38:19Z</time>
      </trkpt>
      <trkpt lat="44.58622" lon="0.87904">
        <ele>149.14</ele>
        <time>2014-12-07T10:38:24Z</time>
      </trkpt>
      <trkpt lat="44.58618" lon="0.87903">
        <ele>150.1</ele>
        <time>2014-12-07T10:38:25Z</time>
      </trkpt>
      <trkpt lat="44.58614" lon="0.87901">
        <ele>150.1</ele>
        <time>2014-12-07T10:38:26Z</time>
      </trkpt>
      <trkpt lat="44.58571" lon="0.87867">
        <ele>149.62</ele>
        <time>2014-12-07T10:38:38Z</time>
      </trkpt>
      <trkpt lat="44.58541" lon="0.87869">
        <ele>153.95</ele>
        <time>2014-12-07T10:38:49Z</time>
      </trkpt>
      <trkpt lat="44.58515" lon="0.87873">
        <ele>159.24</ele>
        <time>2014-12-07T10:39:00Z</time>
      </trkpt>
      <trkpt lat="44.58484" lon="0.87886">
        <ele>163.08</ele>
        <time>2014-12-07T10:39:13Z</time>
      </trkpt>
      <trkpt lat="44.58473" lon="0.87893">
        <ele>165.96</ele>
        <time>2014-12-07T10:39:18Z</time>
      </trkpt>
      <trkpt lat="44.58464" lon="0.87899">
        <ele>168.37</ele>
        <time>2014-12-07T10:39:23Z</time>
      </trkpt>
      <trkpt lat="44.58435" lon="0.87891">
        <ele>172.21</ele>
        <time>2014-12-07T10:39:37Z</time>
      </trkpt>
      <trkpt lat="44.58428" lon="0.87885">
        <ele>172.69</ele>
        <time>2014-12-07T10:39:41Z</time>
      </trkpt>
      <trkpt lat="44.58411" lon="0.87866">
        <ele>173.66</ele>
        <time>2014-12-07T10:39:54Z</time>
      </trkpt>
      <trkpt lat="44.58405" lon="0.87863">
        <ele>172.21</ele>
        <time>2014-12-07T10:40:27Z</time>
      </trkpt>
      <trkpt lat="44.58404" lon="0.87862">
        <ele>173.17</ele>
        <time>2014-12-07T10:40:59Z</time>
      </trkpt>
      <trkpt lat="44.58407" lon="0.87862">
        <ele>177.02</ele>
        <time>2014-12-07T10:41:30Z</time>
      </trkpt>
      <trkpt lat="44.58405" lon="0.87862">
        <ele>176.06</ele>
        <time>2014-12-07T10:41:44Z</time>
      </trkpt>
      <trkpt lat="44.58384" lon="0.87822">
        <ele>172.21</ele>
        <time>2014-12-07T10:41:56Z</time>
      </trkpt>
      <trkpt lat="44.58367" lon="0.87769">
        <ele>167.89</ele>
        <time>2014-12-07T10:42:07Z</time>
      </trkpt>
      <trkpt lat="44.5836" lon="0.87749">
        <ele>167.89</ele>
        <time>2014-12-07T10:42:11Z</time>
      </trkpt>
      <trkpt lat="44.58355" lon="0.87725">
        <ele>167.41</ele>
        <time>2014-12-07T10:42:15Z</time>
      </trkpt>
      <trkpt lat="44.58349" lon="0.87698">
        <ele>165.96</ele>
        <time>2014-12-07T10:42:20Z</time>
      </trkpt>
      <trkpt lat="44.58346" lon="0.87683">
        <ele>165</ele>
        <time>2014-12-07T10:42:23Z</time>
      </trkpt>
      <trkpt lat="44.58334" lon="0.87661">
        <ele>163.56</ele>
        <time>2014-12-07T10:42:27Z</time>
      </trkpt>
      <trkpt lat="44.58311" lon="0.87639">
        <ele>159.72</ele>
        <time>2014-12-07T10:42:34Z</time>
      </trkpt>
      <trkpt lat="44.583" lon="0.87623">
        <ele>157.79</ele>
        <time>2014-12-07T10:42:37Z</time>
      </trkpt>
      <trkpt lat="44.58285" lon="0.87601">
        <ele>155.39</ele>
        <time>2014-12-07T10:42:41Z</time>
      </trkpt>
      <trkpt lat="44.58273" lon="0.87566">
        <ele>152.51</ele>
        <time>2014-12-07T10:42:46Z</time>
      </trkpt>
      <trkpt lat="44.5827" lon="0.8755">
        <ele>151.54</ele>
        <time>2014-12-07T10:42:48Z</time>
      </trkpt>
      <trkpt lat="44.5827" lon="0.87483">
        <ele>148.18</ele>
        <time>2014-12-07T10:43:00Z</time>
      </trkpt>
      <trkpt lat="44.58271" lon="0.87442">
        <ele>143.85</ele>
        <time>2014-12-07T10:43:09Z</time>
      </trkpt>
      <trkpt lat="44.58246" lon="0.87424">
        <ele>140.01</ele>
        <time>2014-12-07T10:43:19Z</time>
      </trkpt>
      <trkpt lat="44.58241" lon="0.87415">
        <ele>138.57</ele>
        <time>2014-12-07T10:43:24Z</time>
      </trkpt>
      <trkpt lat="44.58235" lon="0.87406">
        <ele>138.57</ele>
        <time>2014-12-07T10:43:38Z</time>
      </trkpt>
      <trkpt lat="44.58232" lon="0.87398">
        <ele>140.01</ele>
        <time>2014-12-07T10:43:54Z</time>
      </trkpt>
      <trkpt lat="44.5823" lon="0.87391">
        <ele>140.97</ele>
        <time>2014-12-07T10:44:07Z</time>
      </trkpt>
      <trkpt lat="44.58229" lon="0.8739">
        <ele>140.49</ele>
        <time>2014-12-07T10:44:21Z</time>
      </trkpt>
      <trkpt lat="44.58233" lon="0.87395">
        <ele>141.45</ele>
        <time>2014-12-07T10:44:51Z</time>
      </trkpt>
      <trkpt lat="44.58233" lon="0.87394">
        <ele>141.93</ele>
        <time>2014-12-07T10:45:09Z</time>
      </trkpt>
      <trkpt lat="44.58232" lon="0.87394">
        <ele>141.93</ele>
        <time>2014-12-07T10:45:17Z</time>
      </trkpt>
      <trkpt lat="44.58224" lon="0.87396">
        <ele>144.34</ele>
        <time>2014-12-07T10:45:25Z</time>
      </trkpt>
      <trkpt lat="44.58206" lon="0.87388">
        <ele>147.22</ele>
        <time>2014-12-07T10:45:36Z</time>
      </trkpt>
      <trkpt lat="44.58181" lon="0.87355">
        <ele>148.66</ele>
        <time>2014-12-07T10:45:52Z</time>
      </trkpt>
      <trkpt lat="44.58171" lon="0.87328">
        <ele>152.99</ele>
        <time>2014-12-07T10:46:06Z</time>
      </trkpt>
      <trkpt lat="44.58171" lon="0.8732">
        <ele>154.43</ele>
        <time>2014-12-07T10:46:10Z</time>
      </trkpt>
      <trkpt lat="44.58168" lon="0.87305">
        <ele>155.39</ele>
        <time>2014-12-07T10:46:18Z</time>
      </trkpt>
      <trkpt lat="44.58167" lon="0.87298">
        <ele>155.39</ele>
        <time>2014-12-07T10:46:22Z</time>
      </trkpt>
      <trkpt lat="44.5816" lon="0.87277">
        <ele>158.75</ele>
        <time>2014-12-07T10:46:35Z</time>
      </trkpt>
      <trkpt lat="44.58158" lon="0.87269">
        <ele>159.72</ele>
        <time>2014-12-07T10:46:40Z</time>
      </trkpt>
      <trkpt lat="44.58153" lon="0.87244">
        <ele>162.12</ele>
        <time>2014-12-07T10:46:52Z</time>
      </trkpt>
      <trkpt lat="44.58152" lon="0.87237">
        <ele>162.6</ele>
        <time>2014-12-07T10:46:56Z</time>
      </trkpt>
      <trkpt lat="44.58149" lon="0.87211">
        <ele>164.04</ele>
        <time>2014-12-07T10:47:10Z</time>
      </trkpt>
      <trkpt lat="44.58148" lon="0.87178">
        <ele>163.56</ele>
        <time>2014-12-07T10:47:23Z</time>
      </trkpt>
      <trkpt lat="44.58146" lon="0.87145">
        <ele>163.56</ele>
        <time>2014-12-07T10:47:36Z</time>
      </trkpt>
      <trkpt lat="44.58139" lon="0.87105">
        <ele>165.48</ele>
        <time>2014-12-07T10:47:48Z</time>
      </trkpt>
      <trkpt lat="44.58132" lon="0.87047">
        <ele>167.41</ele>
        <time>2014-12-07T10:48:02Z</time>
      </trkpt>
      <trkpt lat="44.58118" lon="0.86993">
        <ele>165.48</ele>
        <time>2014-12-07T10:48:14Z</time>
      </trkpt>
      <trkpt lat="44.58089" lon="0.86952">
        <ele>167.41</ele>
        <time>2014-12-07T10:48:26Z</time>
      </trkpt>
      <trkpt lat="44.58064" lon="0.86914">
        <ele>169.33</ele>
        <time>2014-12-07T10:48:37Z</time>
      </trkpt>
      <trkpt lat="44.58056" lon="0.8687">
        <ele>167.41</ele>
        <time>2014-12-07T10:48:48Z</time>
      </trkpt>
      <trkpt lat="44.58065" lon="0.86833">
        <ele>164.52</ele>
        <time>2014-12-07T10:48:59Z</time>
      </trkpt>
      <trkpt lat="44.58068" lon="0.8682">
        <ele>162.6</ele>
        <time>2014-12-07T10:49:11Z</time>
      </trkpt>
      <trkpt lat="44.58067" lon="0.86818">
        <ele>160.68</ele>
        <time>2014-12-07T10:49:44Z</time>
      </trkpt>
      <trkpt lat="44.58073" lon="0.86799">
        <ele>161.16</ele>
        <time>2014-12-07T10:50:01Z</time>
      </trkpt>
      <trkpt lat="44.58087" lon="0.86745">
        <ele>163.56</ele>
        <time>2014-12-07T10:50:14Z</time>
      </trkpt>
      <trkpt lat="44.581" lon="0.86677">
        <ele>164.04</ele>
        <time>2014-12-07T10:50:28Z</time>
      </trkpt>
      <trkpt lat="44.58099" lon="0.86665">
        <ele>164.04</ele>
        <time>2014-12-07T10:50:30Z</time>
      </trkpt>
      <trkpt lat="44.58098" lon="0.86659">
        <ele>163.56</ele>
        <time>2014-12-07T10:50:31Z</time>
      </trkpt>
      <trkpt lat="44.58092" lon="0.86636">
        <ele>163.56</ele>
        <time>2014-12-07T10:50:35Z</time>
      </trkpt>
      <trkpt lat="44.58091" lon="0.86631">
        <ele>163.56</ele>
        <time>2014-12-07T10:50:36Z</time>
      </trkpt>
      <trkpt lat="44.58078" lon="0.86557">
        <ele>165.96</ele>
        <time>2014-12-07T10:50:50Z</time>
      </trkpt>
      <trkpt lat="44.58076" lon="0.86535">
        <ele>166.45</ele>
        <time>2014-12-07T10:50:54Z</time>
      </trkpt>
      <trkpt lat="44.58067" lon="0.8646">
        <ele>167.89</ele>
        <time>2014-12-07T10:51:08Z</time>
      </trkpt>
      <trkpt lat="44.58047" lon="0.86403">
        <ele>170.77</ele>
        <time>2014-12-07T10:51:20Z</time>
      </trkpt>
      <trkpt lat="44.58031" lon="0.86355">
        <ele>172.21</ele>
        <time>2014-12-07T10:51:31Z</time>
      </trkpt>
      <trkpt lat="44.58007" lon="0.86304">
        <ele>171.73</ele>
        <time>2014-12-07T10:51:43Z</time>
      </trkpt>
      <trkpt lat="44.57975" lon="0.86237">
        <ele>174.62</ele>
        <time>2014-12-07T10:51:59Z</time>
      </trkpt>
      <trkpt lat="44.5796" lon="0.86187">
        <ele>179.42</ele>
        <time>2014-12-07T10:52:11Z</time>
      </trkpt>
      <trkpt lat="44.57937" lon="0.86128">
        <ele>178.46</ele>
        <time>2014-12-07T10:52:25Z</time>
      </trkpt>
      <trkpt lat="44.57907" lon="0.86077">
        <ele>177.98</ele>
        <time>2014-12-07T10:52:37Z</time>
      </trkpt>
      <trkpt lat="44.57898" lon="0.86016">
        <ele>177.5</ele>
        <time>2014-12-07T10:52:48Z</time>
      </trkpt>
      <trkpt lat="44.57883" lon="0.85963">
        <ele>178.94</ele>
        <time>2014-12-07T10:52:59Z</time>
      </trkpt>
      <trkpt lat="44.57862" lon="0.85917">
        <ele>180.87</ele>
        <time>2014-12-07T10:53:11Z</time>
      </trkpt>
      <trkpt lat="44.57856" lon="0.85915">
        <ele>180.87</ele>
        <time>2014-12-07T10:53:14Z</time>
      </trkpt>
      <trkpt lat="44.57852" lon="0.85904">
        <ele>181.83</ele>
        <time>2014-12-07T10:53:18Z</time>
      </trkpt>
      <trkpt lat="44.57823" lon="0.85883">
        <ele>181.35</ele>
        <time>2014-12-07T10:53:30Z</time>
      </trkpt>
      <trkpt lat="44.57807" lon="0.8586">
        <ele>178.46</ele>
        <time>2014-12-07T10:53:34Z</time>
      </trkpt>
      <trkpt lat="44.57798" lon="0.85837">
        <ele>176.54</ele>
        <time>2014-12-07T10:53:37Z</time>
      </trkpt>
      <trkpt lat="44.57777" lon="0.85793">
        <ele>174.14</ele>
        <time>2014-12-07T10:53:44Z</time>
      </trkpt>
      <trkpt lat="44.57748" lon="0.85713">
        <ele>172.69</ele>
        <time>2014-12-07T10:53:56Z</time>
      </trkpt>
      <trkpt lat="44.57735" lon="0.85675">
        <ele>172.21</ele>
        <time>2014-12-07T10:54:02Z</time>
      </trkpt>
      <trkpt lat="44.57723" lon="0.85635">
        <ele>172.21</ele>
        <time>2014-12-07T10:54:09Z</time>
      </trkpt>
      <trkpt lat="44.57712" lon="0.85582">
        <ele>174.14</ele>
        <time>2014-12-07T10:54:19Z</time>
      </trkpt>
      <trkpt lat="44.57717" lon="0.85531">
        <ele>175.58</ele>
        <time>2014-12-07T10:54:29Z</time>
      </trkpt>
      <trkpt lat="44.57722" lon="0.85505">
        <ele>176.06</ele>
        <time>2014-12-07T10:54:35Z</time>
      </trkpt>
      <trkpt lat="44.57719" lon="0.85489">
        <ele>176.06</ele>
        <time>2014-12-07T10:54:39Z</time>
      </trkpt>
      <trkpt lat="44.57719" lon="0.85485">
        <ele>176.54</ele>
        <time>2014-12-07T10:54:40Z</time>
      </trkpt>
      <trkpt lat="44.57717" lon="0.85481">
        <ele>176.54</ele>
        <time>2014-12-07T10:54:41Z</time>
      </trkpt>
      <trkpt lat="44.57715" lon="0.85477">
        <ele>176.54</ele>
        <time>2014-12-07T10:54:42Z</time>
      </trkpt>
      <trkpt lat="44.57712" lon="0.85473">
        <ele>176.54</ele>
        <time>2014-12-07T10:54:43Z</time>
      </trkpt>
      <trkpt lat="44.57703" lon="0.85461">
        <ele>176.06</ele>
        <time>2014-12-07T10:54:46Z</time>
      </trkpt>
      <trkpt lat="44.577" lon="0.85458">
        <ele>176.06</ele>
        <time>2014-12-07T10:54:47Z</time>
      </trkpt>
      <trkpt lat="44.57696" lon="0.85456">
        <ele>176.06</ele>
        <time>2014-12-07T10:54:48Z</time>
      </trkpt>
      <trkpt lat="44.57664" lon="0.85431">
        <ele>180.38</ele>
        <time>2014-12-07T10:54:59Z</time>
      </trkpt>
      <trkpt lat="44.57654" lon="0.85419">
        <ele>183.75</ele>
        <time>2014-12-07T10:55:05Z</time>
      </trkpt>
      <trkpt lat="44.57652" lon="0.85418">
        <ele>183.75</ele>
        <time>2014-12-07T10:55:06Z</time>
      </trkpt>
      <trkpt lat="44.57649" lon="0.85417">
        <ele>185.19</ele>
        <time>2014-12-07T10:55:08Z</time>
      </trkpt>
      <trkpt lat="44.57648" lon="0.85418">
        <ele>185.67</ele>
        <time>2014-12-07T10:55:09Z</time>
      </trkpt>
      <trkpt lat="44.57647" lon="0.8542">
        <ele>186.15</ele>
        <time>2014-12-07T10:55:10Z</time>
      </trkpt>
      <trkpt lat="44.57646" lon="0.85422">
        <ele>186.63</ele>
        <time>2014-12-07T10:55:11Z</time>
      </trkpt>
      <trkpt lat="44.57644" lon="0.85425">
        <ele>186.63</ele>
        <time>2014-12-07T10:55:12Z</time>
      </trkpt>
      <trkpt lat="44.57623" lon="0.85468">
        <ele>189.04</ele>
        <time>2014-12-07T10:55:26Z</time>
      </trkpt>
      <trkpt lat="44.57602" lon="0.85459">
        <ele>191.44</ele>
        <time>2014-12-07T10:55:37Z</time>
      </trkpt>
      <trkpt lat="44.57575" lon="0.85441">
        <ele>190</ele>
        <time>2014-12-07T10:55:53Z</time>
      </trkpt>
      <trkpt lat="44.57531" lon="0.85414">
        <ele>185.19</ele>
        <time>2014-12-07T10:56:01Z</time>
      </trkpt>
      <trkpt lat="44.57512" lon="0.85398">
        <ele>183.75</ele>
        <time>2014-12-07T10:56:04Z</time>
      </trkpt>
      <trkpt lat="44.57507" lon="0.85392">
        <ele>183.75</ele>
        <time>2014-12-07T10:56:05Z</time>
      </trkpt>
      <trkpt lat="44.57502" lon="0.85386">
        <ele>183.27</ele>
        <time>2014-12-07T10:56:06Z</time>
      </trkpt>
      <trkpt lat="44.57448" lon="0.85331">
        <ele>182.79</ele>
        <time>2014-12-07T10:56:18Z</time>
      </trkpt>
      <trkpt lat="44.57408" lon="0.853">
        <ele>182.79</ele>
        <time>2014-12-07T10:56:27Z</time>
      </trkpt>
      <trkpt lat="44.57404" lon="0.85296">
        <ele>183.27</ele>
        <time>2014-12-07T10:56:28Z</time>
      </trkpt>
      <trkpt lat="44.574" lon="0.85293">
        <ele>183.27</ele>
        <time>2014-12-07T10:56:29Z</time>
      </trkpt>
      <trkpt lat="44.57378" lon="0.85271">
        <ele>182.79</ele>
        <time>2014-12-07T10:56:34Z</time>
      </trkpt>
      <trkpt lat="44.57373" lon="0.85265">
        <ele>182.79</ele>
        <time>2014-12-07T10:56:35Z</time>
      </trkpt>
      <trkpt lat="44.57362" lon="0.85245">
        <ele>182.31</ele>
        <time>2014-12-07T10:56:38Z</time>
      </trkpt>
      <trkpt lat="44.57357" lon="0.8523">
        <ele>181.83</ele>
        <time>2014-12-07T10:56:40Z</time>
      </trkpt>
      <trkpt lat="44.57355" lon="0.85222">
        <ele>181.35</ele>
        <time>2014-12-07T10:56:41Z</time>
      </trkpt>
      <trkpt lat="44.57352" lon="0.85214">
        <ele>181.35</ele>
        <time>2014-12-07T10:56:42Z</time>
      </trkpt>
      <trkpt lat="44.57337" lon="0.85181">
        <ele>181.35</ele>
        <time>2014-12-07T10:56:46Z</time>
      </trkpt>
      <trkpt lat="44.57333" lon="0.85173">
        <ele>180.87</ele>
        <time>2014-12-07T10:56:47Z</time>
      </trkpt>
      <trkpt lat="44.57329" lon="0.85165">
        <ele>180.87</ele>
        <time>2014-12-07T10:56:48Z</time>
      </trkpt>
      <trkpt lat="44.57279" lon="0.8506">
        <ele>177.98</ele>
        <time>2014-12-07T10:57:01Z</time>
      </trkpt>
      <trkpt lat="44.57275" lon="0.85051">
        <ele>177.98</ele>
        <time>2014-12-07T10:57:02Z</time>
      </trkpt>
      <trkpt lat="44.57272" lon="0.85043">
        <ele>177.5</ele>
        <time>2014-12-07T10:57:03Z</time>
      </trkpt>
      <trkpt lat="44.5727" lon="0.85034">
        <ele>177.5</ele>
        <time>2014-12-07T10:57:04Z</time>
      </trkpt>
      <trkpt lat="44.57261" lon="0.84998">
        <ele>177.02</ele>
        <time>2014-12-07T10:57:08Z</time>
      </trkpt>
      <trkpt lat="44.57258" lon="0.84989">
        <ele>177.02</ele>
        <time>2014-12-07T10:57:09Z</time>
      </trkpt>
      <trkpt lat="44.57256" lon="0.84981">
        <ele>177.5</ele>
        <time>2014-12-07T10:57:10Z</time>
      </trkpt>
      <trkpt lat="44.57254" lon="0.84972">
        <ele>177.5</ele>
        <time>2014-12-07T10:57:11Z</time>
      </trkpt>
      <trkpt lat="44.57252" lon="0.84964">
        <ele>177.5</ele>
        <time>2014-12-07T10:57:12Z</time>
      </trkpt>
      <trkpt lat="44.57248" lon="0.84948">
        <ele>177.5</ele>
        <time>2014-12-07T10:57:14Z</time>
      </trkpt>
      <trkpt lat="44.57248" lon="0.8494">
        <ele>177.5</ele>
        <time>2014-12-07T10:57:15Z</time>
      </trkpt>
      <trkpt lat="44.57246" lon="0.84917">
        <ele>177.98</ele>
        <time>2014-12-07T10:57:18Z</time>
      </trkpt>
      <trkpt lat="44.57246" lon="0.8491">
        <ele>177.98</ele>
        <time>2014-12-07T10:57:19Z</time>
      </trkpt>
      <trkpt lat="44.57243" lon="0.8489">
        <ele>178.46</ele>
        <time>2014-12-07T10:57:22Z</time>
      </trkpt>
      <trkpt lat="44.57225" lon="0.84818">
        <ele>182.31</ele>
        <time>2014-12-07T10:57:36Z</time>
      </trkpt>
      <trkpt lat="44.57223" lon="0.84745">
        <ele>181.83</ele>
        <time>2014-12-07T10:57:49Z</time>
      </trkpt>
      <trkpt lat="44.57221" lon="0.84644">
        <ele>178.46</ele>
        <time>2014-12-07T10:58:02Z</time>
      </trkpt>
      <trkpt lat="44.5721" lon="0.84525">
        <ele>175.1</ele>
        <time>2014-12-07T10:58:15Z</time>
      </trkpt>
      <trkpt lat="44.57204" lon="0.84492">
        <ele>174.62</ele>
        <time>2014-12-07T10:58:19Z</time>
      </trkpt>
      <trkpt lat="44.57204" lon="0.84484">
        <ele>174.62</ele>
        <time>2014-12-07T10:58:20Z</time>
      </trkpt>
      <trkpt lat="44.57205" lon="0.84476">
        <ele>174.62</ele>
        <time>2014-12-07T10:58:21Z</time>
      </trkpt>
      <trkpt lat="44.57206" lon="0.84469">
        <ele>174.14</ele>
        <time>2014-12-07T10:58:22Z</time>
      </trkpt>
      <trkpt lat="44.57206" lon="0.84462">
        <ele>174.14</ele>
        <time>2014-12-07T10:58:23Z</time>
      </trkpt>
      <trkpt lat="44.57206" lon="0.84455">
        <ele>174.14</ele>
        <time>2014-12-07T10:58:24Z</time>
      </trkpt>
      <trkpt lat="44.57207" lon="0.84447">
        <ele>174.14</ele>
        <time>2014-12-07T10:58:25Z</time>
      </trkpt>
      <trkpt lat="44.57207" lon="0.84434">
        <ele>174.62</ele>
        <time>2014-12-07T10:58:27Z</time>
      </trkpt>
      <trkpt lat="44.57207" lon="0.84428">
        <ele>174.14</ele>
        <time>2014-12-07T10:58:28Z</time>
      </trkpt>
      <trkpt lat="44.57207" lon="0.84417">
        <ele>174.14</ele>
        <time>2014-12-07T10:58:30Z</time>
      </trkpt>
      <trkpt lat="44.57209" lon="0.844">
        <ele>173.17</ele>
        <time>2014-12-07T10:58:37Z</time>
      </trkpt>
      <trkpt lat="44.5721" lon="0.84394">
        <ele>171.73</ele>
        <time>2014-12-07T10:58:41Z</time>
      </trkpt>
      <trkpt lat="44.57214" lon="0.84382">
        <ele>170.29</ele>
        <time>2014-12-07T10:58:46Z</time>
      </trkpt>
      <trkpt lat="44.57229" lon="0.84339">
        <ele>168.85</ele>
        <time>2014-12-07T10:58:57Z</time>
      </trkpt>
      <trkpt lat="44.57232" lon="0.84319">
        <ele>167.41</ele>
        <time>2014-12-07T10:59:01Z</time>
      </trkpt>
      <trkpt lat="44.57242" lon="0.84273">
        <ele>163.08</ele>
        <time>2014-12-07T10:59:10Z</time>
      </trkpt>
      <trkpt lat="44.5726" lon="0.84249">
        <ele>163.08</ele>
        <time>2014-12-07T10:59:16Z</time>
      </trkpt>
      <trkpt lat="44.57266" lon="0.8424">
        <ele>163.08</ele>
        <time>2014-12-07T10:59:18Z</time>
      </trkpt>
      <trkpt lat="44.5727" lon="0.84197">
        <ele>162.6</ele>
        <time>2014-12-07T10:59:25Z</time>
      </trkpt>
      <trkpt lat="44.57279" lon="0.84181">
        <ele>162.6</ele>
        <time>2014-12-07T10:59:28Z</time>
      </trkpt>
      <trkpt lat="44.57322" lon="0.84134">
        <ele>161.64</ele>
        <time>2014-12-07T10:59:38Z</time>
      </trkpt>
      <trkpt lat="44.57339" lon="0.84081">
        <ele>160.2</ele>
        <time>2014-12-07T10:59:45Z</time>
      </trkpt>
      <trkpt lat="44.57364" lon="0.8405">
        <ele>158.27</ele>
        <time>2014-12-07T10:59:50Z</time>
      </trkpt>
      <trkpt lat="44.57381" lon="0.84014">
        <ele>154.91</ele>
        <time>2014-12-07T10:59:55Z</time>
      </trkpt>
      <trkpt lat="44.57382" lon="0.83979">
        <ele>153.47</ele>
        <time>2014-12-07T10:59:59Z</time>
      </trkpt>
      <trkpt lat="44.57391" lon="0.83948">
        <ele>152.03</ele>
        <time>2014-12-07T11:00:03Z</time>
      </trkpt>
      <trkpt lat="44.57397" lon="0.83934">
        <ele>151.54</ele>
        <time>2014-12-07T11:00:05Z</time>
      </trkpt>
      <trkpt lat="44.57411" lon="0.83887">
        <ele>148.66</ele>
        <time>2014-12-07T11:00:13Z</time>
      </trkpt>
      <trkpt lat="44.57412" lon="0.83885">
        <ele>148.18</ele>
        <time>2014-12-07T11:00:14Z</time>
      </trkpt>
      <trkpt lat="44.57412" lon="0.83881">
        <ele>147.7</ele>
        <time>2014-12-07T11:00:27Z</time>
      </trkpt>
      <trkpt lat="44.57414" lon="0.83879">
        <ele>149.14</ele>
        <time>2014-12-07T11:00:44Z</time>
      </trkpt>
      <trkpt lat="44.57418" lon="0.83876">
        <ele>149.14</ele>
        <time>2014-12-07T11:00:47Z</time>
      </trkpt>
      <trkpt lat="44.5742" lon="0.83875">
        <ele>149.14</ele>
        <time>2014-12-07T11:00:48Z</time>
      </trkpt>
      <trkpt lat="44.57423" lon="0.83873">
        <ele>149.14</ele>
        <time>2014-12-07T11:00:49Z</time>
      </trkpt>
      <trkpt lat="44.57426" lon="0.83871">
        <ele>148.66</ele>
        <time>2014-12-07T11:00:50Z</time>
      </trkpt>
      <trkpt lat="44.57456" lon="0.83852">
        <ele>148.66</ele>
        <time>2014-12-07T11:01:00Z</time>
      </trkpt>
      <trkpt lat="44.57467" lon="0.83817">
        <ele>149.14</ele>
        <time>2014-12-07T11:01:10Z</time>
      </trkpt>
      <trkpt lat="44.57472" lon="0.83793">
        <ele>151.54</ele>
        <time>2014-12-07T11:01:17Z</time>
      </trkpt>
      <trkpt lat="44.57484" lon="0.83785">
        <ele>153.47</ele>
        <time>2014-12-07T11:01:22Z</time>
      </trkpt>
      <trkpt lat="44.57509" lon="0.83762">
        <ele>158.75</ele>
        <time>2014-12-07T11:01:33Z</time>
      </trkpt>
      <trkpt lat="44.57534" lon="0.83741">
        <ele>164.04</ele>
        <time>2014-12-07T11:01:45Z</time>
      </trkpt>
      <trkpt lat="44.57558" lon="0.8373">
        <ele>166.93</ele>
        <time>2014-12-07T11:01:57Z</time>
      </trkpt>
      <trkpt lat="44.57588" lon="0.83716">
        <ele>169.81</ele>
        <time>2014-12-07T11:02:10Z</time>
      </trkpt>
      <trkpt lat="44.5762" lon="0.8371">
        <ele>169.33</ele>
        <time>2014-12-07T11:02:23Z</time>
      </trkpt>
      <trkpt lat="44.57654" lon="0.83715">
        <ele>172.21</ele>
        <time>2014-12-07T11:02:38Z</time>
      </trkpt>
      <trkpt lat="44.57691" lon="0.83719">
        <ele>173.66</ele>
        <time>2014-12-07T11:02:53Z</time>
      </trkpt>
      <trkpt lat="44.57728" lon="0.83728">
        <ele>174.14</ele>
        <time>2014-12-07T11:03:06Z</time>
      </trkpt>
      <trkpt lat="44.57756" lon="0.83725">
        <ele>171.73</ele>
        <time>2014-12-07T11:03:14Z</time>
      </trkpt>
      <trkpt lat="44.57769" lon="0.83724">
        <ele>172.21</ele>
        <time>2014-12-07T11:03:18Z</time>
      </trkpt>
      <trkpt lat="44.57801" lon="0.83723">
        <ele>172.69</ele>
        <time>2014-12-07T11:03:28Z</time>
      </trkpt>
      <trkpt lat="44.57803" lon="0.83734">
        <ele>172.69</ele>
        <time>2014-12-07T11:03:38Z</time>
      </trkpt>
      <trkpt lat="44.57805" lon="0.83735">
        <ele>172.21</ele>
        <time>2014-12-07T11:03:48Z</time>
      </trkpt>
      <trkpt lat="44.57807" lon="0.83738">
        <ele>172.69</ele>
        <time>2014-12-07T11:03:51Z</time>
      </trkpt>
      <trkpt lat="44.57813" lon="0.83742">
        <ele>174.14</ele>
        <time>2014-12-07T11:04:05Z</time>
      </trkpt>
      <trkpt lat="44.57821" lon="0.83734">
        <ele>173.66</ele>
        <time>2014-12-07T11:04:10Z</time>
      </trkpt>
      <trkpt lat="44.57843" lon="0.83706">
        <ele>171.25</ele>
        <time>2014-12-07T11:04:19Z</time>
      </trkpt>
      <trkpt lat="44.57867" lon="0.83695">
        <ele>170.77</ele>
        <time>2014-12-07T11:04:25Z</time>
      </trkpt>
      <trkpt lat="44.57893" lon="0.837">
        <ele>170.29</ele>
        <time>2014-12-07T11:04:31Z</time>
      </trkpt>
      <trkpt lat="44.57901" lon="0.83704">
        <ele>170.29</ele>
        <time>2014-12-07T11:04:33Z</time>
      </trkpt>
      <trkpt lat="44.57934" lon="0.83705">
        <ele>170.29</ele>
        <time>2014-12-07T11:04:41Z</time>
      </trkpt>
      <trkpt lat="44.57961" lon="0.83707">
        <ele>168.85</ele>
        <time>2014-12-07T11:04:47Z</time>
      </trkpt>
      <trkpt lat="44.58009" lon="0.83723">
        <ele>166.45</ele>
        <time>2014-12-07T11:04:59Z</time>
      </trkpt>
      <trkpt lat="44.58013" lon="0.83724">
        <ele>165</ele>
        <time>2014-12-07T11:05:09Z</time>
      </trkpt>
      <trkpt lat="44.58021" lon="0.83693">
        <ele>165.48</ele>
        <time>2014-12-07T11:05:19Z</time>
      </trkpt>
      <trkpt lat="44.58031" lon="0.83635">
        <ele>166.45</ele>
        <time>2014-12-07T11:05:31Z</time>
      </trkpt>
      <trkpt lat="44.58043" lon="0.83577">
        <ele>165.96</ele>
        <time>2014-12-07T11:05:42Z</time>
      </trkpt>
      <trkpt lat="44.58063" lon="0.83514">
        <ele>162.6</ele>
        <time>2014-12-07T11:05:55Z</time>
      </trkpt>
      <trkpt lat="44.58071" lon="0.83483">
        <ele>161.64</ele>
        <time>2014-12-07T11:06:01Z</time>
      </trkpt>
      <trkpt lat="44.58076" lon="0.83441">
        <ele>160.68</ele>
        <time>2014-12-07T11:06:09Z</time>
      </trkpt>
      <trkpt lat="44.58081" lon="0.83415">
        <ele>158.27</ele>
        <time>2014-12-07T11:06:17Z</time>
      </trkpt>
      <trkpt lat="44.58096" lon="0.8335">
        <ele>156.35</ele>
        <time>2014-12-07T11:06:29Z</time>
      </trkpt>
      <trkpt lat="44.581" lon="0.83308">
        <ele>157.31</ele>
        <time>2014-12-07T11:06:38Z</time>
      </trkpt>
      <trkpt lat="44.58108" lon="0.83242">
        <ele>160.2</ele>
        <time>2014-12-07T11:06:50Z</time>
      </trkpt>
      <trkpt lat="44.58112" lon="0.83218">
        <ele>159.72</ele>
        <time>2014-12-07T11:06:55Z</time>
      </trkpt>
      <trkpt lat="44.58116" lon="0.83207">
        <ele>159.72</ele>
        <time>2014-12-07T11:07:00Z</time>
      </trkpt>
      <trkpt lat="44.581" lon="0.83156">
        <ele>159.72</ele>
        <time>2014-12-07T11:07:13Z</time>
      </trkpt>
      <trkpt lat="44.58085" lon="0.83104">
        <ele>159.72</ele>
        <time>2014-12-07T11:07:23Z</time>
      </trkpt>
      <trkpt lat="44.58083" lon="0.83099">
        <ele>159.24</ele>
        <time>2014-12-07T11:07:24Z</time>
      </trkpt>
      <trkpt lat="44.58056" lon="0.83004">
        <ele>157.79</ele>
        <time>2014-12-07T11:07:40Z</time>
      </trkpt>
      <trkpt lat="44.58027" lon="0.82902">
        <ele>156.35</ele>
        <time>2014-12-07T11:07:56Z</time>
      </trkpt>
      <trkpt lat="44.58029" lon="0.82896">
        <ele>156.35</ele>
        <time>2014-12-07T11:07:57Z</time>
      </trkpt>
      <trkpt lat="44.58031" lon="0.8289">
        <ele>156.35</ele>
        <time>2014-12-07T11:07:58Z</time>
      </trkpt>
      <trkpt lat="44.58035" lon="0.82886">
        <ele>155.87</ele>
        <time>2014-12-07T11:07:59Z</time>
      </trkpt>
      <trkpt lat="44.5804" lon="0.82882">
        <ele>155.87</ele>
        <time>2014-12-07T11:08:00Z</time>
      </trkpt>
      <trkpt lat="44.58106" lon="0.82825">
        <ele>152.99</ele>
        <time>2014-12-07T11:08:15Z</time>
      </trkpt>
      <trkpt lat="44.58177" lon="0.82772">
        <ele>151.54</ele>
        <time>2014-12-07T11:08:30Z</time>
      </trkpt>
      <trkpt lat="44.58271" lon="0.82715">
        <ele>149.14</ele>
        <time>2014-12-07T11:08:48Z</time>
      </trkpt>
      <trkpt lat="44.58356" lon="0.82682">
        <ele>149.62</ele>
        <time>2014-12-07T11:09:04Z</time>
      </trkpt>
      <trkpt lat="44.58425" lon="0.82633">
        <ele>150.58</ele>
        <time>2014-12-07T11:09:19Z</time>
      </trkpt>
      <trkpt lat="44.58506" lon="0.82559">
        <ele>151.06</ele>
        <time>2014-12-07T11:09:38Z</time>
      </trkpt>
      <trkpt lat="44.58558" lon="0.82508">
        <ele>152.03</ele>
        <time>2014-12-07T11:09:53Z</time>
      </trkpt>
      <trkpt lat="44.58574" lon="0.82483">
        <ele>152.03</ele>
        <time>2014-12-07T11:10:01Z</time>
      </trkpt>
      <trkpt lat="44.58574" lon="0.8248">
        <ele>152.03</ele>
        <time>2014-12-07T11:10:02Z</time>
      </trkpt>
      <trkpt lat="44.58568" lon="0.82453">
        <ele>150.1</ele>
        <time>2014-12-07T11:10:14Z</time>
      </trkpt>
    </trkseg>
  </trk>
</gpx>